Provisional Data: Tuscarora Creek near Woodhull, NY


Please select a monitoring station.
Please select start date.
Please select start date.

Toggle Unit: C/F Toggle Unit: C/F
Sample Time Temperature (C) Temperature (F) Specific Conductivity (mS/cm) pH   Turbidity (NTU+) DO (mg/L)
8/11/2023 12:00:00 AM 20.36 68.648 0.332 7.89 28.56 7.96
8/11/2023 12:15:00 AM 20.25 68.45 0.33 7.88 28.86 7.98
8/11/2023 12:30:00 AM 20.14 68.252 0.329 7.87 28.17 7.99
8/11/2023 12:45:00 AM 20.04 68.07201 0.328 7.86 26.13 8.01
8/11/2023 1:00:00 AM 19.92 67.856 0.327 7.85 28.43 8.03
8/11/2023 1:15:00 AM 19.83 67.694 0.326 7.85 27.47 8.04
8/11/2023 1:30:00 AM 19.75 67.55 0.326 7.84 25.03 8.06
8/11/2023 1:45:00 AM 19.65 67.37 0.326 7.83 25.19 8.07
8/11/2023 2:00:00 AM 19.57 67.226 0.326 7.83 24.95 8.09
8/11/2023 2:15:00 AM 19.49 67.082 0.326 7.83 23.81 8.09
8/11/2023 2:30:00 AM 19.39 66.902 0.326 7.82 22.63 8.11
8/11/2023 2:45:00 AM 19.3 66.74 0.327 7.82 23.66 8.13
8/11/2023 3:00:00 AM 19.21 66.578 0.327 7.81 21.53 8.15
8/11/2023 3:15:00 AM 19.13 66.434 0.328 7.81 21.63 8.16
8/11/2023 3:30:00 AM 19.05 66.29 0.328 7.8 21.87 8.17
8/11/2023 3:45:00 AM 18.96 66.128 0.329 7.8 20.47 8.19
8/11/2023 4:00:00 AM 18.89 66.002 0.33 7.8 20.62 8.2
8/11/2023 4:15:00 AM 18.82 65.876 0.33 7.79 18.52 8.21
8/11/2023 4:30:00 AM 18.76 65.768 0.331 7.79 18.74 8.22
8/11/2023 4:45:00 AM 18.7 65.66 0.333 7.78 17.09 8.23
8/11/2023 5:00:00 AM 18.66 65.588 0.334 7.78 16.23 8.24
8/11/2023 5:15:00 AM 18.62 65.516 0.336 7.78 15.66 8.25
8/11/2023 5:30:00 AM 18.59 65.462 0.338 7.77 14.87 8.26
8/11/2023 5:45:00 AM 18.54 65.372 0.34 7.76 16.08 8.26
8/11/2023 6:00:00 AM 18.5 65.3 0.341 7.76 16.02 8.27
8/11/2023 6:15:00 AM 18.44 65.192 0.342 7.76 14.25 8.28
8/11/2023 6:30:00 AM 18.38 65.084 0.343 7.76 14.73 8.29
8/11/2023 6:45:00 AM 18.34 65.012 0.343 7.76 13.67 8.35
8/11/2023 7:00:00 AM 18.29 64.922 0.343 7.76 13.54 8.39
8/11/2023 7:15:00 AM 18.29 64.922 0.344 7.78 12.91 8.46
8/11/2023 7:30:00 AM 18.28 64.904 0.344 7.79 12.33 8.55
8/11/2023 7:45:00 AM 18.3 64.94 0.345 7.81 12.75 8.61
8/11/2023 8:00:00 AM 18.32 64.976 0.345 7.84 13.61 8.72
8/11/2023 8:15:00 AM 18.36 65.048 0.346 7.86 11.56 8.79
8/11/2023 8:30:00 AM 18.43 65.174 0.346 7.89 10.02 8.89
8/11/2023 8:45:00 AM 18.52 65.336 0.347 7.92 11.13 8.98
8/11/2023 9:00:00 AM 18.62 65.516 0.348 7.96 9.81 9.1
8/11/2023 9:15:00 AM 18.72 65.696 0.348 7.99 10.74 9.17
8/11/2023 9:30:00 AM 18.91 66.038 0.349 8.04 9.63 9.28
8/11/2023 9:45:00 AM 19.11 66.398 0.349 8.07 8.83 9.39
8/11/2023 10:00:00 AM 19.36 66.848 0.35 8.12 9.16 9.52
8/11/2023 10:15:00 AM 19.55 67.19 0.35 8.17 8.25 9.6
8/11/2023 10:30:00 AM 19.59 67.262 0.351 8.19 8.6 9.6
8/11/2023 10:45:00 AM 19.64 67.352 0.351 8.21 8.17 9.58
8/11/2023 11:00:00 AM 19.79 67.622 0.352 8.23 10.69 9.68
8/11/2023 11:15:00 AM 20 68 0.352 8.25 8.01 9.74
8/11/2023 11:30:00 AM 20.35 68.63 0.353 8.29 7.57 9.81
8/11/2023 11:45:00 AM 20.55 68.99 0.353 8.33 8 9.88
8/11/2023 12:00:00 PM 20.94 69.692 0.354 8.36 7.92 9.9
8/11/2023 12:15:00 PM 21.32 70.376 0.354 8.41 9.63 10
8/11/2023 12:30:00 PM 21.73 71.114 0.354 8.44 6.88 10.07
8/11/2023 12:45:00 PM 21.84 71.312 0.355 8.46 6.85 9.95
8/11/2023 1:00:00 PM 21.95 71.51 0.355 8.48 7.15 9.91
8/11/2023 1:15:00 PM 22.16 71.888 0.355 8.5 6.67 9.98
8/11/2023 1:30:00 PM 22.43 72.374 0.356 8.53 6.6 9.95
8/11/2023 1:45:00 PM 22.7 72.86 0.357 8.56 6.84 9.99
8/11/2023 2:00:00 PM 23.01 73.418 0.358 8.58 6.43 9.99
8/11/2023 2:15:00 PM 23.28 73.904 0.358 8.61 6.47 10.01
8/11/2023 2:30:00 PM 23.54 74.372 0.359 8.63 6.74 9.96
8/11/2023 2:45:00 PM 23.72 74.696 0.359 8.64 6.08 9.89
8/11/2023 3:00:00 PM 23.93 75.074 0.359 8.66 6.01 9.86
8/11/2023 3:15:00 PM 24.06 75.308 0.359 8.67 6.43 9.76
8/11/2023 3:30:00 PM 24.2 75.56 0.358 8.69 5.45 9.66
8/11/2023 3:45:00 PM 24.3 75.74 0.358 8.69 5.25 9.56
8/11/2023 4:00:00 PM 24.47 76.046 0.358 8.7 5.54 9.49
8/11/2023 4:15:00 PM 24.54 76.172 0.357 8.71 5.62 9.39
8/11/2023 4:30:00 PM 24.61 76.298 0.357 8.71 5.83 9.33
8/11/2023 4:45:00 PM 24.53 76.154 0.357 8.7 5.28 9.11
8/11/2023 5:00:00 PM 24.5 76.1 0.357 8.69 6.21 8.97
8/11/2023 5:15:00 PM 24.48 76.064 0.358 8.68 5.48 8.91
8/11/2023 5:30:00 PM 24.44 75.992 0.358 8.67 5.13 8.78
8/11/2023 5:45:00 PM 24.42 75.956 0.358 8.66 4.92 8.73
8/11/2023 6:00:00 PM 24.37 75.866 0.359 8.65 5.04 8.6
8/11/2023 6:15:00 PM 24.29 75.722 0.359 8.63 5.19 8.41
8/11/2023 6:30:00 PM 24.3 75.74 0.359 8.61 5.48 8.37
8/11/2023 6:45:00 PM 24.22 75.596 0.359 8.59 5.77 8.27
8/11/2023 7:00:00 PM 24.16 75.488 0.36 8.57 5.25 8.09
8/11/2023 7:15:00 PM 24.07 75.326 0.361 8.53 5.81 7.98
8/11/2023 7:30:00 PM 23.97 75.146 0.361 8.5 5.65 7.84
8/11/2023 7:45:00 PM 23.86 74.948 0.361 8.47 6.01 7.74
8/11/2023 8:00:00 PM 23.77 74.786 0.362 8.43 5.23 7.62
8/11/2023 8:15:00 PM 23.63 74.534 0.363 8.37 5.39 7.51
8/11/2023 8:30:00 PM 23.5 74.3 0.363 8.34 5.69 7.47
8/11/2023 8:45:00 PM 23.38 74.084 0.363 8.3 6.7 7.41
8/11/2023 9:00:00 PM 23.26 73.868 0.364 8.26 623.67 7.37
8/11/2023 9:15:00 PM 23.16 73.688 0.365 8.22 6.22 7.33
8/11/2023 9:30:00 PM 23.06 73.508 0.365 8.18 6.26 7.32
8/11/2023 9:45:00 PM 22.96 73.328 0.366 8.15 5.98 7.29
8/11/2023 10:00:00 PM 22.85 73.13 0.366 8.12 6.21 7.3
8/11/2023 10:15:00 PM 22.77 72.986 0.367 8.09 6.19 7.28
8/11/2023 10:30:00 PM 22.67 72.806 0.369 8.06 6.05 7.28
8/11/2023 10:45:00 PM 22.57 72.626 0.37 8.04 6.42 7.31
8/11/2023 11:00:00 PM 22.47 72.446 0.371 8.02 6.34 7.32
8/11/2023 11:15:00 PM 22.36 72.248 0.372 7.99 5.81 7.31
8/11/2023 11:30:00 PM 22.24 72.032 0.373 7.97 6.07 7.34
8/11/2023 11:45:00 PM 22.13 71.834 0.374 7.95 6.46 7.33
8/12/2023 12:00:00 AM 22.02 71.636 0.374 7.93 6.06 7.35
8/12/2023 12:15:00 AM 21.91 71.438 0.374 7.91 6.29 7.35
8/12/2023 12:30:00 AM 21.81 71.258 0.374 7.89 5.95 7.37
8/12/2023 12:45:00 AM 21.71 71.078 0.373 7.88 6.59 7.38
8/12/2023 1:00:00 AM 21.61 70.898 0.373 7.86 6.13 7.4
8/12/2023 1:15:00 AM 21.52 70.736 0.373 7.85 6.27 7.4
8/12/2023 1:30:00 AM 21.42 70.556 0.373 7.84 5.68 7.42
8/12/2023 1:45:00 AM 21.33 70.394 0.373 7.83 5.86 7.44
8/12/2023 2:00:00 AM 21.23 70.214 0.373 7.82 6.1 7.45
8/12/2023 2:15:00 AM 21.13 70.034 0.373 7.81 5.7 7.47
8/12/2023 2:30:00 AM 21.05 69.89 0.373 7.81 6.56 7.51
8/12/2023 2:45:00 AM 20.96 69.728 0.374 7.8 5.96 7.51
8/12/2023 3:00:00 AM 20.88 69.584 0.374 7.79 5.4 7.53
8/12/2023 3:15:00 AM 20.79 69.422 0.374 7.79 5.81 7.54
8/12/2023 3:30:00 AM 20.7 69.26 0.374 7.78 5.98 7.55
8/12/2023 3:45:00 AM 20.61 69.098 0.374 7.77 27.46 7.55
8/12/2023 4:00:00 AM 20.53 68.954 0.375 7.77 5.9 7.58
8/12/2023 4:15:00 AM 20.45 68.81 0.375 7.77 5.92 7.58
8/12/2023 4:30:00 AM 20.35 68.63 0.375 7.77 7.42 7.62
8/12/2023 4:45:00 AM 20.26 68.468 0.376 7.76 5.54 7.62
8/12/2023 5:00:00 AM 20.17 68.306 0.376 7.76 6.01 7.64
8/12/2023 5:15:00 AM 20.09 68.162 0.376 7.76 5.23 7.67
8/12/2023 5:30:00 AM 20.02 68.036 0.377 7.75 5.36 7.69
8/12/2023 5:45:00 AM 19.94 67.892 0.377 7.74 8.68 7.66
8/12/2023 6:00:00 AM 19.87 67.766 0.378 7.74 5.86 7.59
8/12/2023 6:15:00 AM 19.78 67.604 0.378 7.74 5.93 7.69
8/12/2023 6:30:00 AM 19.69 67.442 0.379 7.74 5.86 7.75
8/12/2023 6:45:00 AM 19.62 67.316 0.379 7.74 5.77 7.68
8/12/2023 7:00:00 AM 19.57 67.226 0.38 7.74 6.01 7.77
8/12/2023 7:15:00 AM 19.54 67.172 0.381 7.76 5.35 8
8/12/2023 7:30:00 AM 19.54 67.172 0.382 7.77 5.15 8.12
8/12/2023 7:45:00 AM 19.55 67.19 0.383 7.79 5.65 8.25
8/12/2023 8:00:00 AM 19.58 67.244 0.384 7.82 5.74 8.47
8/12/2023 8:15:00 AM 19.6 67.28 0.384 7.85 5.51 8.65
8/12/2023 8:30:00 AM 19.64 67.352 0.385 7.88 4.93 8.72
8/12/2023 8:45:00 AM 19.69 67.442 0.385 7.88 5.18 8.62
8/12/2023 9:00:00 AM 19.73 67.514 0.386 7.91 5.04 8.87
8/12/2023 9:15:00 AM 19.84 67.712 0.386 7.95 5.01 9
8/12/2023 9:30:00 AM 19.92 67.856 0.385 7.97 5.75 8.99
8/12/2023 9:45:00 AM 20.05 68.09 0.385 8.01 4.84 9.28
8/12/2023 10:00:00 AM 20.12 68.216 0.385 8.02 5.51 9.28
8/12/2023 10:15:00 AM 20.33 68.594 0.384 8.08 5.78 9.46
8/12/2023 10:30:00 AM 20.67 69.206 0.384 8.12 6.64 9.51
8/12/2023 10:45:00 AM 20.78 69.404 0.384 8.14 5.23 9.68
8/12/2023 11:00:00 AM 20.83 69.494 0.383 8.18 4.77 9.73
8/12/2023 11:15:00 AM 20.96 69.728 0.383 8.24 4.94 9.86
8/12/2023 11:30:00 AM 21.04 69.872 0.383 8.26 12.39 9.8
8/12/2023 11:45:00 AM 21.11 69.998 0.382 8.28 7.05 9.84
8/12/2023 12:00:00 PM 21.29 70.32201 0.382 8.3 4.93 9.88
8/12/2023 12:15:00 PM 21.71 71.078 0.383 8.35 5.18 10.04
8/12/2023 12:30:00 PM 22.12 71.816 0.383 8.39 5.51 10.14
8/12/2023 12:45:00 PM 22.45 72.41 0.384 8.41 4.76 10.17
8/12/2023 1:00:00 PM 22.79 73.022 0.383 8.44 4.78 10.23
8/12/2023 1:15:00 PM 23.24 73.832 0.384 8.47 4.88 10.24
8/12/2023 1:30:00 PM 23.41 74.138 0.383 8.51 4.24 10.37
8/12/2023 1:45:00 PM 23.82 74.876 0.383 8.55 4.46 10.31
8/12/2023 2:00:00 PM 24.05 75.29 0.383 8.57 4.64 10.3
8/12/2023 2:15:00 PM 24.33 75.794 0.383 8.59 4.55 10.17
8/12/2023 2:30:00 PM 24.72 76.496 0.384 8.6 4.24 10.11
8/12/2023 2:45:00 PM 25.08 77.144 0.384 8.61 4.65 10.04
8/12/2023 3:00:00 PM 25.2 77.36 0.383 8.65 4.28 10.14
8/12/2023 3:15:00 PM 25.62 78.116 0.384 8.66 4.35 10.04
8/12/2023 3:30:00 PM 25.68 78.224 0.384 8.67 4.37 9.98
8/12/2023 3:45:00 PM 25.72 78.296 0.385 8.67 4.05 9.88
8/12/2023 4:00:00 PM 25.76 78.368 0.385 8.67 4.6 9.71
8/12/2023 4:15:00 PM 25.63 78.134 0.385 8.68 3.92 9.64
8/12/2023 4:30:00 PM 25.54 77.972 0.385 8.68 3.77 9.56
8/12/2023 4:45:00 PM 25.4 77.72 0.385 8.66 4.36 9.26
8/12/2023 5:00:00 PM 25.1 77.18 0.386 8.63 4.35 9.04
8/12/2023 5:15:00 PM 24.95 76.91 0.386 8.61 4.4 8.83
8/12/2023 5:30:00 PM 24.81 76.658 0.387 8.57 4.39 8.57
8/12/2023 5:45:00 PM 24.67 76.406 0.388 8.53 4.49 8.4
8/12/2023 6:00:00 PM 24.57 76.226 0.388 8.49 4.57 8.19
8/12/2023 6:15:00 PM 24.48 76.064 0.389 8.44 4.12 8.02
8/12/2023 6:30:00 PM 24.4 75.92 0.389 8.41 4.29 7.83
8/12/2023 6:45:00 PM 24.28 75.704 0.39 8.37 4.32 7.77
8/12/2023 7:00:00 PM 24.16 75.488 0.391 8.32 4.6 7.63
8/12/2023 7:15:00 PM 24.03 75.254 0.391 8.29 4.25 7.56
8/12/2023 7:30:00 PM 23.87 74.966 0.39 8.25 4.6 7.46
8/12/2023 7:45:00 PM 23.77 74.786 0.39 8.21 4.84 7.27
8/12/2023 8:00:00 PM 23.65 74.57 0.39 8.18 5.1 7.32
8/12/2023 8:15:00 PM 23.51 74.318 0.39 8.13 5.58 7.28
8/12/2023 8:30:00 PM 23.42 74.156 0.391 8.09 5.61 7.21
8/12/2023 8:45:00 PM 23.34 74.012 0.391 8.07 5.63 7.2
8/12/2023 9:00:00 PM 23.26 73.868 0.392 8.04 4.87 7.13
8/12/2023 9:15:00 PM 23.16 73.688 0.392 8.02 4.48 7.12
8/12/2023 9:30:00 PM 23.08 73.544 0.392 7.99 5.04 7.09
8/12/2023 9:45:00 PM 23 73.4 0.392 7.97 5.36 7.09
8/12/2023 10:00:00 PM 22.92 73.256 0.393 7.95 5.31 7.11
8/12/2023 10:15:00 PM 22.86 73.148 0.394 7.93 5.39 7.09
8/12/2023 10:30:00 PM 22.79 73.022 0.393 7.92 5.01 7.08
8/12/2023 10:45:00 PM 22.72 72.896 0.394 7.9 5.59 7.06
8/12/2023 11:00:00 PM 22.63 72.734 0.394 7.89 5.07 7.08
8/12/2023 11:15:00 PM 22.57 72.626 0.394 7.88 4.92 7.08
8/12/2023 11:30:00 PM 22.48 72.464 0.395 7.87 5.36 7.11
8/12/2023 11:45:00 PM 22.4 72.32 0.396 7.86 4.87 7.12
8/13/2023 12:00:00 AM 22.33 72.194 0.396 7.85 5.52 7.09
8/13/2023 12:15:00 AM 22.26 72.068 0.397 7.84 5.08 7.11
8/13/2023 12:30:00 AM 22.19 71.942 0.398 7.83 5.21 7.13
8/13/2023 12:45:00 AM 22.12 71.816 0.399 7.82 5.71 7.14
8/13/2023 1:00:00 AM 22.06 71.708 0.399 7.82 5.12 7.14
8/13/2023 1:15:00 AM 21.97 71.546 0.399 7.81 5.5 7.19
8/13/2023 1:30:00 AM 21.91 71.438 0.399 7.8 5.3 7.18
8/13/2023 1:45:00 AM 21.84 71.312 0.399 7.8 5.22 7.19
8/13/2023 2:00:00 AM 21.76 71.168 0.399 7.79 5.16 7.18
8/13/2023 2:15:00 AM 21.69 71.042 0.399 7.78 5.44 7.2
8/13/2023 2:30:00 AM 21.63 70.934 0.399 7.78 4.68 7.23
8/13/2023 2:45:00 AM 21.59 70.862 0.399 7.78 5.15 7.25
8/13/2023 3:00:00 AM 21.53 70.754 0.399 7.77 4.61 7.25
8/13/2023 3:15:00 AM 21.5 70.7 0.399 7.77 4.64 7.22
8/13/2023 3:30:00 AM 21.45 70.61 0.399 7.77 5.18 7.27
8/13/2023 3:45:00 AM 21.39 70.502 0.399 7.76 5.36 7.28
8/13/2023 4:00:00 AM 21.31 70.358 0.399 7.76 5.3 7.29
8/13/2023 4:15:00 AM 21.24 70.232 0.4 7.76 4.83 7.3
8/13/2023 4:30:00 AM 21.18 70.124 0.4 7.76 4.89 7.33
8/13/2023 4:45:00 AM 21.09 69.962 0.399 7.76 5.24 7.34
8/13/2023 5:00:00 AM 21.01 69.818 0.4 7.75 4.89 7.35
8/13/2023 5:15:00 AM 20.95 69.71 0.4 7.75 4.67 7.35
8/13/2023 5:30:00 AM 20.86 69.548 0.4 7.74 6.55 7.31
8/13/2023 5:45:00 AM 20.79 69.422 0.4 7.74 6.22 7.35
8/13/2023 6:00:00 AM 20.72 69.296 0.401 7.74 5.68 7.37
8/13/2023 6:15:00 AM 20.63 69.134 0.4 7.74 5.15 7.37
8/13/2023 6:30:00 AM 20.56 69.008 0.401 7.74 5.13 7.46
8/13/2023 6:45:00 AM 20.51 68.918 0.401 7.74 5.51 7.41
8/13/2023 7:00:00 AM 20.47 68.846 0.401 7.75 5.48 7.54
8/13/2023 7:15:00 AM 20.44 68.792 0.401 7.76 4.7 7.66
8/13/2023 7:30:00 AM 20.43 68.774 0.402 7.77 5.57 7.76
8/13/2023 7:45:00 AM 20.43 68.774 0.402 7.8 5.18 7.93
8/13/2023 8:00:00 AM 20.46 68.828 0.403 7.81 4.71 8.04
8/13/2023 8:15:00 AM 20.51 68.918 0.403 7.83 5 8.21
8/13/2023 8:30:00 AM 20.58 69.044 0.404 7.86 5.19 8.34
8/13/2023 8:45:00 AM 20.64 69.152 0.405 7.87 4.73 8.37
8/13/2023 9:00:00 AM 20.72 69.296 0.405 7.9 5.02 8.49
8/13/2023 9:15:00 AM 20.85 69.53 0.406 7.95 4.42 8.75
8/13/2023 9:30:00 AM 20.99 69.782 0.406 7.98 4.64 8.9
8/13/2023 9:45:00 AM 21.05 69.89 0.406 8.01 4.79 8.97
8/13/2023 10:00:00 AM 21.2 70.16 0.405 8.05 4.56 9.18
8/13/2023 10:15:00 AM 21.42 70.556 0.405 8.09 4.88 9.33
8/13/2023 10:30:00 AM 21.69 71.042 0.405 8.14 4.76 9.5
8/13/2023 10:45:00 AM 21.84 71.312 0.404 8.15 4.57 9.43
8/13/2023 11:00:00 AM 22.12 71.816 0.404 8.19 5.4 9.6
8/13/2023 11:15:00 AM 22.42 72.356 0.403 8.23 5.22 9.78
8/13/2023 11:30:00 AM 22.78 73.004 0.402 8.27 5.07 9.84
8/13/2023 11:45:00 AM 23.06 73.508 0.402 8.3 4.71 9.94
8/13/2023 12:00:00 PM 23.51 74.318 0.401 8.35 5.32 10.09
8/13/2023 12:15:00 PM 23.88 74.984 0.401 8.38 5.36 10.04
8/13/2023 12:30:00 PM 24.2 75.56 0.4 8.42 4.77 10.17
8/13/2023 12:45:00 PM 24.36 75.848 0.399 8.44 5.25 10.1
8/13/2023 1:00:00 PM 24.43 75.974 0.399 8.46 4.93 9.95
8/13/2023 1:15:00 PM 24.85 76.73 0.398 8.5 4.59 10.14
8/13/2023 1:30:00 PM 24.94 76.892 0.398 8.5 4.85 9.95
8/13/2023 1:45:00 PM 24.94 76.892 0.398 8.5 4.7 9.87
8/13/2023 2:00:00 PM 25.1 77.18 0.398 8.53 4.76 9.96
8/13/2023 2:15:00 PM 25.22 77.396 0.397 8.56 4.91 9.96
8/13/2023 2:30:00 PM 25.23 77.414 0.397 8.55 4.49 9.89
8/13/2023 2:45:00 PM 25.26 77.468 0.397 8.56 5.4 9.84
8/13/2023 3:00:00 PM 25.32 77.576 0.397 8.56 4.91 9.73
8/13/2023 3:15:00 PM 25.25 77.45 0.397 8.57 4.81 9.76
8/13/2023 3:30:00 PM 25.27 77.486 0.398 8.58 4.7 9.73
8/13/2023 3:45:00 PM 25.28 77.504 0.398 8.59 4.31 9.64
8/13/2023 4:00:00 PM 25.2 77.36 0.398 8.59 4.56 9.59
8/13/2023 4:15:00 PM 25.11 77.198 0.398 8.6 4.84 9.47
8/13/2023 4:30:00 PM 25.01 77.018 0.398 8.6 4.4 9.48
8/13/2023 4:45:00 PM 24.97 76.946 0.398 8.57 4.65 9.28
8/13/2023 5:00:00 PM 24.93 76.874 0.399 8.57 5.04 9.15
8/13/2023 5:15:00 PM 24.89 76.802 0.399 8.55 4.56 9.04
8/13/2023 5:30:00 PM 24.88 76.784 0.399 8.56 4.75 9.06
8/13/2023 5:45:00 PM 24.84 76.712 0.4 8.54 4.85 8.9
8/13/2023 6:00:00 PM 24.78 76.604 0.4 8.53 5.04 8.79
8/13/2023 6:15:00 PM 24.68 76.424 0.4 8.52 4.24 8.73
8/13/2023 6:30:00 PM 24.58 76.244 0.401 8.49 4.55 8.55
8/13/2023 6:45:00 PM 24.42 75.956 0.401 8.46 4.8 8.45
8/13/2023 7:00:00 PM 24.27 75.686 0.402 8.43 5.23 8.34
8/13/2023 7:15:00 PM 24.12 75.416 0.403 8.4 5.17 8.18
8/13/2023 7:30:00 PM 23.96 75.128 0.403 8.37 4.36 8.06
8/13/2023 7:45:00 PM 23.83 74.894 0.404 8.33 5.42 7.86
8/13/2023 8:00:00 PM 23.66 74.588 0.405 8.27 4.73 7.69
8/13/2023 8:15:00 PM 23.54 74.372 0.406 8.22 4.79 7.56
8/13/2023 8:30:00 PM 23.44 74.192 0.407 8.19 4.47 7.45
8/13/2023 8:45:00 PM 23.34 74.012 0.407 8.15 4.88 7.36
8/13/2023 9:00:00 PM 23.2 73.76 0.408 8.11 5.17 7.31
8/13/2023 9:15:00 PM 23.07 73.526 0.408 8.08 5.52 7.26
8/13/2023 9:30:00 PM 22.97 73.346 0.408 8.05 5 7.2
8/13/2023 9:45:00 PM 22.85 73.13 0.409 8.02 4.54 7.16
8/13/2023 10:00:00 PM 22.75 72.95 0.408 8 4.91 7.15
8/13/2023 10:15:00 PM 22.66 72.788 0.409 7.98 4.84 7.12
8/13/2023 10:30:00 PM 22.53 72.554 0.409 7.95 5.39 7.13
8/13/2023 10:45:00 PM 22.47 72.446 0.409 7.94 5.46 7.1
8/13/2023 11:00:00 PM 22.38 72.284 0.41 7.92 5.46 7.07
8/13/2023 11:15:00 PM 22.27 72.086 0.411 7.9 6.01 7.13
8/13/2023 11:30:00 PM 22.22 71.996 0.41 7.89 5.6 7.09
8/13/2023 11:45:00 PM 22.13 71.834 0.412 7.88 5.52 7.13
8/14/2023 12:00:00 AM 22.06 71.708 0.412 7.87 5.15 7.14
8/14/2023 12:15:00 AM 22 71.6 0.413 7.86 4.97 7.12
8/14/2023 12:30:00 AM 21.94 71.492 0.414 7.85 4.95 7.14
8/14/2023 12:45:00 AM 21.89 71.402 0.414 7.84 5.02 7.16
8/14/2023 1:00:00 AM 21.84 71.312 0.414 7.83 5.08 7.15
8/14/2023 1:15:00 AM 21.77 71.186 0.414 7.83 5.82 7.17
8/14/2023 1:30:00 AM 21.72 71.096 0.415 7.82 5.21 7.17
8/14/2023 1:45:00 AM 21.67 71.006 0.415 7.81 5.15 7.16
8/14/2023 2:00:00 AM 21.61 70.898 0.414 7.8 6.11 7.2
8/14/2023 2:15:00 AM 21.54 70.772 0.414 7.8 4.98 7.22
8/14/2023 2:30:00 AM 21.48 70.664 0.414 7.79 4.73 7.21
8/14/2023 2:45:00 AM 21.43 70.574 0.414 7.79 5.14 7.21
8/14/2023 3:00:00 AM 21.35 70.43 0.414 7.78 5.12 7.25
8/14/2023 3:15:00 AM 21.3 70.34 0.413 7.78 5.04 7.26
8/14/2023 3:30:00 AM 21.25 70.25 0.413 7.77 4.94 7.26
8/14/2023 3:45:00 AM 21.19 70.142 0.413 7.77 5.54 7.27
8/14/2023 4:00:00 AM 21.14 70.052 0.413 7.76 4.98 7.27
8/14/2023 4:15:00 AM 21.08 69.944 0.412 7.76 5.35 7.3
8/14/2023 4:30:00 AM 21.03 69.854 0.412 7.76 5.06 7.28
8/14/2023 4:45:00 AM 20.97 69.746 0.412 7.76 5.26 7.28
8/14/2023 5:00:00 AM 20.91 69.638 0.412 7.75 5.06 7.3
8/14/2023 5:15:00 AM 20.84 69.512 0.412 7.75 9.2 7.3
8/14/2023 5:30:00 AM 20.79 69.422 0.412 7.74 5.28 7.33
8/14/2023 5:45:00 AM 20.73 69.314 0.412 7.74 5.61 7.33
8/14/2023 6:00:00 AM 20.67 69.206 0.413 7.73 6.1 7.28
8/14/2023 6:15:00 AM 20.62 69.116 0.413 7.72 5.32 7.32
8/14/2023 6:30:00 AM 20.56 69.008 0.413 7.72 5.4 7.35
8/14/2023 6:45:00 AM 20.5 68.9 0.413 7.73 5.08 7.33
8/14/2023 7:00:00 AM 20.46 68.828 0.413 7.74 5.42 7.49
8/14/2023 7:15:00 AM 20.44 68.792 0.413 7.74 5.05 7.57
8/14/2023 7:30:00 AM 20.4 68.72 0.413 7.74 5.12 7.6
8/14/2023 7:45:00 AM 20.38 68.684 0.414 7.76 5.43 7.77
8/14/2023 8:00:00 AM 20.37 68.666 0.414 7.77 4.84 7.86
8/14/2023 8:15:00 AM 20.38 68.684 0.415 7.79 4.7 7.97
8/14/2023 8:30:00 AM 20.43 68.774 0.415 7.82 5.16 8.24
8/14/2023 8:45:00 AM 20.51 68.918 0.415 7.84 4.7 8.38
8/14/2023 9:00:00 AM 20.55 68.99 0.416 7.86 4.84 8.49
8/14/2023 9:15:00 AM 20.61 69.098 0.416 7.89 4.88 8.64
8/14/2023 9:30:00 AM 20.82 69.476 0.417 7.94 4.79 8.95
8/14/2023 9:45:00 AM 21.04 69.872 0.417 7.99 4.54 9.15
8/14/2023 10:00:00 AM 21.25 70.25 0.417 8.03 4.9 9.28
8/14/2023 10:15:00 AM 21.5 70.7 0.417 8.05 4.58 9.35
8/14/2023 10:30:00 AM 21.76 71.168 0.417 8.1 4.33 9.46
8/14/2023 10:45:00 AM 21.98 71.564 0.417 8.14 4.33 9.58
8/14/2023 11:00:00 AM 22.38 72.284 0.416 8.2 4.53 9.87
8/14/2023 11:15:00 AM 22.65 72.77 0.415 8.25 5.96 9.94
8/14/2023 11:30:00 AM 22.95 73.31 0.415 8.31 5.07 10.12
8/14/2023 11:45:00 AM 23.15 73.67 0.414 8.33 8.76 10.1
8/14/2023 12:00:00 PM 23.25 73.85 0.414 8.36 5.38 10.19
8/14/2023 12:15:00 PM 23.48 74.264 0.413 8.4 5.13 10.26
8/14/2023 12:30:00 PM 23.7 74.66 0.413 8.45 8.95 10.37
8/14/2023 12:45:00 PM 23.96 75.128 0.413 8.47 4.5 10.35
8/14/2023 1:00:00 PM 24.47 76.046 0.412 8.51 4.53 10.52
8/14/2023 1:15:00 PM 24.81 76.658 0.411 8.54 5.25 10.51
8/14/2023 1:30:00 PM 25.15 77.27 0.411 8.55 4.88 10.48
8/14/2023 1:45:00 PM 25.63 78.134 0.41 8.58 4.79 10.54
8/14/2023 2:00:00 PM 25.92 78.656 0.41 8.6 4.76 10.45
8/14/2023 2:15:00 PM 25.96 78.728 0.409 8.59 4.27 10.4
8/14/2023 2:30:00 PM 26.24 79.232 0.409 8.63 4.64 10.42
8/14/2023 2:45:00 PM 26.49 79.682 0.408 8.64 5.42 10.35
8/14/2023 3:00:00 PM 26.71 80.078 0.408 8.65 4.42 10.24
8/14/2023 3:15:00 PM 26.82 80.276 0.408 8.66 4.26 10.25
8/14/2023 3:30:00 PM 26.75 80.15 0.407 8.66 4.37 10.16
8/14/2023 3:45:00 PM 26.69 80.042 0.407 8.66 4.69 9.94
8/14/2023 4:00:00 PM 26.66 79.988 0.406 8.67 4.34 9.84
8/14/2023 4:15:00 PM 26.61 79.898 0.406 8.67 4.52 9.77
8/14/2023 4:30:00 PM 26.52 79.736 0.406 8.66 4.37 9.58
8/14/2023 4:45:00 PM 26.38 79.484 0.406 8.64 4.13 9.46
8/14/2023 5:00:00 PM 26.22 79.196 0.406 8.62 4.52 9.27
8/14/2023 5:15:00 PM 26.01 78.818 0.408 8.59 4.77 8.97
8/14/2023 5:30:00 PM 25.76 78.368 0.409 8.56 4.43 8.83
8/14/2023 5:45:00 PM 25.65 78.17 0.409 8.54 4.23 8.66
8/14/2023 6:00:00 PM 25.46 77.828 0.41 8.51 4.72 8.43
8/14/2023 6:15:00 PM 25.26 77.468 0.41 8.46 5.55 8.25
8/14/2023 6:30:00 PM 25.03 77.054 0.412 8.41 4.89 8.06
8/14/2023 6:45:00 PM 24.95 76.91 0.412 8.38 5.25 7.89
8/14/2023 7:00:00 PM 24.7 76.46 0.413 8.31 4.93 7.7
8/14/2023 7:15:00 PM 24.55 76.19 0.414 8.27 4.55 7.59
8/14/2023 7:30:00 PM 24.48 76.064 0.415 8.25 4.81 7.49
8/14/2023 7:45:00 PM 24.35 75.83 0.415 8.21 4.63 7.4
8/14/2023 8:00:00 PM 24.25 75.65 0.416 8.14 5.71 7.02
8/14/2023 8:15:00 PM 24.13 75.434 0.416 8.11 4.81 7.1
8/14/2023 8:30:00 PM 24.02 75.236 0.416 8.07 4.53 7.06
8/14/2023 8:45:00 PM 23.89 75.002 0.417 8.04 5.45 7.01
8/14/2023 9:00:00 PM 23.8 74.84 0.416 8.01 5.3 6.97
8/14/2023 9:15:00 PM 23.7 74.66 0.414 7.99 6.06 6.94
8/14/2023 9:30:00 PM 23.59 74.462 0.414 7.95 6.09 6.92
8/14/2023 9:45:00 PM 23.47 74.246 0.413 7.93 6.47 6.91
8/14/2023 10:00:00 PM 23.36 74.048 0.411 7.91 6.02 6.89
8/14/2023 10:15:00 PM 23.22 73.796 0.41 7.89 6.92 6.93
8/14/2023 10:30:00 PM 23.11 73.598 0.408 7.87 6.61 6.93
8/14/2023 10:45:00 PM 22.99 73.382 0.406 7.87 6.6 6.98
8/14/2023 11:00:00 PM 22.9 73.22 0.405 7.86 7.28 7.01
8/14/2023 11:15:00 PM 22.78 73.004 0.402 7.86 8.4 7.09
8/14/2023 11:30:00 PM 22.69 72.842 0.4 7.85 8.39 7.11
8/14/2023 11:45:00 PM 22.59 72.662 0.398 7.84 29.06 7.13
8/15/2023 12:00:00 AM 22.49 72.482 0.396 7.83 7.91 7.16
8/15/2023 12:15:00 AM 22.38 72.284 0.393 7.84 10.22 7.27
8/15/2023 12:30:00 AM 22.29 72.122 0.39 7.83 10.01 7.32
8/15/2023 12:45:00 AM 22.2 71.96 0.387 7.83 11.05 7.36
8/15/2023 1:00:00 AM 22.14 71.852 0.384 7.82 11.63 7.35
8/15/2023 1:15:00 AM 22.07 71.726 0.382 7.81 11.89 7.37
8/15/2023 1:30:00 AM 22.03 71.654 0.38 7.81 10.94 7.38
8/15/2023 1:45:00 AM 22.02 71.636 0.381 7.8 8.82 7.36
8/15/2023 2:00:00 AM 22.02 71.636 0.381 7.79 8.74 7.34
8/15/2023 2:15:00 AM 22.02 71.636 0.382 7.79 9.26 7.37
8/15/2023 2:30:00 AM 22.01 71.618 0.384 7.8 8.89 7.37
8/15/2023 2:45:00 AM 21.99 71.582 0.386 7.81 9.38 7.41
8/15/2023 3:00:00 AM 21.95 71.51 0.387 7.81 11.34 7.45
8/15/2023 3:15:00 AM 21.88 71.384 0.386 7.83 13.42 7.52
8/15/2023 3:30:00 AM 21.8 71.24 0.385 7.84 14.29 7.58
8/15/2023 3:45:00 AM 21.71 71.078 0.386 7.84 17.03 7.62
8/15/2023 4:00:00 AM 21.63 70.934 0.387 7.83 15.71 7.61
8/15/2023 4:15:00 AM 21.55 70.79 0.389 7.82 17.44 7.61
8/15/2023 4:30:00 AM 21.41 70.538 0.387 7.81 18.74 7.64
8/15/2023 4:45:00 AM 21.17 70.106 0.375 7.81 43.7 7.74
8/15/2023 5:00:00 AM 20.79 69.422 0.36 7.8 111.56 7.87
8/15/2023 5:15:00 AM 20.59 69.062 0.363 7.8 95.38 7.96
8/15/2023 5:30:00 AM 20.62 69.116 0.357 7.81 102.44 8
8/15/2023 5:45:00 AM 20.42 68.756 0.339 7.78 122.59 8.04
8/15/2023 6:00:00 AM 20.15 68.27 0.32 7.76 138.61 8.09
8/15/2023 6:15:00 AM 19.9 67.82 0.302 7.72 144.06 8.14
8/15/2023 6:30:00 AM 19.71 67.478 0.288 7.69 143.72 8.17
8/15/2023 6:45:00 AM 19.56 67.208 0.277 7.6 143.3 8.18
8/15/2023 7:00:00 AM 19.44 66.992 0.272 7.56 140.09 8.22
8/15/2023 7:15:00 AM 19.35 66.83 0.271 7.57 134.64 8.24
8/15/2023 7:30:00 AM 19.28 66.704 0.267 7.56 137.65 8.27
8/15/2023 7:45:00 AM 19.22 66.596 0.266 7.56 124.19 8.3
8/15/2023 8:00:00 AM 19.18 66.524 0.264 7.58 112.02 8.32
8/15/2023 8:15:00 AM 19.16 66.488 0.262 7.59 104.14 8.34
8/15/2023 8:30:00 AM 19.14 66.452 0.26 7.6 95.2 8.35
8/15/2023 8:45:00 AM 19.13 66.434 0.258 7.62 88.01 8.37
8/15/2023 9:00:00 AM 19.13 66.434 0.256 7.63 83.61 8.38
8/15/2023 9:15:00 AM 19.15 66.47 0.255 7.65 77.85 8.4
8/15/2023 9:30:00 AM 19.18 66.524 0.255 7.66 70.05 8.41
8/15/2023 9:45:00 AM 19.22 66.596 0.255 7.68 64.3 8.42
8/15/2023 10:00:00 AM 19.25 66.65 0.255 7.69 63.11 8.44
8/15/2023 10:15:00 AM 19.29 66.722 0.255 7.71 57.82 8.45
8/15/2023 10:30:00 AM 19.32 66.776 0.254 7.72 70.12 8.45
8/15/2023 10:45:00 AM 19.36 66.848 0.25 7.73 55.78 8.45
8/15/2023 11:00:00 AM 19.41 66.938 0.25 7.75 53.67 8.46
8/15/2023 11:15:00 AM 19.46 67.028 0.25 7.77 48.81 8.47
8/15/2023 11:30:00 AM 19.51 67.118 0.25 7.78 47.2 8.47
8/15/2023 11:45:00 AM 19.56 67.208 0.25 7.79 45.4 8.48
8/15/2023 12:00:00 PM 19.62 67.316 0.252 7.8 41.94 8.5
8/15/2023 12:15:00 PM 19.65 67.37 0.253 7.81 42.53 8.48
8/15/2023 12:30:00 PM 19.68 67.424 0.251 7.82 38.47 8.47
8/15/2023 12:45:00 PM 19.72 67.496 0.251 7.82 36.06 8.48
8/15/2023 1:00:00 PM 19.74 67.532 0.251 7.83 34.61 8.47
8/15/2023 1:15:00 PM 19.78 67.604 0.252 7.84 34.2 8.49
8/15/2023 1:30:00 PM 19.82 67.676 0.253 7.85 39.08 8.49
8/15/2023 1:45:00 PM 19.86 67.748 0.253 7.86 30.24 8.49
8/15/2023 2:00:00 PM 19.96 67.92799 0.253 7.87 30.29 8.53
8/15/2023 2:15:00 PM 20.02 68.036 0.254 7.88 34.13 8.54
8/15/2023 2:30:00 PM 20.04 68.07201 0.255 7.89 28.79 8.51
8/15/2023 2:45:00 PM 20.09 68.162 0.256 7.89 27.6 8.51
8/15/2023 3:00:00 PM 20.13 68.234 0.257 7.89 26.91 8.49
8/15/2023 3:15:00 PM 20.2 68.36 0.258 7.9 25.33 8.5
8/15/2023 3:30:00 PM 20.24 68.432 0.259 7.91 24.74 8.49
8/15/2023 3:45:00 PM 20.26 68.468 0.26 7.91 24.67 8.46
8/15/2023 4:00:00 PM 20.33 68.594 0.261 7.92 23.75 8.5
8/15/2023 4:15:00 PM 20.44 68.792 0.262 7.94 23.95 8.56
8/15/2023 4:30:00 PM 20.5 68.9 0.263 7.95 21.98 8.56
8/15/2023 4:45:00 PM 20.64 69.152 0.264 7.97 22.53 8.61
8/15/2023 5:00:00 PM 20.71 69.278 0.264 7.97 22.07 8.59
8/15/2023 5:15:00 PM 20.78 69.404 0.265 7.99 21.19 8.58
8/15/2023 5:30:00 PM 20.81 69.458 0.266 7.99 20.85 8.56
8/15/2023 5:45:00 PM 20.81 69.458 0.267 7.99 20.33 8.52
8/15/2023 6:00:00 PM 20.85 69.53 0.268 7.99 20.11 8.5
8/15/2023 6:15:00 PM 20.89 69.602 0.269 8 19.78 8.5
8/15/2023 6:30:00 PM 20.87 69.566 0.27 7.99 19.97 8.43
8/15/2023 6:45:00 PM 20.86 69.548 0.271 7.97 19.18 8.37
8/15/2023 7:00:00 PM 20.87 69.566 0.272 7.96 18.42 8.31
8/15/2023 7:15:00 PM 20.88 69.584 0.273 7.94 18.37 8.26
8/15/2023 7:30:00 PM 20.88 69.584 0.274 7.93 16.83 8.22
8/15/2023 7:45:00 PM 20.88 69.584 0.275 7.92 18.15 8.19
8/15/2023 8:00:00 PM 20.77 69.386 0.267 7.93 21.7 8.23
8/15/2023 8:15:00 PM 20.73 69.314 0.265 7.91 15.72 8.21
8/15/2023 8:30:00 PM 20.71 69.278 0.267 7.89 21.45 8.16
8/15/2023 8:45:00 PM 20.65 69.17 0.269 7.87 28.67 8.14
8/15/2023 9:00:00 PM 20.6 69.08 0.271 7.86 37.36 8.14
8/15/2023 9:15:00 PM 20.56 69.008 0.274 7.86 34.69 8.14
8/15/2023 9:30:00 PM 20.47 68.846 0.274 7.86 56.73 8.16
8/15/2023 9:45:00 PM 20.29 68.522 0.264 7.81 179.96 8.17
8/15/2023 10:00:00 PM 20.16 68.288 0.263 7.79 254.32 8.19
8/15/2023 10:15:00 PM 19.99 67.982 0.258 7.74 308.36 8.17
8/15/2023 10:30:00 PM 19.85 67.73 0.234 7.69 359.21 8.14
8/15/2023 10:45:00 PM 19.71 67.478 0.218 7.66 454.59 8.16
8/15/2023 11:00:00 PM 19.59 67.262 0.206 7.63 550.59 8.16
8/15/2023 11:15:00 PM 19.49 67.082 0.195 7.61 686.17 8.13
8/15/2023 11:30:00 PM 19.43 66.974 0.199 7.6 730.57 8.13
8/15/2023 11:45:00 PM 19.39 66.902 0.205 7.6 677.22 8.15
8/16/2023 12:00:00 AM 19.35 66.83 0.206 7.59 595.42 8.18
8/16/2023 12:15:00 AM 19.32 66.776 0.206 7.58 536 8.22
8/16/2023 12:30:00 AM 19.29 66.722 0.208 7.58 474.09 8.25
8/16/2023 12:45:00 AM 19.26 66.668 0.211 7.57 409.89 8.27
8/16/2023 1:00:00 AM 19.22 66.596 0.213 7.57 368.49 8.29
8/16/2023 1:15:00 AM 19.18 66.524 0.213 7.56 318.51 8.31
8/16/2023 1:30:00 AM 19.14 66.452 0.213 7.55 279.39 8.32
8/16/2023 1:45:00 AM 19.1 66.38 0.213 7.56 249.92 8.34
8/16/2023 2:00:00 AM 19.05 66.29 0.213 7.56 221.98 8.36
8/16/2023 2:15:00 AM 19.01 66.218 0.214 7.56 201.98 8.38
8/16/2023 2:30:00 AM 18.96 66.128 0.215 7.56 180.91 8.4
8/16/2023 2:45:00 AM 18.92 66.056 0.216 7.57 168.54 8.41
8/16/2023 3:00:00 AM 18.88 65.984 0.217 7.57 153.46 8.43
8/16/2023 3:15:00 AM 18.84 65.912 0.219 7.58 142.34 8.44
8/16/2023 3:30:00 AM 18.79 65.82201 0.221 7.58 125.89 8.45
8/16/2023 3:45:00 AM 18.75 65.75 0.222 7.59 117.09 8.47
8/16/2023 4:00:00 AM 18.7 65.66 0.224 7.59 104.9 8.48
8/16/2023 4:15:00 AM 18.66 65.588 0.226 7.6 97.21 8.49
8/16/2023 4:30:00 AM 18.62 65.516 0.228 7.61 91.82 8.51
8/16/2023 4:45:00 AM 18.57 65.426 0.23 7.61 87.24 8.52
8/16/2023 5:00:00 AM 18.52 65.336 0.232 7.62 81.3 8.53
8/16/2023 5:15:00 AM 18.47 65.246 0.234 7.62 77.01 8.55
8/16/2023 5:30:00 AM 18.43 65.174 0.236 7.63 72.42 8.55
8/16/2023 5:45:00 AM 18.38 65.084 0.238 7.63 69.08 8.57
8/16/2023 6:00:00 AM 18.33 64.994 0.24 7.63 66.43 8.57
8/16/2023 6:15:00 AM 18.28 64.904 0.242 7.63 62.74 8.59
8/16/2023 6:30:00 AM 18.24 64.832 0.243 7.64 60.46 8.6
8/16/2023 6:45:00 AM 18.2 64.76 0.245 7.64 57.24 8.61
8/16/2023 7:00:00 AM 18.18 64.724 0.246 7.64 53.32 8.62
8/16/2023 7:15:00 AM 18.17 64.706 0.248 7.65 51.11 8.63
8/16/2023 7:30:00 AM 18.17 64.706 0.249 7.66 48.8 8.65
8/16/2023 7:45:00 AM 18.17 64.706 0.251 7.66 46.48 8.67
8/16/2023 8:00:00 AM 18.16 64.688 0.252 7.67 43.71 8.68
8/16/2023 8:15:00 AM 18.18 64.724 0.254 7.68 42.55 8.71
8/16/2023 8:30:00 AM 18.23 64.814 0.255 7.7 41 8.74
8/16/2023 8:45:00 AM 18.25 64.85 0.257 7.71 40.03 8.75
8/16/2023 9:00:00 AM 18.27 64.886 0.258 7.72 37.13 8.75
8/16/2023 9:15:00 AM 18.33 64.994 0.26 7.74 35.11 8.75
8/16/2023 9:30:00 AM 18.37 65.066 0.255 7.74 36.17 8.75
8/16/2023 9:45:00 AM 18.38 65.084 0.257 7.75 34.26 8.74
8/16/2023 10:00:00 AM 18.41 65.138 0.258 7.75 30.59 8.75
8/16/2023 10:15:00 AM 18.45 65.21 0.26 7.77 30.91 8.76
8/16/2023 10:30:00 AM 18.49 65.282 0.261 7.78 28.07 8.77
8/16/2023 10:45:00 AM 18.51 65.318 0.263 7.78 28.05 8.76
8/16/2023 11:00:00 AM 18.54 65.372 0.264 7.78 27.59 8.74
8/16/2023 11:15:00 AM 18.65 65.57 0.265 7.8 26.5 8.8
8/16/2023 11:30:00 AM 18.84 65.912 0.266 7.83 25.41 8.88
8/16/2023 11:45:00 AM 19.08 66.344 0.268 7.85 25.11 8.94
8/16/2023 12:00:00 PM 19.21 66.578 0.269 7.88 23.68 8.96
8/16/2023 12:15:00 PM 19.35 66.83 0.27 7.9 23.98 8.96
8/16/2023 12:30:00 PM 19.58 67.244 0.271 7.91 23.14 8.97
8/16/2023 12:45:00 PM 19.74 67.532 0.272 7.93 22.42 8.95
8/16/2023 1:00:00 PM 20.03 68.054 0.273 7.95 22.07 8.98
8/16/2023 1:15:00 PM 20.26 68.468 0.274 7.97 20.34 8.97
8/16/2023 1:30:00 PM 20.27 68.486 0.274 7.96 22.02 8.86
8/16/2023 1:45:00 PM 20.37 68.666 0.275 7.96 21.06 8.82
8/16/2023 2:00:00 PM 20.47 68.846 0.276 7.96 19.51 8.76
8/16/2023 2:15:00 PM 20.85 69.53 0.277 7.99 19.71 8.83
8/16/2023 2:30:00 PM 21.15 70.07 0.278 8.01 21.05 8.87
8/16/2023 2:45:00 PM 21.32 70.376 0.279 8.02 18.51 8.82
8/16/2023 3:00:00 PM 21.35 70.43 0.28 8.01 18.94 8.73
8/16/2023 3:15:00 PM 21.58 70.844 0.28 8.02 19.14 8.72
8/16/2023 3:30:00 PM 21.88 71.384 0.281 8.04 18.78 8.73
8/16/2023 3:45:00 PM 21.9 71.42 0.282 8.04 18.76 8.66
8/16/2023 4:00:00 PM 21.99 71.582 0.283 8.04 18.13 8.61
8/16/2023 4:15:00 PM 22.27 72.086 0.284 8.04 17.55 8.61
8/16/2023 4:30:00 PM 22.57 72.626 0.285 8.06 14.21 8.63
8/16/2023 4:45:00 PM 22.75 72.95 0.285 8.07 17.04 8.62
8/16/2023 5:00:00 PM 22.84 73.112 0.286 8.07 17.15 8.55
8/16/2023 5:15:00 PM 22.88 73.184 0.287 8.07 17.65 8.51
8/16/2023 5:30:00 PM 22.93 73.274 0.287 8.07 16.23 8.47
8/16/2023 5:45:00 PM 22.93 73.274 0.288 8.05 19.62 8.38
8/16/2023 6:00:00 PM 22.89 73.202 0.289 8.03 19.89 8.32
8/16/2023 6:15:00 PM 22.81 73.058 0.29 8.02 18.89 8.25
8/16/2023 6:30:00 PM 22.71 72.878 0.291 7.99 17.64 8.16
8/16/2023 6:45:00 PM 22.63 72.734 0.292 7.96 17.33 8.11
8/16/2023 7:00:00 PM 22.56 72.608 0.293 7.95 16.93 8.08
8/16/2023 7:15:00 PM 22.49 72.482 0.294 7.93 16.8 8.05
8/16/2023 7:30:00 PM 22.42 72.356 0.295 7.91 16.71 8.02
8/16/2023 7:45:00 PM 22.34 72.212 0.296 7.9 16.52 7.99
8/16/2023 8:00:00 PM 22.25 72.05 0.296 7.88 15.9 7.98
8/16/2023 8:15:00 PM 22.15 71.87 0.297 7.86 15.64 7.96
8/16/2023 8:30:00 PM 22.03 71.654 0.298 7.85 15.97 7.94
8/16/2023 8:45:00 PM 21.91 71.438 0.299 7.84 36.52 7.93
8/16/2023 9:00:00 PM 21.81 71.258 0.299 7.82 16.29 7.93
8/16/2023 9:15:00 PM 21.69 71.042 0.3 7.81 16.49 7.94
8/16/2023 9:30:00 PM 21.6 70.88 0.301 7.8 16.52 7.94
8/16/2023 9:45:00 PM 21.51 70.718 0.301 7.8 16.27 7.95
8/16/2023 10:00:00 PM 21.41 70.538 0.302 7.79 16.68 7.96
8/16/2023 10:15:00 PM 21.33 70.394 0.302 7.78 16.04 7.97
8/16/2023 10:30:00 PM 21.25 70.25 0.303 7.77 15.77 7.97
8/16/2023 10:45:00 PM 21.15 70.07 0.304 7.76 17.46 7.98
8/16/2023 11:00:00 PM 21.06 69.908 0.305 7.75 15.63 8
8/16/2023 11:15:00 PM 20.96 69.728 0.305 7.75 15.45 8.01
8/16/2023 11:30:00 PM 20.86 69.548 0.306 7.75 15.16 8.02
8/16/2023 11:45:00 PM 20.74 69.332 0.307 7.74 15.77 8.04
8/17/2023 12:00:00 AM 20.64 69.152 0.307 7.74 15.79 8.06
8/17/2023 12:15:00 AM 20.54 68.972 0.308 7.73 54.96 8.06
8/17/2023 12:30:00 AM 20.44 68.792 0.308 7.73 15.46 8.08
8/17/2023 12:45:00 AM 20.35 68.63 0.309 7.73 15.94 8.11
8/17/2023 1:00:00 AM 20.28 68.504 0.31 7.73 15.35 8.11
8/17/2023 1:15:00 AM 20.21 68.378 0.31 7.74 14.38 8.14
8/17/2023 1:30:00 AM 20.15 68.27 0.311 7.73 13.81 8.15
8/17/2023 1:45:00 AM 20.08 68.144 0.311 7.73 15.51 8.16
8/17/2023 2:00:00 AM 20.02 68.036 0.312 7.73 14.8 8.16
8/17/2023 2:15:00 AM 19.96 67.92799 0.313 7.73 14.12 8.18
8/17/2023 2:30:00 AM 19.9 67.82 0.313 7.73 14.37 8.18
8/17/2023 2:45:00 AM 19.84 67.712 0.314 7.73 14.23 8.2
8/17/2023 3:00:00 AM 19.78 67.604 0.315 7.73 13.51 8.21
8/17/2023 3:15:00 AM 19.71 67.478 0.315 7.74 13.8 8.24
8/17/2023 3:30:00 AM 19.66 67.388 0.316 7.74 14.18 8.24
8/17/2023 3:45:00 AM 19.6 67.28 0.316 7.74 26.78 8.24
8/17/2023 4:00:00 AM 19.54 67.172 0.317 7.74 12.73 8.26
8/17/2023 4:15:00 AM 19.49 67.082 0.318 7.74 12.37 8.28
8/17/2023 4:30:00 AM 19.44 66.992 0.318 7.74 12.11 8.28
8/17/2023 4:45:00 AM 19.38 66.884 0.319 7.74 13.98 8.29
8/17/2023 5:00:00 AM 19.34 66.812 0.319 7.74 13.44 8.3
8/17/2023 5:15:00 AM 19.29 66.722 0.32 7.74 13.77 8.31
8/17/2023 5:30:00 AM 19.25 66.65 0.32 7.74 14.15 8.31
8/17/2023 5:45:00 AM 19.2 66.56 0.321 7.74 13.95 8.32
8/17/2023 6:00:00 AM 19.16 66.488 0.321 7.73 13.31 8.32
8/17/2023 6:15:00 AM 19.12 66.416 0.322 7.73 13.88 8.34
8/17/2023 6:30:00 AM 19.07 66.326 0.322 7.73 13.95 8.35
8/17/2023 6:45:00 AM 19.03 66.254 0.323 7.74 13.58 8.37
8/17/2023 7:00:00 AM 18.98 66.164 0.323 7.74 14.79 8.4
8/17/2023 7:15:00 AM 18.95 66.11 0.323 7.74 12.25 8.43
8/17/2023 7:30:00 AM 18.92 66.056 0.324 7.75 12.27 8.49
8/17/2023 7:45:00 AM 18.91 66.038 0.324 7.76 39.99 8.56
8/17/2023 8:00:00 AM 18.91 66.038 0.324 7.77 10.67 8.64
8/17/2023 8:15:00 AM 18.91 66.038 0.324 7.79 11.3 8.75
8/17/2023 8:30:00 AM 18.93 66.074 0.325 7.81 32.37 8.82
8/17/2023 8:45:00 AM 19.03 66.254 0.325 7.84 24.25 8.98
8/17/2023 9:00:00 AM 19.11 66.398 0.325 7.86 26.11 9.05
8/17/2023 9:15:00 AM 19.18 66.524 0.325 7.89 25.03 9.15
8/17/2023 9:30:00 AM 19.25 66.65 0.326 7.91 21.78 9.22
8/17/2023 9:45:00 AM 19.31 66.758 0.326 7.93 26.8 9.26
8/17/2023 10:00:00 AM 19.4 66.92 0.327 7.96 21.96 9.34
8/17/2023 10:15:00 AM 19.52 67.136 0.327 7.99 41.52 9.41
8/17/2023 10:30:00 AM 19.62 67.316 0.328 8.01 16.65 9.43
8/17/2023 10:45:00 AM 19.73 67.514 0.328 8.03 14.58 9.45
8/17/2023 11:00:00 AM 19.86 67.748 0.328 8.06 8.51 9.52
8/17/2023 11:15:00 AM 20.08 68.144 0.329 8.09 33.13 9.58
8/17/2023 11:30:00 AM 20.25 68.45 0.329 8.13 24.02 9.64
8/17/2023 11:45:00 AM 20.42 68.756 0.329 8.14 36.35 9.64
8/17/2023 12:00:00 PM 20.6 69.08 0.329 8.16 8.04 9.62
8/17/2023 12:15:00 PM 20.79 69.422 0.329 8.18 7 9.61
8/17/2023 12:30:00 PM 21.11 69.998 0.329 8.21 7.42 9.64
8/17/2023 12:45:00 PM 21.19 70.142 0.329 8.22 7.38 9.57
8/17/2023 1:00:00 PM 21.2 70.16 0.329 8.23 7.04 9.48
8/17/2023 1:15:00 PM 21.26 70.268 0.329 8.23 7.33 9.42
8/17/2023 1:30:00 PM 21.25 70.25 0.329 8.23 7.06 9.36
8/17/2023 1:45:00 PM 21.23 70.214 0.329 8.21 6.74 9.19
8/17/2023 2:00:00 PM 21.32 70.376 0.329 8.21 7.19 9.15
8/17/2023 2:15:00 PM 21.68 71.024 0.33 8.22 7.24 9.2
8/17/2023 2:30:00 PM 21.91 71.438 0.33 8.25 6.53 9.32
8/17/2023 2:45:00 PM 22.05 71.69 0.33 8.25 7.53 9.3
8/17/2023 3:00:00 PM 22.2 71.96 0.33 8.28 7.28 9.27
8/17/2023 3:15:00 PM 22.26 72.068 0.331 8.28 7.3 9.24
8/17/2023 3:30:00 PM 22.42 72.356 0.331 8.29 6.25 9.23
8/17/2023 3:45:00 PM 22.7 72.86 0.33 8.31 6.94 9.23
8/17/2023 4:00:00 PM 22.9 73.22 0.33 8.34 6.44 9.25
8/17/2023 4:15:00 PM 22.94 73.292 0.331 8.33 6.11 9.1
8/17/2023 4:30:00 PM 22.86 73.148 0.331 8.3 8.26 8.96
8/17/2023 4:45:00 PM 22.87 73.166 0.331 8.29 6.57 8.87
8/17/2023 5:00:00 PM 22.98 73.364 0.332 8.29 6.57 8.84
8/17/2023 5:15:00 PM 23.11 73.598 0.332 8.3 6.27 8.79
8/17/2023 5:30:00 PM 23.16 73.688 0.332 8.28 6.44 8.74
8/17/2023 5:45:00 PM 23.2 73.76 0.333 8.28 5.96 8.72
8/17/2023 6:00:00 PM 23.13 73.634 0.334 8.26 6.08 8.53
8/17/2023 6:15:00 PM 23.15 73.67 0.335 8.24 6.21 8.49
8/17/2023 6:30:00 PM 23.15 73.67 0.335 8.21 6.23 8.4
8/17/2023 6:45:00 PM 23.13 73.634 0.336 8.2 6.22 8.31
8/17/2023 7:00:00 PM 23.07 73.526 0.337 8.17 6.65 8.21
8/17/2023 7:15:00 PM 23.01 73.418 0.337 8.13 6.25 8.1
8/17/2023 7:30:00 PM 22.93 73.274 0.338 8.1 6.27 8.02
8/17/2023 7:45:00 PM 22.85 73.13 0.338 8.06 6.11 7.94
8/17/2023 8:00:00 PM 22.78 73.004 0.338 8.02 6.15 7.85
8/17/2023 8:15:00 PM 22.74 72.932 0.338 8 5.59 7.79
8/17/2023 8:30:00 PM 22.68 72.824 0.339 7.96 6.68 7.73
8/17/2023 8:45:00 PM 22.61 72.698 0.339 7.93 7.02 7.69
8/17/2023 9:00:00 PM 22.54 72.57201 0.339 7.92 6.22 7.67
8/17/2023 9:15:00 PM 22.46 72.42799 0.34 7.91 7.07 7.67
8/17/2023 9:30:00 PM 22.38 72.284 0.34 7.88 6.87 7.65
8/17/2023 9:45:00 PM 22.3 72.14 0.341 7.87 7 7.64
8/17/2023 10:00:00 PM 22.22 71.996 0.341 7.85 6.64 7.63
8/17/2023 10:15:00 PM 22.12 71.816 0.342 7.85 7.36 7.65
8/17/2023 10:30:00 PM 22.01 71.618 0.342 7.83 7.8 7.64
8/17/2023 10:45:00 PM 21.92 71.456 0.343 7.83 6.75 7.66
8/17/2023 11:00:00 PM 21.82 71.276 0.343 7.81 6.96 7.67
8/17/2023 11:15:00 PM 21.71 71.078 0.344 7.81 8.21 7.67
8/17/2023 11:30:00 PM 21.61 70.898 0.344 7.8 10.17 7.68
8/17/2023 11:45:00 PM 21.49 70.682 0.345 7.79 8.03 7.71
8/18/2023 12:00:00 AM 21.4 70.52 0.345 7.78 8.1 7.69
8/18/2023 12:15:00 AM 21.29 70.32201 0.345 7.78 7.75 7.72
8/18/2023 12:30:00 AM 21.2 70.16 0.346 7.78 7.71 7.74
8/18/2023 12:45:00 AM 21.11 69.998 0.346 7.77 7.46 7.77
8/18/2023 1:00:00 AM 21.03 69.854 0.347 7.77 7.95 7.78
8/18/2023 1:15:00 AM 20.96 69.728 0.348 7.76 7.84 7.78
8/18/2023 1:30:00 AM 20.86 69.548 0.348 7.76 10.12 7.8
8/18/2023 1:45:00 AM 20.73 69.314 0.349 7.76 7.52 7.82
8/18/2023 2:00:00 AM 20.61 69.098 0.349 7.77 8.67 7.85
8/18/2023 2:15:00 AM 20.51 68.918 0.35 7.77 7.77 7.87
8/18/2023 2:30:00 AM 20.41 68.738 0.351 7.77 7.86 7.88
8/18/2023 2:45:00 AM 20.3 68.54 0.351 7.77 7.83 7.91
8/18/2023 3:00:00 AM 20.22 68.396 0.352 7.78 7.38 7.93
8/18/2023 3:15:00 AM 20.15 68.27 0.352 7.78 6.63 7.94
8/18/2023 3:30:00 AM 20.04 68.07201 0.352 7.77 7.87 7.95
8/18/2023 3:45:00 AM 19.94 67.892 0.352 7.77 15.19 7.97
8/18/2023 4:00:00 AM 19.85 67.73 0.353 7.77 8.04 7.97
8/18/2023 4:15:00 AM 19.77 67.586 0.353 7.78 12.71 7.99
8/18/2023 4:30:00 AM 19.68 67.424 0.353 7.77 10.03 8.01
8/18/2023 4:45:00 AM 19.6 67.28 0.354 7.77 11.47 8.03
8/18/2023 5:00:00 AM 19.52 67.136 0.354 7.77 7.49 8.04
8/18/2023 5:15:00 AM 19.45 67.01 0.354 7.77 7.19 8.05
8/18/2023 5:30:00 AM 19.36 66.848 0.354 7.76 8.39 8.04
8/18/2023 5:45:00 AM 19.26 66.668 0.354 7.77 7.36 8.09
8/18/2023 6:00:00 AM 19.17 66.506 0.355 7.77 8.1 8.11
8/18/2023 6:15:00 AM 19.11 66.398 0.355 7.76 7.38 8.12
8/18/2023 6:30:00 AM 19.05 66.29 0.355 7.77 7.37 8.14
8/18/2023 6:45:00 AM 18.99 66.182 0.356 7.78 7.73 8.15
8/18/2023 7:00:00 AM 18.94 66.092 0.356 7.77 7.71 8.2
8/18/2023 7:15:00 AM 18.92 66.056 0.356 7.79 6.94 8.3
8/18/2023 7:30:00 AM 18.91 66.038 0.356 7.8 6.98 8.4
8/18/2023 7:45:00 AM 18.91 66.038 0.357 7.82 6.59 8.55
8/18/2023 8:00:00 AM 18.92 66.056 0.357 7.84 7.52 8.64
8/18/2023 8:15:00 AM 18.95 66.11 0.357 7.87 7.03 8.82
8/18/2023 8:30:00 AM 18.98 66.164 0.357 7.88 6.46 8.92
8/18/2023 8:45:00 AM 19.01 66.218 0.357 7.92 7.39 9.05
8/18/2023 9:00:00 AM 19 66.2 0.357 7.93 6.09 9.09
8/18/2023 9:15:00 AM 19.02 66.236 0.357 7.96 6.29 9.19
8/18/2023 9:30:00 AM 19.12 66.416 0.357 7.98 6.08 9.35
8/18/2023 9:45:00 AM 19.1 66.38 0.357 7.98 5.6 9.22
8/18/2023 10:00:00 AM 19.23 66.614 0.358 8.01 6.23 9.35
8/18/2023 10:15:00 AM 19.38 66.884 0.358 8.05 6.56 9.49
8/18/2023 10:30:00 AM 19.51 67.118 0.358 8.09 5.03 9.66
8/18/2023 10:45:00 AM 19.75 67.55 0.358 8.13 5.61 9.78
8/18/2023 11:00:00 AM 19.92 67.856 0.358 8.17 5.43 9.92
8/18/2023 11:15:00 AM 20.06 68.108 0.358 8.2 5.13 9.93
8/18/2023 11:30:00 AM 20.3 68.54 0.358 8.24 4.74 10.08
8/18/2023 11:45:00 AM 20.44 68.792 0.358 8.26 5.07 10.09
8/18/2023 12:00:00 PM 20.36 68.648 0.358 8.28 5.18 10.07
8/18/2023 12:15:00 PM 20.41 68.738 0.358 8.31 5.13 10.09
8/18/2023 12:30:00 PM 20.39 68.702 0.358 8.31 4.94 10.05
8/18/2023 12:45:00 PM 20.47 68.846 0.357 8.34 5.33 10.09
8/18/2023 1:00:00 PM 20.65 69.17 0.357 8.36 6.01 10.11
8/18/2023 1:15:00 PM 20.74 69.332 0.357 8.39 5.07 10.15
8/18/2023 1:30:00 PM 20.83 69.494 0.357 8.4 4.36 10.08
8/18/2023 1:45:00 PM 20.89 69.602 0.356 8.42 4.34 10.08
8/18/2023 2:00:00 PM 20.78 69.404 0.356 8.42 4.77 9.97
8/18/2023 2:15:00 PM 20.68 69.224 0.356 8.41 4.6 9.88
8/18/2023 2:30:00 PM 20.57 69.026 0.357 8.41 4.63 9.82
8/18/2023 2:45:00 PM 20.64 69.152 0.356 8.42 4.11 9.88
8/18/2023 3:00:00 PM 20.69 69.242 0.356 8.44 4 9.98
8/18/2023 3:15:00 PM 20.69 69.242 0.356 8.46 4.4 9.92
8/18/2023 3:30:00 PM 20.64 69.152 0.356 8.44 4.21 9.79
8/18/2023 3:45:00 PM 20.66 69.188 0.356 8.45 3.88 9.76
8/18/2023 4:00:00 PM 20.74 69.332 0.356 8.46 5.67 9.82
8/18/2023 4:15:00 PM 20.81 69.458 0.355 8.48 4.92 9.96
8/18/2023 4:30:00 PM 20.78 69.404 0.355 8.49 4.71 9.93
8/18/2023 4:45:00 PM 20.77 69.386 0.355 8.51 4.48 9.91
8/18/2023 5:00:00 PM 20.73 69.314 0.354 8.5 4.73 9.75
8/18/2023 5:15:00 PM 20.73 69.314 0.354 8.5 4.69 9.7
8/18/2023 5:30:00 PM 20.72 69.296 0.355 8.49 4.77 9.66
8/18/2023 5:45:00 PM 20.65 69.17 0.355 8.48 4.76 9.6
8/18/2023 6:00:00 PM 20.54 68.972 0.356 8.46 4.42 9.37
8/18/2023 6:15:00 PM 20.5 68.9 0.356 8.45 4.53 9.32
8/18/2023 6:30:00 PM 20.47 68.846 0.357 8.43 4.36 9.25
8/18/2023 6:45:00 PM 20.42 68.756 0.358 8.41 4.32 9.15
8/18/2023 7:00:00 PM 20.35 68.63 0.358 8.38 4.85 9.01
8/18/2023 7:15:00 PM 20.26 68.468 0.359 8.35 4.56 8.9
8/18/2023 7:30:00 PM 20.19 68.342 0.359 8.31 4.34 8.73
8/18/2023 7:45:00 PM 20.11 68.198 0.359 8.28 4.75 8.63
8/18/2023 8:00:00 PM 20.03 68.054 0.36 8.23 4.34 8.44
8/18/2023 8:15:00 PM 19.95 67.91 0.36 8.18 4.75 8.36
8/18/2023 8:30:00 PM 19.88 67.784 0.36 8.14 9.07 8.27
8/18/2023 8:45:00 PM 19.81 67.658 0.361 8.11 5.26 8.21
8/18/2023 9:00:00 PM 19.73 67.514 0.361 8.08 5.15 8.18
8/18/2023 9:15:00 PM 19.66 67.388 0.361 8.05 5.09 8.14
8/18/2023 9:30:00 PM 19.6 67.28 0.362 8.03 5.16 8.13
8/18/2023 9:45:00 PM 19.53 67.154 0.362 8 5.25 8.12
8/18/2023 10:00:00 PM 19.46 67.028 0.362 7.98 5.6 8.12
8/18/2023 10:15:00 PM 19.38 66.884 0.362 7.96 5.05 8.11
8/18/2023 10:30:00 PM 19.3 66.74 0.363 7.94 5.84 8.11
8/18/2023 10:45:00 PM 19.22 66.596 0.363 7.93 5.35 8.12
8/18/2023 11:00:00 PM 19.16 66.488 0.363 7.91 5.62 8.11
8/18/2023 11:15:00 PM 19.08 66.344 0.363 7.9 5.23 8.12
8/18/2023 11:30:00 PM 19.01 66.218 0.364 7.89 5.14 8.13
8/18/2023 11:45:00 PM 18.95 66.11 0.364 7.87 6.07 8.13
8/19/2023 12:00:00 AM 18.9 66.02 0.365 7.86 6.03 8.13
8/19/2023 12:15:00 AM 18.82 65.876 0.365 7.85 5.64 8.15
8/19/2023 12:30:00 AM 18.73 65.714 0.365 7.84 5.1 8.17
8/19/2023 12:45:00 AM 18.65 65.57 0.366 7.83 5.43 8.16
8/19/2023 1:00:00 AM 18.59 65.462 0.366 7.82 5.67 8.17
8/19/2023 1:15:00 AM 18.54 65.372 0.367 7.82 5.42 8.19
8/19/2023 1:30:00 AM 18.48 65.264 0.367 7.79 6.33 8.19
8/19/2023 1:45:00 AM 18.43 65.174 0.368 7.79 5.43 8.2
8/19/2023 2:00:00 AM 18.36 65.048 0.369 7.79 5.59 8.21
8/19/2023 2:15:00 AM 18.3 64.94 0.37 7.79 5.54 8.23
8/19/2023 2:30:00 AM 18.24 64.832 0.371 7.78 6.48 8.24
8/19/2023 2:45:00 AM 18.16 64.688 0.372 7.78 6.56 8.26
8/19/2023 3:00:00 AM 18.11 64.598 0.373 7.77 6.36 8.26
8/19/2023 3:15:00 AM 18.03 64.454 0.374 7.77 5.45 8.27
8/19/2023 3:30:00 AM 17.97 64.346 0.374 7.76 5.49 8.29
8/19/2023 3:45:00 AM 17.91 64.238 0.375 7.76 5.74 8.28
8/19/2023 4:00:00 AM 17.86 64.148 0.375 7.75 5.59 8.3
8/19/2023 4:15:00 AM 17.79 64.022 0.375 7.75 5.22 8.32
8/19/2023 4:30:00 AM 17.74 63.932 0.375 7.75 5.1 8.33
8/19/2023 4:45:00 AM 17.67 63.806 0.376 7.74 5.3 8.34
8/19/2023 5:00:00 AM 17.59 63.662 0.376 7.74 5.06 8.36
8/19/2023 5:15:00 AM 17.51 63.518 0.376 7.74 4.68 8.37
8/19/2023 5:30:00 AM 17.42 63.356 0.376 7.74 7.19 8.38
8/19/2023 5:45:00 AM 17.33 63.194 0.376 7.73 5.1 8.4
8/19/2023 6:00:00 AM 17.24 63.032 0.377 7.73 5.15 8.35
8/19/2023 6:15:00 AM 17.17 62.906 0.377 7.72 5.63 8.35
8/19/2023 6:30:00 AM 17.08 62.744 0.377 7.72 5.49 8.4
8/19/2023 6:45:00 AM 17.02 62.636 0.378 7.73 6.1 8.47
8/19/2023 7:00:00 AM 16.96 62.528 0.378 7.73 38.98 8.52
8/19/2023 7:15:00 AM 16.92 62.456 0.378 7.74 30.04 8.64
8/19/2023 7:30:00 AM 16.9 62.42 0.379 7.75 21.62 8.78
8/19/2023 7:45:00 AM 16.89 62.402 0.379 7.78 4.99 8.91
8/19/2023 8:00:00 AM 16.91 62.438 0.379 7.8 4.94 9.07
8/19/2023 8:15:00 AM 16.92 62.456 0.379 7.82 5.02 9.22
8/19/2023 8:30:00 AM 16.96 62.528 0.379 7.85 4.75 9.28
8/19/2023 8:45:00 AM 17.04 62.672 0.379 7.88 5.03 9.53
8/19/2023 9:00:00 AM 17.11 62.798 0.379 7.91 4.99 9.65
8/19/2023 9:15:00 AM 17.22 62.996 0.379 7.94 5.23 9.72
8/19/2023 9:30:00 AM 17.42 63.356 0.379 7.99 5.68 9.99
8/19/2023 9:45:00 AM 17.64 63.752 0.379 8.03 6.74 10.04
8/19/2023 10:00:00 AM 17.86 64.148 0.379 8.08 7.09 10.3
8/19/2023 10:15:00 AM 18.11 64.598 0.379 8.13 4.67 10.41
8/19/2023 10:30:00 AM 18.38 65.084 0.379 8.2 4.12 10.64
8/19/2023 10:45:00 AM 18.66 65.588 0.38 8.25 4.18 10.73
8/19/2023 11:00:00 AM 18.98 66.164 0.38 8.29 4.18 10.81
8/19/2023 11:15:00 AM 19.29 66.722 0.38 8.34 4.46 10.97
8/19/2023 11:30:00 AM 19.66 67.388 0.38 8.39 4.42 11.08
8/19/2023 11:45:00 AM 19.95 67.91 0.38 8.42 4.45 11.16
8/19/2023 12:00:00 PM 20.28 68.504 0.38 8.45 4.58 11.21
8/19/2023 12:15:00 PM 20.59 69.062 0.379 8.5 4.43 11.29
8/19/2023 12:30:00 PM 20.91 69.638 0.379 8.52 4.32 11.27
8/19/2023 12:45:00 PM 21.18 70.124 0.378 8.56 4.16 11.36
8/19/2023 1:00:00 PM 21.46 70.628 0.377 8.58 3.97 11.43
8/19/2023 1:15:00 PM 21.72 71.096 0.377 8.61 4.18 11.33
8/19/2023 1:30:00 PM 21.97 71.546 0.376 8.62 3.86 11.2
8/19/2023 1:45:00 PM 22.28 72.104 0.376 8.65 3.69 11.16
8/19/2023 2:00:00 PM 22.48 72.464 0.375 8.67 32.72 11.22
8/19/2023 2:15:00 PM 22.67 72.806 0.375 8.68 8.27 11.08
8/19/2023 2:30:00 PM 22.83 73.094 0.374 8.7 33.22 11.02
8/19/2023 2:45:00 PM 22.96 73.328 0.374 8.71 19.91 10.99
8/19/2023 3:00:00 PM 23.09 73.562 0.373 8.72 5.12 10.91
8/19/2023 3:15:00 PM 23.16 73.688 0.373 8.72 4.06 10.8
8/19/2023 3:30:00 PM 23.24 73.832 0.373 8.73 13.62 10.76
8/19/2023 3:45:00 PM 23.26 73.868 0.372 8.73 10.67 10.69
8/19/2023 4:00:00 PM 23.28 73.904 0.372 8.73 5.58 10.44
8/19/2023 4:15:00 PM 23.3 73.94 0.371 8.74 8.79 10.44
8/19/2023 4:30:00 PM 23.3 73.94 0.371 8.73 4.11 10.37
8/19/2023 4:45:00 PM 23.29 73.922 0.37 8.72 4.16 10.21
8/19/2023 5:00:00 PM 23.25 73.85 0.37 8.71 3.73 9.89
8/19/2023 5:15:00 PM 23.18 73.724 0.37 8.7 4.95 9.87
8/19/2023 5:30:00 PM 23.08 73.544 0.37 8.69 3.79 9.83
8/19/2023 5:45:00 PM 23.01 73.418 0.37 8.67 3.52 9.69
8/19/2023 6:00:00 PM 22.92 73.256 0.371 8.66 4.19 9.57
8/19/2023 6:15:00 PM 22.8 73.04 0.371 8.64 4.21 9.46
8/19/2023 6:30:00 PM 22.71 72.878 0.372 8.62 4.26 9.29
8/19/2023 6:45:00 PM 22.63 72.734 0.372 8.59 4.27 9.12
8/19/2023 7:00:00 PM 22.55 72.59 0.373 8.56 4.22 8.94
8/19/2023 7:15:00 PM 22.44 72.392 0.373 8.53 4.92 8.79
8/19/2023 7:30:00 PM 22.35 72.23 0.374 8.49 4.39 8.59
8/19/2023 7:45:00 PM 22.27 72.086 0.374 8.46 5.04 8.43
8/19/2023 8:00:00 PM 22.13 71.834 0.375 8.41 4.35 8.26
8/19/2023 8:15:00 PM 22.02 71.636 0.375 8.36 4.3 8.07
8/19/2023 8:30:00 PM 21.87 71.366 0.376 8.28 15.08 7.92
8/19/2023 8:45:00 PM 21.79 71.222 0.377 8.25 4.75 7.84
8/19/2023 9:00:00 PM 21.68 71.024 0.377 8.19 4.84 7.72
8/19/2023 9:15:00 PM 21.54 70.772 0.378 8.15 4.11 7.66
8/19/2023 9:30:00 PM 21.41 70.538 0.378 8.1 4.65 7.62
8/19/2023 9:45:00 PM 21.29 70.32201 0.379 8.06 4.68 7.58
8/19/2023 10:00:00 PM 21.18 70.124 0.379 8.03 4.72 7.59
8/19/2023 10:15:00 PM 21.11 69.998 0.379 8 4.46 7.57
8/19/2023 10:30:00 PM 21.03 69.854 0.379 7.97 4.81 7.52
8/19/2023 10:45:00 PM 20.91 69.638 0.38 7.95 4.22 7.54
8/19/2023 11:00:00 PM 20.8 69.44 0.38 7.93 4.82 7.57
8/19/2023 11:15:00 PM 20.74 69.332 0.38 7.91 4.29 7.52
8/19/2023 11:30:00 PM 20.65 69.17 0.38 7.89 4.72 7.54
8/19/2023 11:45:00 PM 20.57 69.026 0.38 7.87 5.39 7.53
8/20/2023 12:00:00 AM 20.44 68.792 0.38 7.87 4.55 7.6
8/20/2023 12:15:00 AM 20.34 68.612 0.381 7.84 4.36 7.59
8/20/2023 12:30:00 AM 20.21 68.378 0.381 7.83 4.77 7.6
8/20/2023 12:45:00 AM 20.13 68.234 0.381 7.82 4.67 7.59
8/20/2023 1:00:00 AM 19.98 67.964 0.382 7.81 4.87 7.65
8/20/2023 1:15:00 AM 19.9 67.82 0.382 7.8 4.67 7.61
8/20/2023 1:30:00 AM 19.77 67.586 0.382 7.8 4.46 7.64
8/20/2023 1:45:00 AM 19.63 67.334 0.382 7.79 5.09 7.7
8/20/2023 2:00:00 AM 19.55 67.19 0.383 7.78 5 7.7
8/20/2023 2:15:00 AM 19.39 66.902 0.384 7.77 4.46 7.76
8/20/2023 2:30:00 AM 19.3 66.74 0.384 7.76 4.91 7.76
8/20/2023 2:45:00 AM 19.18 66.524 0.385 7.77 5.03 7.79
8/20/2023 3:00:00 AM 19.12 66.416 0.386 7.74 4.63 7.75
8/20/2023 3:15:00 AM 18.98 66.164 0.386 7.75 4.65 7.8
8/20/2023 3:30:00 AM 18.89 66.002 0.387 7.74 4.42 7.81
8/20/2023 3:45:00 AM 18.79 65.82201 0.388 7.74 4.77 7.85
8/20/2023 4:00:00 AM 18.66 65.588 0.389 7.74 4.97 7.89
8/20/2023 4:15:00 AM 18.59 65.462 0.389 7.74 4.67 7.88
8/20/2023 4:30:00 AM 18.49 65.282 0.39 7.72 4.22 7.88
8/20/2023 4:45:00 AM 18.38 65.084 0.39 7.72 4.87 7.92
8/20/2023 5:00:00 AM 18.26 64.868 0.391 7.71 5.03 7.97
8/20/2023 5:15:00 AM 18.17 64.706 0.391 7.72 5.5 7.97
8/20/2023 5:30:00 AM 18.06 64.508 0.391 7.71 12.11 7.97
8/20/2023 5:45:00 AM 17.92 64.256 0.391 7.71 4.92 8.05
8/20/2023 6:00:00 AM 17.86 64.148 0.391 7.7 5.75 8.04
8/20/2023 6:15:00 AM 17.77 63.986 0.391 7.69 5.63 8.07
8/20/2023 6:30:00 AM 17.66 63.788 0.391 7.69 31.63 8.07
8/20/2023 6:45:00 AM 17.58 63.644 0.391 7.69 18.9 8.16
8/20/2023 7:00:00 AM 17.49 63.482 0.391 7.7 23.16 8.25
8/20/2023 7:15:00 AM 17.45 63.41 0.391 7.7 15.03 8.33
8/20/2023 7:30:00 AM 17.44 63.392 0.391 7.69 20.02 8.47
8/20/2023 7:45:00 AM 17.39 63.302 0.39 7.73 25.79 8.75
8/20/2023 8:00:00 AM 17.37 63.266 0.391 7.76 16.43 8.84
8/20/2023 8:15:00 AM 17.38 63.284 0.39 7.77 13.49 9.12
8/20/2023 8:30:00 AM 17.41 63.338 0.39 7.8 15.47 9.28
8/20/2023 8:45:00 AM 17.46 63.428 0.39 7.84 19.1 9.55
8/20/2023 9:00:00 AM 17.51 63.518 0.39 7.9 27.68 9.83
8/20/2023 9:15:00 AM 17.61 63.698 0.389 7.94 4.09 10.09
8/20/2023 9:30:00 AM 17.75 63.95 0.389 8 3.66 10.36
8/20/2023 9:45:00 AM 17.93 64.274 0.389 8.02 4.1 10.5
8/20/2023 10:00:00 AM 18.06 64.508 0.389 8.06 4.25 10.55
8/20/2023 10:15:00 AM 18.28 64.904 0.389 8.13 4.31 10.79
8/20/2023 10:30:00 AM 18.61 65.498 0.388 8.2 3.47 11.06
8/20/2023 10:45:00 AM 18.9 66.02 0.388 8.26 4.63 11.2
8/20/2023 11:00:00 AM 19.26 66.668 0.389 8.32 4.36 11.36
8/20/2023 11:15:00 AM 19.73 67.514 0.388 8.39 3.96 11.47
8/20/2023 11:30:00 AM 20.16 68.288 0.388 8.44 3.92 11.67
8/20/2023 11:45:00 AM 20.56 69.008 0.388 8.5 6.14 11.81
8/20/2023 12:00:00 PM 20.96 69.728 0.387 8.54 4.18 11.9
8/20/2023 12:15:00 PM 21.36 70.448 0.387 8.59 3.66 11.97
8/20/2023 12:30:00 PM 21.7 71.06 0.386 8.62 3.54 12.04
8/20/2023 12:45:00 PM 22 71.6 0.385 8.65 3.86 12.05
8/20/2023 1:00:00 PM 22.25 72.05 0.385 8.66 3.58 11.84
8/20/2023 1:15:00 PM 22.53 72.554 0.384 8.69 3.54 11.97
8/20/2023 1:30:00 PM 22.84 73.112 0.383 8.72 4.41 11.97
8/20/2023 1:45:00 PM 23 73.4 0.382 8.74 3.73 12
8/20/2023 2:00:00 PM 23.15 73.67 0.381 8.75 3.45 11.9
8/20/2023 2:15:00 PM 23.44 74.192 0.381 8.77 3.61 11.87
8/20/2023 2:30:00 PM 23.67 74.606 0.38 8.79 3.62 11.83
8/20/2023 2:45:00 PM 23.83 74.894 0.38 8.8 3.51 11.68
8/20/2023 3:00:00 PM 24.03 75.254 0.379 8.81 3.63 11.6
8/20/2023 3:15:00 PM 24.08 75.344 0.378 8.81 3.47 11.51
8/20/2023 3:30:00 PM 24.23 75.614 0.378 8.82 3.63 11.39
8/20/2023 3:45:00 PM 24.35 75.83 0.378 8.81 3.09 11.09
8/20/2023 4:00:00 PM 24.43 75.974 0.377 8.82 3.22 11.07
8/20/2023 4:15:00 PM 24.5 76.1 0.376 8.82 3.28 10.93
8/20/2023 4:30:00 PM 24.54 76.172 0.376 8.83 3.23 10.86
8/20/2023 4:45:00 PM 24.55 76.19 0.376 8.83 3.3 10.74
8/20/2023 5:00:00 PM 24.52 76.136 0.375 8.82 23.21 10.6
8/20/2023 5:15:00 PM 24.47 76.046 0.375 8.82 3.78 10.51
8/20/2023 5:30:00 PM 24.44 75.992 0.375 8.8 4.58 10.3
8/20/2023 5:45:00 PM 24.31 75.758 0.376 8.78 32.46 10.19
8/20/2023 6:00:00 PM 24.24 75.632 0.376 8.76 8.26 9.95
8/20/2023 6:15:00 PM 24.17 75.506 0.376 8.75 5.71 9.81
8/20/2023 6:30:00 PM 24.07 75.326 0.377 8.74 4.2 9.72
8/20/2023 6:45:00 PM 23.97 75.146 0.378 8.71 43.1 9.5
8/20/2023 7:00:00 PM 23.85 74.93 0.379 8.67 4.83 9.17
8/20/2023 7:15:00 PM 23.74 74.732 0.38 8.64 22.07 9.04
8/20/2023 7:30:00 PM 23.67 74.606 0.381 8.6 28.97 8.71
8/20/2023 7:45:00 PM 23.56 74.408 0.382 8.57 5.78 8.54
8/20/2023 8:00:00 PM 23.5 74.3 0.383 8.52 3.77 8.28
8/20/2023 8:15:00 PM 23.42 74.156 0.384 8.46 4.05 8.06
8/20/2023 8:30:00 PM 23.35 74.03 0.385 8.4 4.26 7.81
8/20/2023 8:45:00 PM 23.25 73.85 0.386 8.33 4.34 7.62
8/20/2023 9:00:00 PM 23.2 73.76 0.386 8.28 4.07 7.47
8/20/2023 9:15:00 PM 23.09 73.562 0.386 8.21 4.47 7.35
8/20/2023 9:30:00 PM 22.99 73.382 0.387 8.16 4.39 7.3
8/20/2023 9:45:00 PM 22.92 73.256 0.388 8.11 4.26 7.18
8/20/2023 10:00:00 PM 22.84 73.112 0.388 8.05 4.4 7.19
8/20/2023 10:15:00 PM 22.79 73.022 0.389 8.02 4.48 7.12
8/20/2023 10:30:00 PM 22.74 72.932 0.389 7.98 4.93 7.12
8/20/2023 10:45:00 PM 22.71 72.878 0.389 7.95 5.33 7.09
8/20/2023 11:00:00 PM 22.68 72.824 0.39 7.92 5.33 7.04
8/20/2023 11:15:00 PM 22.66 72.788 0.39 7.9 21.21 7.06
8/20/2023 11:30:00 PM 22.64 72.752 0.39 7.88 9.2 7.04
8/20/2023 11:45:00 PM 22.62 72.716 0.39 7.86 18.1 7.02
8/21/2023 12:00:00 AM 22.6 72.68 0.391 7.84 34.98 7.02
8/21/2023 12:15:00 AM 22.56 72.608 0.391 7.82 6.68 6.96
8/21/2023 12:30:00 AM 22.54 72.57201 0.391 7.8 5.4 6.95
8/21/2023 12:45:00 AM 22.51 72.518 0.391 7.79 4.33 6.97
8/21/2023 1:00:00 AM 22.47 72.446 0.391 7.78 4.2 6.96
8/21/2023 1:15:00 AM 22.43 72.374 0.391 7.78 4.29 7.06
8/21/2023 1:30:00 AM 22.38 72.284 0.391 7.76 4.23 7.02
8/21/2023 1:45:00 AM 22.32 72.176 0.392 7.76 4.11 7.06
8/21/2023 2:00:00 AM 22.26 72.068 0.392 7.75 4.28 7.03
8/21/2023 2:15:00 AM 22.2 71.96 0.392 7.74 65.57 7.04
8/21/2023 2:30:00 AM 22.14 71.852 0.392 7.74 4.31 7.02
8/21/2023 2:45:00 AM 22.08 71.744 0.393 7.73 4.48 7.06
8/21/2023 3:00:00 AM 22.01 71.618 0.393 7.73 4.34 7.12
8/21/2023 3:15:00 AM 21.97 71.546 0.394 7.72 4.65 7.09
8/21/2023 3:30:00 AM 21.91 71.438 0.395 7.72 4.23 7.11
8/21/2023 3:45:00 AM 21.85 71.33 0.395 7.71 4.66 7.13
8/21/2023 4:00:00 AM 21.8 71.24 0.396 7.71 3.83 7.08
8/21/2023 4:15:00 AM 21.73 71.114 0.397 7.71 4.47 7.11
8/21/2023 4:30:00 AM 21.66 70.988 0.398 7.71 4.1 7.15
8/21/2023 4:45:00 AM 21.62 70.916 0.398 7.7 4.11 7.11
8/21/2023 5:00:00 AM 21.55 70.79 0.399 7.7 4.54 7.17
8/21/2023 5:15:00 AM 21.49 70.682 0.399 7.69 4.28 7.16
8/21/2023 5:30:00 AM 21.41 70.538 0.399 7.69 5.12 7.18
8/21/2023 5:45:00 AM 21.35 70.43 0.4 7.69 5.8 7.15
8/21/2023 6:00:00 AM 21.26 70.268 0.4 7.69 4.85 7.21
8/21/2023 6:15:00 AM 21.18 70.124 0.4 7.69 4.99 7.23
8/21/2023 6:30:00 AM 21.1 69.98 0.4 7.69 4.98 7.23
8/21/2023 6:45:00 AM 21.04 69.872 0.4 7.69 4.27 7.24
8/21/2023 7:00:00 AM 20.98 69.764 0.4 7.7 4.63 7.36
8/21/2023 7:15:00 AM 20.93 69.674 0.4 7.71 4.74 7.46
8/21/2023 7:30:00 AM 20.89 69.602 0.4 7.72 4.54 7.69
8/21/2023 7:45:00 AM 20.88 69.584 0.399 7.74 4.43 7.82
8/21/2023 8:00:00 AM 20.89 69.602 0.399 7.75 4.51 7.95
8/21/2023 8:15:00 AM 20.93 69.674 0.399 7.79 4.55 8.26
8/21/2023 8:30:00 AM 20.96 69.728 0.399 7.82 4.05 8.33
8/21/2023 8:45:00 AM 21.02 69.836 0.399 7.85 4.26 8.62
8/21/2023 9:00:00 AM 21.08 69.944 0.398 7.88 4.28 8.9
8/21/2023 9:15:00 AM 21.18 70.124 0.398 7.94 4.14 9.14
8/21/2023 9:30:00 AM 21.32 70.376 0.397 8 3.81 9.55
8/21/2023 9:45:00 AM 21.49 70.682 0.396 8.07 3.79 9.95
8/21/2023 10:00:00 AM 21.64 70.952 0.395 8.13 4.7 10.21
8/21/2023 10:15:00 AM 21.82 71.276 0.394 8.21 4.15 10.51
8/21/2023 10:30:00 AM 22.01 71.618 0.393 8.27 4.02 10.77
8/21/2023 10:45:00 AM 22.19 71.942 0.393 8.34 4.33 11
8/21/2023 11:00:00 AM 22.34 72.212 0.392 8.39 4.13 11.08
8/21/2023 11:15:00 AM 22.6 72.68 0.391 8.45 4.17 11.34
8/21/2023 11:30:00 AM 22.91 73.238 0.39 8.5 4.43 11.56
8/21/2023 11:45:00 AM 23.26 73.868 0.389 8.55 5.15 11.65
8/21/2023 12:00:00 PM 23.49 74.282 0.389 8.58 4.95 11.71
8/21/2023 12:15:00 PM 23.73 74.714 0.388 8.61 4.95 11.66
8/21/2023 12:30:00 PM 23.93 75.074 0.387 8.65 32.88 11.87
8/21/2023 12:45:00 PM 24.18 75.524 0.387 8.69 4.15 11.85
8/21/2023 1:00:00 PM 24.29 75.722 0.387 8.7 24.91 11.8
8/21/2023 1:15:00 PM 24.59 76.262 0.386 8.72 3.85 11.81
8/21/2023 1:30:00 PM 24.68 76.424 0.386 8.74 29.87 11.72
8/21/2023 1:45:00 PM 25.04 77.07201 0.385 8.78 3.92 11.92
8/21/2023 2:00:00 PM 25.28 77.504 0.384 8.79 3.67 11.75
8/21/2023 2:15:00 PM 25.41 77.738 0.383 8.82 3.82 11.8
8/21/2023 2:30:00 PM 25.73 78.314 0.382 8.84 3.72 11.78
8/21/2023 2:45:00 PM 25.94 78.692 0.381 8.85 19.77 11.7
8/21/2023 3:00:00 PM 26.16 79.088 0.38 8.87 3.72 11.62
8/21/2023 3:15:00 PM 26.35 79.43 0.379 8.89 4.01 11.61
8/21/2023 3:30:00 PM 26.52 79.736 0.378 8.89 31.65 11.58
8/21/2023 3:45:00 PM 26.65 79.97 0.377 8.92 3.43 11.51
8/21/2023 4:00:00 PM 26.64 79.952 0.376 8.92 3.45 11.33
8/21/2023 4:15:00 PM 26.66 79.988 0.375 8.91 3.61 11.17
8/21/2023 4:30:00 PM 26.7 80.06 0.375 8.91 3.64 11.05
8/21/2023 4:45:00 PM 26.65 79.97 0.375 8.9 3.88 10.88
8/21/2023 5:00:00 PM 26.61 79.898 0.375 8.89 3.41 10.72
8/21/2023 5:15:00 PM 26.59 79.862 0.374 8.89 3.77 10.65
8/21/2023 5:30:00 PM 26.51 79.718 0.374 8.87 3.7 10.46
8/21/2023 5:45:00 PM 26.38 79.484 0.374 8.87 3.64 10.33
8/21/2023 6:00:00 PM 26.25 79.25 0.374 8.85 3.83 10.14
8/21/2023 6:15:00 PM 26.1 78.98 0.374 8.83 3.97 9.95
8/21/2023 6:30:00 PM 25.92 78.656 0.375 8.81 3.58 9.73
8/21/2023 6:45:00 PM 25.77 78.386 0.376 8.78 3.84 9.4
8/21/2023 7:00:00 PM 25.61 78.098 0.377 8.75 3.67 9.21
8/21/2023 7:15:00 PM 25.48 77.864 0.378 8.71 3.4 8.93
8/21/2023 7:30:00 PM 25.32 77.576 0.379 8.66 3.87 8.55
8/21/2023 7:45:00 PM 25.14 77.252 0.381 8.61 3.99 8.3
8/21/2023 8:00:00 PM 24.99 76.982 0.382 8.55 4.02 8.01
8/21/2023 8:15:00 PM 24.84 76.712 0.383 8.5 4.19 7.75
8/21/2023 8:30:00 PM 24.74 76.532 0.385 8.44 4.16 7.52
8/21/2023 8:45:00 PM 24.6 76.28 0.386 8.38 4.18 7.32
8/21/2023 9:00:00 PM 24.46 76.028 0.387 8.31 4.69 7.16
8/21/2023 9:15:00 PM 24.31 75.758 0.388 8.25 4.43 7.05
8/21/2023 9:30:00 PM 24.2 75.56 0.389 8.2 4.66 6.97
8/21/2023 9:45:00 PM 24.05 75.29 0.39 8.15 5.1 6.92
8/21/2023 10:00:00 PM 23.93 75.074 0.39 8.1 4.79 6.87
8/21/2023 10:15:00 PM 23.84 74.912 0.391 8.06 4.05 6.79
8/21/2023 10:30:00 PM 23.69 74.642 0.392 8.03 4.9 6.85
8/21/2023 10:45:00 PM 23.57 74.426 0.392 7.99 4.78 6.77
8/21/2023 11:00:00 PM 23.41 74.138 0.392 7.96 4.81 6.8
8/21/2023 11:15:00 PM 23.28 73.904 0.393 7.94 4.84 6.8
8/21/2023 11:30:00 PM 23.13 73.634 0.393 7.91 4.43 6.83
8/21/2023 11:45:00 PM 22.98 73.364 0.393 7.89 4.43 6.82
8/22/2023 12:00:00 AM 22.83 73.094 0.394 7.87 4.6 6.81
8/22/2023 12:15:00 AM 22.71 72.878 0.394 7.85 4.57 6.83
8/22/2023 12:30:00 AM 22.61 72.698 0.394 7.84 4.26 6.86
8/22/2023 12:45:00 AM 22.49 72.482 0.395 7.83 4.64 6.89
8/22/2023 1:00:00 AM 22.41 72.338 0.395 7.81 4.31 6.88
8/22/2023 1:15:00 AM 22.31 72.158 0.395 7.8 4.53 6.91
8/22/2023 1:30:00 AM 22.23 72.014 0.395 7.79 4.62 6.93
8/22/2023 1:45:00 AM 22.17 71.906 0.396 7.78 4.44 6.91
8/22/2023 2:00:00 AM 22.1 71.78 0.396 7.77 4.48 6.93
8/22/2023 2:15:00 AM 22.02 71.636 0.396 7.77 4.3 6.96
8/22/2023 2:30:00 AM 21.94 71.492 0.396 7.76 4.04 6.96
8/22/2023 2:45:00 AM 21.89 71.402 0.396 7.75 4.33 6.98
8/22/2023 3:00:00 AM 21.82 71.276 0.396 7.75 4.37 6.97
8/22/2023 3:15:00 AM 21.75 71.15 0.397 7.74 4.24 6.99
8/22/2023 3:30:00 AM 21.68 71.024 0.397 7.74 4.64 7.05
8/22/2023 3:45:00 AM 21.61 70.898 0.398 7.73 4.57 7.04
8/22/2023 4:00:00 AM 21.51 70.718 0.399 7.73 4.32 7.05
8/22/2023 4:15:00 AM 21.42 70.556 0.4 7.73 4.32 7.04
8/22/2023 4:30:00 AM 21.31 70.358 0.401 7.73 4.04 7.08
8/22/2023 4:45:00 AM 21.2 70.16 0.401 7.72 4.61 7.1
8/22/2023 5:00:00 AM 21.09 69.962 0.402 7.72 4.52 7.09
8/22/2023 5:15:00 AM 20.94 69.692 0.403 7.72 4.86 7.15
8/22/2023 5:30:00 AM 20.84 69.512 0.403 7.72 4.56 7.16
8/22/2023 5:45:00 AM 20.72 69.296 0.403 7.72 4.24 7.18
8/22/2023 6:00:00 AM 20.56 69.008 0.403 7.72 4.24 7.24
8/22/2023 6:15:00 AM 20.48 68.864 0.403 7.71 4.81 7.21
8/22/2023 6:30:00 AM 20.36 68.648 0.403 7.71 4.91 7.25
8/22/2023 6:45:00 AM 20.27 68.486 0.403 7.71 4.79 7.18
8/22/2023 7:00:00 AM 20.16 68.288 0.403 7.71 4.67 7.34
8/22/2023 7:15:00 AM 20.04 68.07201 0.403 7.72 4.64 7.45
8/22/2023 7:30:00 AM 19.98 67.964 0.403 7.73 4.37 7.59
8/22/2023 7:45:00 AM 19.91 67.838 0.403 7.75 4.54 7.82
8/22/2023 8:00:00 AM 19.87 67.766 0.403 7.77 4.41 8.05
8/22/2023 8:15:00 AM 19.84 67.712 0.402 7.8 4.31 8.21
8/22/2023 8:30:00 AM 19.82 67.676 0.402 7.81 3.89 8.39
8/22/2023 8:45:00 AM 19.82 67.676 0.402 7.84 4.52 8.6
8/22/2023 9:00:00 AM 19.88 67.784 0.402 7.86 4.26 8.69
8/22/2023 9:15:00 AM 19.97 67.946 0.401 7.92 4.2 9.17
8/22/2023 9:30:00 AM 20.06 68.108 0.4 7.99 3.84 9.52
8/22/2023 9:45:00 AM 20.22 68.396 0.4 8.04 4.15 9.84
8/22/2023 10:00:00 AM 20.41 68.738 0.399 8.1 4.03 10.09
8/22/2023 10:15:00 AM 20.61 69.098 0.398 8.16 4.03 10.33
8/22/2023 10:30:00 AM 20.84 69.512 0.397 8.21 4.01 10.54
8/22/2023 10:45:00 AM 21.11 69.998 0.396 8.29 3.94 10.85
8/22/2023 11:00:00 AM 21.37 70.466 0.396 8.35 4.28 11.02
8/22/2023 11:15:00 AM 21.71 71.078 0.395 8.43 3.83 11.26
8/22/2023 11:30:00 AM 22.06 71.708 0.394 8.47 4.18 11.47
8/22/2023 11:45:00 AM 22.49 72.482 0.393 8.54 3.7 11.65
8/22/2023 12:00:00 PM 22.84 73.112 0.392 8.59 3.7 11.76
8/22/2023 12:15:00 PM 23.23 73.814 0.392 8.63 4.74 11.85
8/22/2023 12:30:00 PM 23.53 74.354 0.392 8.66 3.66 11.83
8/22/2023 12:45:00 PM 23.84 74.912 0.391 8.69 3.72 11.94
8/22/2023 1:00:00 PM 24.17 75.506 0.391 8.72 4.08 11.97
8/22/2023 1:15:00 PM 24.55 76.19 0.39 8.74 4 11.94
8/22/2023 1:30:00 PM 24.75 76.55 0.391 8.75 8.87 11.87
8/22/2023 1:45:00 PM 25.07 77.126 0.39 8.77 4.68 11.89
8/22/2023 2:00:00 PM 25.36 77.648 0.39 8.78 7.82 11.86
8/22/2023 2:15:00 PM 25.52 77.936 0.39 8.79 17.16 11.79
8/22/2023 2:30:00 PM 25.72 78.296 0.389 8.8 16.34 11.66
8/22/2023 2:45:00 PM 25.79 78.422 0.388 8.81 3.78 11.62
8/22/2023 3:00:00 PM 25.89 78.602 0.387 8.82 4.17 11.54
8/22/2023 3:15:00 PM 25.98 78.764 0.386 8.84 4.11 11.47
8/22/2023 3:30:00 PM 25.99 78.782 0.385 8.84 4.24 11.3
8/22/2023 3:45:00 PM 25.99 78.782 0.383 8.85 4.37 11.18
8/22/2023 4:00:00 PM 25.95 78.71 0.383 8.85 3.64 10.99
8/22/2023 4:15:00 PM 25.94 78.692 0.381 8.86 3.76 10.85
8/22/2023 4:30:00 PM 25.88 78.584 0.38 8.86 4.02 10.71
8/22/2023 4:45:00 PM 25.8 78.44 0.38 8.85 4.37 10.58
8/22/2023 5:00:00 PM 25.67 78.206 0.38 8.84 4.04 10.43
8/22/2023 5:15:00 PM 25.54 77.972 0.382 8.84 4.3 10.31
8/22/2023 5:30:00 PM 25.39 77.702 0.383 8.82 3.8 10.04
8/22/2023 5:45:00 PM 25.22 77.396 0.382 8.81 4.77 10.01
8/22/2023 6:00:00 PM 24.97 76.946 0.383 8.79 4.09 9.87
8/22/2023 6:15:00 PM 24.76 76.568 0.384 8.77 4.28 9.73
8/22/2023 6:30:00 PM 24.68 76.424 0.384 8.75 4.04 9.57
8/22/2023 6:45:00 PM 24.43 75.974 0.385 8.73 4.04 9.44
8/22/2023 7:00:00 PM 24.21 75.578 0.386 8.7 3.89 9.22
8/22/2023 7:15:00 PM 23.93 75.074 0.387 8.66 4.08 9.01
8/22/2023 7:30:00 PM 23.68 74.624 0.388 8.62 4.04 8.79
8/22/2023 7:45:00 PM 23.52 74.336 0.389 8.58 3.77 8.51
8/22/2023 8:00:00 PM 23.29 73.922 0.391 8.53 3.9 8.24
8/22/2023 8:15:00 PM 23.04 73.472 0.393 8.48 4.28 8.02
8/22/2023 8:30:00 PM 22.89 73.202 0.394 8.43 4.3 7.83
8/22/2023 8:45:00 PM 22.71 72.878 0.395 8.37 4.15 7.65
8/22/2023 9:00:00 PM 22.49 72.482 0.396 8.31 4.28 7.48
8/22/2023 9:15:00 PM 22.38 72.284 0.397 8.26 4.21 7.34
8/22/2023 9:30:00 PM 22.18 71.924 0.398 8.21 4.42 7.28
8/22/2023 9:45:00 PM 21.98 71.564 0.399 8.16 4.5 7.21
8/22/2023 10:00:00 PM 21.84 71.312 0.4 8.12 4.69 7.16
8/22/2023 10:15:00 PM 21.7 71.06 0.4 8.08 3.83 7.11
8/22/2023 10:30:00 PM 21.48 70.664 0.401 8.03 4.84 7.16
8/22/2023 10:45:00 PM 21.36 70.448 0.401 8.01 4.47 7.14
8/22/2023 11:00:00 PM 21.23 70.214 0.402 7.98 4.27 7.11
8/22/2023 11:15:00 PM 21.09 69.962 0.402 7.95 4.26 7.09
8/22/2023 11:30:00 PM 20.88 69.584 0.403 7.91 4.97 7.16
8/22/2023 11:45:00 PM 20.81 69.458 0.403 7.89 4.45 7.12
8/23/2023 12:00:00 AM 20.65 69.17 0.404 7.88 4.41 7.15
8/23/2023 12:15:00 AM 20.47 68.846 0.404 7.86 4.36 7.19
8/23/2023 12:30:00 AM 20.35 68.63 0.405 7.84 4.34 7.2
8/23/2023 12:45:00 AM 20.25 68.45 0.405 7.83 4.37 7.23
8/23/2023 1:00:00 AM 20.15 68.27 0.405 7.81 4.6 7.25
8/23/2023 1:15:00 AM 20.05 68.09 0.405 7.8 3.86 7.25
8/23/2023 1:30:00 AM 20.01 68.018 0.405 7.79 4.3 7.26
8/23/2023 1:45:00 AM 19.92 67.856 0.406 7.78 3.95 7.27
8/23/2023 2:00:00 AM 19.87 67.766 0.406 7.77 3.94 7.27
8/23/2023 2:15:00 AM 19.78 67.604 0.406 7.75 4.23 7.28
8/23/2023 2:30:00 AM 19.71 67.478 0.407 7.74 4.23 7.28
8/23/2023 2:45:00 AM 19.6 67.28 0.407 7.72 4.04 7.34
8/23/2023 3:00:00 AM 19.53 67.154 0.407 7.71 3.87 7.37
8/23/2023 3:15:00 AM 19.5 67.1 0.407 7.7 4.35 7.35
8/23/2023 3:30:00 AM 19.43 66.974 0.408 7.7 4.35 7.4
8/23/2023 3:45:00 AM 19.4 66.92 0.408 7.69 5.23 7.39
8/23/2023 4:00:00 AM 19.33 66.794 0.408 7.69 5.98 7.4
8/23/2023 4:15:00 AM 19.29 66.722 0.409 7.69 4.24 7.42
8/23/2023 4:30:00 AM 19.24 66.632 0.41 7.67 4.67 7.43
8/23/2023 4:45:00 AM 19.22 66.596 0.41 7.67 4.36 7.41
8/23/2023 5:00:00 AM 19.17 66.506 0.411 7.68 3.83 7.46
8/23/2023 5:15:00 AM 19.13 66.434 0.411 7.68 3.88 7.46
8/23/2023 5:30:00 AM 19.09 66.362 0.412 7.68 3.79 7.5
8/23/2023 5:45:00 AM 19.05 66.29 0.412 7.68 3.93 7.48
8/23/2023 6:00:00 AM 19.01 66.218 0.412 7.68 4.52 7.5
8/23/2023 6:15:00 AM 18.99 66.182 0.413 7.68 4.24 7.48
8/23/2023 6:30:00 AM 18.94 66.092 0.413 7.68 38.16 7.5
8/23/2023 6:45:00 AM 18.91 66.038 0.413 7.67 37.82 7.47
8/23/2023 7:00:00 AM 18.87 65.966 0.414 7.67 4.03 7.52
8/23/2023 7:15:00 AM 18.83 65.894 0.414 7.68 3.95 7.62
8/23/2023 7:30:00 AM 18.82 65.876 0.414 7.69 4.02 7.69
8/23/2023 7:45:00 AM 18.79 65.82201 0.414 7.7 4.35 7.8
8/23/2023 8:00:00 AM 18.8 65.84 0.414 7.72 4.43 7.91
8/23/2023 8:15:00 AM 18.81 65.858 0.413 7.74 3.9 8.07
8/23/2023 8:30:00 AM 18.83 65.894 0.413 7.77 17.93 8.39
8/23/2023 8:45:00 AM 18.83 65.894 0.413 7.79 21.32 8.54
8/23/2023 9:00:00 AM 18.87 65.966 0.413 7.83 14.73 8.73
8/23/2023 9:15:00 AM 18.9 66.02 0.412 7.86 19.34 8.96
8/23/2023 9:30:00 AM 18.94 66.092 0.412 7.88 23.46 9.16
8/23/2023 9:45:00 AM 19.02 66.236 0.411 7.93 7.67 9.43
8/23/2023 10:00:00 AM 19.12 66.416 0.411 7.99 11.15 9.7
8/23/2023 10:15:00 AM 19.18 66.524 0.41 8.01 14.71 9.8
8/23/2023 10:30:00 AM 19.36 66.848 0.41 8.09 10.99 10.15
8/23/2023 10:45:00 AM 19.52 67.136 0.409 8.15 12.41 10.48
8/23/2023 11:00:00 AM 19.72 67.496 0.408 8.21 4.55 10.74
8/23/2023 11:15:00 AM 20 68 0.407 8.28 14.38 11.06
8/23/2023 11:30:00 AM 20.29 68.522 0.406 8.36 3.93 11.33
8/23/2023 11:45:00 AM 20.54 68.972 0.405 8.42 3.62 11.46
8/23/2023 12:00:00 PM 20.81 69.458 0.404 8.48 3.62 11.69
8/23/2023 12:15:00 PM 21.02 69.836 0.403 8.53 3.68 11.85
8/23/2023 12:30:00 PM 21.23 70.214 0.403 8.57 3.83 11.96
8/23/2023 12:45:00 PM 21.38 70.484 0.402 8.61 3.83 12.03
8/23/2023 1:00:00 PM 21.61 70.898 0.401 8.66 3.53 12.12
8/23/2023 1:15:00 PM 21.91 71.438 0.4 8.7 3.67 12.25
8/23/2023 1:30:00 PM 21.99 71.582 0.4 8.72 3.74 12.23
8/23/2023 1:45:00 PM 22 71.6 0.4 8.72 3.49 12.17
8/23/2023 2:00:00 PM 21.97 71.546 0.4 8.73 3.64 12.01
8/23/2023 2:15:00 PM 22 71.6 0.399 8.75 3.59 11.91
8/23/2023 2:30:00 PM 22.01 71.618 0.399 8.75 17.68 11.95
8/23/2023 2:45:00 PM 22.05 71.69 0.399 8.75 3.55 11.68
8/23/2023 3:00:00 PM 22.07 71.726 0.399 8.76 3.26 11.75
8/23/2023 3:15:00 PM 22.07 71.726 0.399 8.75 3.17 11.58
8/23/2023 3:30:00 PM 22.06 71.708 0.399 8.75 3.44 11.59
8/23/2023 3:45:00 PM 22.08 71.744 0.398 8.77 3.57 11.62
8/23/2023 4:00:00 PM 22.12 71.816 0.397 8.78 3.18 11.6
8/23/2023 4:15:00 PM 22.16 71.888 0.396 8.81 3.61 11.66
8/23/2023 4:30:00 PM 22.13 71.834 0.395 8.81 3.67 11.56
8/23/2023 4:45:00 PM 22.1 71.78 0.394 8.82 3.77 11.47
8/23/2023 5:00:00 PM 22.08 71.744 0.393 8.82 3.23 11.39
8/23/2023 5:15:00 PM 22.03 71.654 0.393 8.82 3.44 11.27
8/23/2023 5:30:00 PM 21.99 71.582 0.392 8.81 6 10.99
8/23/2023 5:45:00 PM 21.92 71.456 0.392 8.8 3.28 10.84
8/23/2023 6:00:00 PM 21.81 71.258 0.392 8.79 3.35 10.65
8/23/2023 6:15:00 PM 21.75 71.15 0.392 8.77 3.32 10.48
8/23/2023 6:30:00 PM 21.66 70.988 0.392 8.75 3.56 10.19
8/23/2023 6:45:00 PM 21.56 70.808 0.392 8.73 3.77 9.96
8/23/2023 7:00:00 PM 21.5 70.7 0.393 8.69 3.44 9.67
8/23/2023 7:15:00 PM 21.42 70.556 0.394 8.66 3.54 9.45
8/23/2023 7:30:00 PM 21.36 70.448 0.395 8.62 3.59 9.19
8/23/2023 7:45:00 PM 21.25 70.25 0.396 8.57 3.46 8.96
8/23/2023 8:00:00 PM 21.17 70.106 0.398 8.51 3.72 8.67
8/23/2023 8:15:00 PM 21.07 69.926 0.4 8.45 3.55 8.41
8/23/2023 8:30:00 PM 20.99 69.782 0.402 8.4 4.02 8.24
8/23/2023 8:45:00 PM 20.89 69.602 0.404 8.34 3.91 8.05
8/23/2023 9:00:00 PM 20.81 69.458 0.405 8.29 3.86 7.87
8/23/2023 9:15:00 PM 20.74 69.332 0.406 8.24 3.83 7.73
8/23/2023 9:30:00 PM 20.65 69.17 0.408 8.18 4.09 7.64
8/23/2023 9:45:00 PM 20.57 69.026 0.409 8.14 4.15 7.54
8/23/2023 10:00:00 PM 20.48 68.864 0.41 8.08 4.18 7.47
8/23/2023 10:15:00 PM 20.41 68.738 0.411 8.05 3.99 7.42
8/23/2023 10:30:00 PM 20.36 68.648 0.412 8.02 4.2 7.36
8/23/2023 10:45:00 PM 20.31 68.558 0.412 7.98 4.06 7.32
8/23/2023 11:00:00 PM 20.24 68.432 0.413 7.96 3.82 7.34
8/23/2023 11:15:00 PM 20.17 68.306 0.413 7.93 4.8 7.34
8/23/2023 11:30:00 PM 20.11 68.198 0.414 7.91 4.05 7.32
8/23/2023 11:45:00 PM 20.06 68.108 0.414 7.9 4.05 7.34
8/24/2023 12:00:00 AM 20.02 68.036 0.414 7.89 4.21 7.32
8/24/2023 12:15:00 AM 20 68 0.415 7.87 4.13 7.28
8/24/2023 12:30:00 AM 19.94 67.892 0.415 7.85 4.22 7.34
8/24/2023 12:45:00 AM 19.91 67.838 0.415 7.85 3.88 7.31
8/24/2023 1:00:00 AM 19.9 67.82 0.416 7.83 3.89 7.25
8/24/2023 1:15:00 AM 19.84 67.712 0.416 7.83 3.93 7.31
8/24/2023 1:30:00 AM 19.84 67.712 0.416 7.82 3.81 7.29
8/24/2023 1:45:00 AM 19.8 67.64 0.417 7.81 3.97 7.31
8/24/2023 2:00:00 AM 19.79 67.622 0.417 7.8 4.02 7.3
8/24/2023 2:15:00 AM 19.76 67.568 0.417 7.8 3.94 7.33
8/24/2023 2:30:00 AM 19.75 67.55 0.417 7.79 4.02 7.29
8/24/2023 2:45:00 AM 19.73 67.514 0.417 7.78 4.17 7.29
8/24/2023 3:00:00 AM 19.7 67.46 0.417 7.78 3.78 7.32
8/24/2023 3:15:00 AM 19.68 67.424 0.418 7.78 3.95 7.3
8/24/2023 3:30:00 AM 19.67 67.406 0.418 7.77 3.54 7.31
8/24/2023 3:45:00 AM 19.65 67.37 0.418 7.76 3.57 7.28
8/24/2023 4:00:00 AM 19.63 67.334 0.418 7.76 3.35 7.31
8/24/2023 4:15:00 AM 19.61 67.298 0.418 7.76 3.42 7.29
8/24/2023 4:30:00 AM 19.59 67.262 0.419 7.75 3.88 7.3
8/24/2023 4:45:00 AM 19.58 67.244 0.419 7.75 3.75 7.3
8/24/2023 5:00:00 AM 19.56 67.208 0.419 7.75 3.8 7.31
8/24/2023 5:15:00 AM 19.54 67.172 0.42 7.75 3.95 7.33
8/24/2023 5:30:00 AM 19.53 67.154 0.42 7.75 3.85 7.32
8/24/2023 5:45:00 AM 19.52 67.136 0.42 7.74 4.37 7.27
8/24/2023 6:00:00 AM 19.49 67.082 0.42 7.74 4.03 7.31
8/24/2023 6:15:00 AM 19.46 67.028 0.421 7.74 3.9 7.36
8/24/2023 6:30:00 AM 19.45 67.01 0.421 7.74 4.09 7.33
8/24/2023 6:45:00 AM 19.44 66.992 0.421 7.73 3.64 7.3
8/24/2023 7:00:00 AM 19.41 66.938 0.421 7.74 3.83 7.37
8/24/2023 7:15:00 AM 19.4 66.92 0.421 7.75 3.41 7.41
8/24/2023 7:30:00 AM 19.4 66.92 0.421 7.74 3.91 7.39
8/24/2023 7:45:00 AM 19.39 66.902 0.421 7.75 3.61 7.43
8/24/2023 8:00:00 AM 19.39 66.902 0.421 7.77 3.89 7.64
8/24/2023 8:15:00 AM 19.39 66.902 0.421 7.78 3.81 7.72
8/24/2023 8:30:00 AM 19.41 66.938 0.42 7.8 3.92 7.86
8/24/2023 8:45:00 AM 19.44 66.992 0.42 7.81 3.82 8.02
8/24/2023 9:00:00 AM 19.45 67.01 0.42 7.83 4.13 8.15
8/24/2023 9:15:00 AM 19.49 67.082 0.419 7.87 3.85 8.38
8/24/2023 9:30:00 AM 19.5 67.1 0.419 7.89 3.69 8.51
8/24/2023 9:45:00 AM 19.53 67.154 0.419 7.9 3.86 8.57
8/24/2023 10:00:00 AM 19.55 67.19 0.419 7.93 3.7 8.77
8/24/2023 10:15:00 AM 19.58 67.244 0.419 7.95 4.29 8.86
8/24/2023 10:30:00 AM 19.59 67.262 0.418 7.98 3.6 8.99
8/24/2023 10:45:00 AM 19.58 67.244 0.418 8 4.45 9
8/24/2023 11:00:00 AM 19.61 67.298 0.418 8.02 4.95 9.13
8/24/2023 11:15:00 AM 19.63 67.334 0.418 8.04 4.83 9.17
8/24/2023 11:30:00 AM 19.67 67.406 0.418 8.06 3.74 9.2
8/24/2023 11:45:00 AM 19.7 67.46 0.418 8.07 3.94 9.36
8/24/2023 12:00:00 PM 19.74 67.532 0.418 8.08 4.63 9.4
8/24/2023 12:15:00 PM 19.8 67.64 0.418 8.11 4.38 9.52
8/24/2023 12:30:00 PM 19.83 67.694 0.417 8.16 3.73 9.71
8/24/2023 12:45:00 PM 19.89 67.802 0.417 8.17 3.95 9.77
8/24/2023 1:00:00 PM 19.95 67.91 0.417 8.21 3.61 9.97
8/24/2023 1:15:00 PM 20.02 68.036 0.417 8.24 3.66 10.08
8/24/2023 1:30:00 PM 20.07 68.126 0.417 8.25 5.09 10.12
8/24/2023 1:45:00 PM 20.13 68.234 0.417 8.29 3.3 10.23
8/24/2023 2:00:00 PM 20.21 68.378 0.417 8.32 3.39 10.4
8/24/2023 2:15:00 PM 20.29 68.522 0.417 8.35 3.52 10.52
8/24/2023 2:30:00 PM 20.36 68.648 0.417 8.37 3.52 10.59
8/24/2023 2:45:00 PM 20.41 68.738 0.417 8.38 3.56 10.53
8/24/2023 3:00:00 PM 20.43 68.774 0.417 8.39 3.62 10.53
8/24/2023 3:15:00 PM 20.47 68.846 0.417 8.4 3.68 10.51
8/24/2023 3:30:00 PM 20.51 68.918 0.417 8.42 3.42 10.53
8/24/2023 3:45:00 PM 20.54 68.972 0.417 8.43 3.32 10.42
8/24/2023 4:00:00 PM 20.57 69.026 0.417 8.42 3.47 10.26
8/24/2023 4:15:00 PM 20.58 69.044 0.417 8.41 3.43 10.18
8/24/2023 4:30:00 PM 20.59 69.062 0.417 8.39 3.48 9.94
8/24/2023 4:45:00 PM 20.62 69.116 0.417 8.39 3.61 9.94
8/24/2023 5:00:00 PM 20.66 69.188 0.418 8.39 3.32 9.88
8/24/2023 5:15:00 PM 20.69 69.242 0.418 8.38 3.38 9.8
8/24/2023 5:30:00 PM 20.71 69.278 0.418 8.36 3.49 9.7
8/24/2023 5:45:00 PM 20.73 69.314 0.419 8.34 3.15 9.58
8/24/2023 6:00:00 PM 20.76 69.368 0.419 8.34 3.15 9.6
8/24/2023 6:15:00 PM 20.76 69.368 0.419 8.33 3.03 9.52
8/24/2023 6:30:00 PM 20.75 69.35 0.419 8.31 3.25 9.36
8/24/2023 6:45:00 PM 20.75 69.35 0.419 8.3 3.24 9.21
8/24/2023 7:00:00 PM 20.74 69.332 0.42 8.27 3.3 9.03
8/24/2023 7:15:00 PM 20.73 69.314 0.42 8.25 3.7 8.9
8/24/2023 7:30:00 PM 20.7 69.26 0.421 8.22 3.32 8.74
8/24/2023 7:45:00 PM 20.69 69.242 0.422 8.19 3.79 8.56
8/24/2023 8:00:00 PM 20.66 69.188 0.422 8.16 3.46 8.42
8/24/2023 8:15:00 PM 20.64 69.152 0.423 8.12 3.71 8.2
8/24/2023 8:30:00 PM 20.6 69.08 0.424 8.09 3.44 8.16
8/24/2023 8:45:00 PM 20.55 68.99 0.424 8.08 3.59 8.06
8/24/2023 9:00:00 PM 20.51 68.918 0.425 8.05 3.51 7.92
8/24/2023 9:15:00 PM 20.49 68.882 0.426 8.02 3.23 7.79
8/24/2023 9:30:00 PM 20.45 68.81 0.426 7.99 3.97 7.71
8/24/2023 9:45:00 PM 20.42 68.756 0.427 7.96 3.69 7.62
8/24/2023 10:00:00 PM 20.4 68.72 0.428 7.94 3.61 7.56
8/24/2023 10:15:00 PM 20.38 68.684 0.429 7.92 3.81 7.46
8/24/2023 10:30:00 PM 20.37 68.666 0.429 7.9 3.53 7.34
8/24/2023 10:45:00 PM 20.32 68.576 0.43 7.88 3.54 7.38
8/24/2023 11:00:00 PM 20.29 68.522 0.43 7.87 3.4 7.33
8/24/2023 11:15:00 PM 20.29 68.522 0.431 7.86 3.67 7.26
8/24/2023 11:30:00 PM 20.26 68.468 0.431 7.85 3.61 7.29
8/24/2023 11:45:00 PM 20.24 68.432 0.431 7.84 3.87 7.29
8/25/2023 12:00:00 AM 20.22 68.396 0.431 7.83 4.14 7.34
8/25/2023 12:15:00 AM 20.22 68.396 0.431 7.83 4.1 7.33
8/25/2023 12:30:00 AM 20.2 68.36 0.431 7.82 3.75 7.33
8/25/2023 12:45:00 AM 20.19 68.342 0.431 7.82 3.59 7.35
8/25/2023 1:00:00 AM 20.19 68.342 0.432 7.81 3.72 7.3
8/25/2023 1:15:00 AM 20.19 68.342 0.432 7.8 3.69 7.32
8/25/2023 1:30:00 AM 20.18 68.324 0.431 7.81 3.79 7.34
8/25/2023 1:45:00 AM 20.18 68.324 0.43 7.81 4.5 7.34
8/25/2023 2:00:00 AM 20.18 68.324 0.429 7.8 4.5 7.26
8/25/2023 2:15:00 AM 20.17 68.306 0.426 7.81 5.61 7.36
8/25/2023 2:30:00 AM 20.17 68.306 0.424 7.81 5.76 7.4
8/25/2023 2:45:00 AM 20.17 68.306 0.42 7.81 5.77 7.48
8/25/2023 3:00:00 AM 20.17 68.306 0.416 7.81 6.76 7.5
8/25/2023 3:15:00 AM 20.18 68.324 0.413 7.81 7.27 7.52
8/25/2023 3:30:00 AM 20.17 68.306 0.41 7.81 7.17 7.55
8/25/2023 3:45:00 AM 20.17 68.306 0.408 7.8 5.51 7.55
8/25/2023 4:00:00 AM 20.15 68.27 0.407 7.79 5.89 7.48
8/25/2023 4:15:00 AM 20.14 68.252 0.407 7.79 5.23 7.47
8/25/2023 4:30:00 AM 20.13 68.234 0.408 7.77 4.68 7.4
8/25/2023 4:45:00 AM 20.11 68.198 0.409 7.77 5.1 7.39
8/25/2023 5:00:00 AM 20.1 68.18 0.41 7.77 5.02 7.38
8/25/2023 5:15:00 AM 20.08 68.144 0.411 7.77 5.43 7.38
8/25/2023 5:30:00 AM 20.07 68.126 0.412 7.76 5.02 7.38
8/25/2023 5:45:00 AM 20.06 68.108 0.412 7.75 6.35 7.37
8/25/2023 6:00:00 AM 20.03 68.054 0.414 7.76 5.08 7.37
8/25/2023 6:15:00 AM 20.01 68.018 0.416 7.76 5.45 7.37
8/25/2023 6:30:00 AM 20 68 0.418 7.77 4.91 7.43
8/25/2023 6:45:00 AM 20 68 0.419 7.77 5.06 7.44
8/25/2023 7:00:00 AM 20 68 0.42 7.77 4.8 7.46
8/25/2023 7:15:00 AM 20 68 0.419 7.78 4.63 7.52
8/25/2023 7:30:00 AM 20.02 68.036 0.418 7.78 4.56 7.58
8/25/2023 7:45:00 AM 20.04 68.07201 0.418 7.79 4.34 7.67
8/25/2023 8:00:00 AM 20.07 68.126 0.417 7.79 5.98 7.72
8/25/2023 8:15:00 AM 20.11 68.198 0.417 7.82 5.43 7.95
8/25/2023 8:30:00 AM 20.15 68.27 0.417 7.84 5.74 8.06
8/25/2023 8:45:00 AM 20.21 68.378 0.417 7.87 5.35 8.26
8/25/2023 9:00:00 AM 20.28 68.504 0.418 7.89 4.79 8.44
8/25/2023 9:15:00 AM 20.33 68.594 0.418 7.91 4.9 8.49
8/25/2023 9:30:00 AM 20.45 68.81 0.418 7.99 4.63 8.95
8/25/2023 9:45:00 AM 20.52 68.936 0.419 8 4.05 8.94
8/25/2023 10:00:00 AM 20.68 69.224 0.419 8.06 4.4 9.3
8/25/2023 10:15:00 AM 20.9 69.62 0.419 8.13 4.35 9.64
8/25/2023 10:30:00 AM 20.99 69.782 0.419 8.16 4.35 9.73
8/25/2023 10:45:00 AM 21.1 69.98 0.419 8.21 4.36 9.87
8/25/2023 11:00:00 AM 21.16 70.088 0.42 8.23 4.41 9.9
8/25/2023 11:15:00 AM 21.25 70.25 0.419 8.27 3.79 9.98
8/25/2023 11:30:00 AM 21.33 70.394 0.419 8.28 4.13 9.98
8/25/2023 11:45:00 AM 21.41 70.538 0.417 8.3 4.46 10.05
8/25/2023 12:00:00 PM 21.58 70.844 0.416 8.34 4.64 10.22
8/25/2023 12:15:00 PM 21.87 71.366 0.414 8.37 4.53 10.38
8/25/2023 12:30:00 PM 21.97 71.546 0.413 8.4 6.85 10.41
8/25/2023 12:45:00 PM 21.99 71.582 0.413 8.39 5.97 10.29
8/25/2023 1:00:00 PM 22.02 71.636 0.412 8.42 6.36 10.21
8/25/2023 1:15:00 PM 22.14 71.852 0.412 8.44 18.01 10.3
8/25/2023 1:30:00 PM 22.24 72.032 0.411 8.43 17.89 10.13
8/25/2023 1:45:00 PM 22.32 72.176 0.41 8.46 4.99 10.25
8/25/2023 2:00:00 PM 22.38 72.284 0.41 8.48 20.17 10.28
8/25/2023 2:15:00 PM 22.5 72.5 0.409 8.52 20.91 10.36
8/25/2023 2:30:00 PM 22.54 72.57201 0.409 8.53 4.89 10.3
8/25/2023 2:45:00 PM 22.5 72.5 0.41 8.52 4.3 10.15
8/25/2023 3:00:00 PM 22.46 72.42799 0.41 8.51 4.68 10.03
8/25/2023 3:15:00 PM 22.43 72.374 0.41 8.5 20.23 9.83
8/25/2023 3:30:00 PM 22.45 72.41 0.41 8.5 4.25 9.81
8/25/2023 3:45:00 PM 22.48 72.464 0.41 8.51 4.37 9.78
8/25/2023 4:00:00 PM 22.52 72.536 0.41 8.51 4.93 9.78
8/25/2023 4:15:00 PM 22.6 72.68 0.408 8.53 4.36 9.92
8/25/2023 4:30:00 PM 22.69 72.842 0.407 8.54 4.5 9.93
8/25/2023 4:45:00 PM 22.78 73.004 0.406 8.56 4.07 9.93
8/25/2023 5:00:00 PM 22.86 73.148 0.404 8.58 5.22 10.04
8/25/2023 5:15:00 PM 22.95 73.31 0.403 8.59 4.81 9.96
8/25/2023 5:30:00 PM 23 73.4 0.402 8.61 4.1 9.87
8/25/2023 5:45:00 PM 23 73.4 0.401 8.61 4.91 9.86
8/25/2023 6:00:00 PM 22.98 73.364 0.4 8.61 4.32 9.67
8/25/2023 6:15:00 PM 22.93 73.274 0.399 8.59 4.6 9.51
8/25/2023 6:30:00 PM 22.89 73.202 0.399 8.57 4.38 9.31
8/25/2023 6:45:00 PM 22.84 73.112 0.398 8.54 4.45 9.13
8/25/2023 7:00:00 PM 22.81 73.058 0.399 8.51 4.24 8.9
8/25/2023 7:15:00 PM 22.74 72.932 0.399 8.47 4.3 8.67
8/25/2023 7:30:00 PM 22.69 72.842 0.399 8.44 4.53 8.44
8/25/2023 7:45:00 PM 22.65 72.77 0.399 8.41 4.47 8.23
8/25/2023 8:00:00 PM 22.61 72.698 0.4 8.36 4.59 7.97
8/25/2023 8:15:00 PM 22.56 72.608 0.401 8.31 4.29 7.8
8/25/2023 8:30:00 PM 22.52 72.536 0.401 8.26 4.99 7.7
8/25/2023 8:45:00 PM 22.5 72.5 0.401 8.22 4.57 7.59
8/25/2023 9:00:00 PM 22.47 72.446 0.402 8.18 4.92 7.48
8/25/2023 9:15:00 PM 22.45 72.41 0.401 8.14 4.86 7.43
8/25/2023 9:30:00 PM 22.41 72.338 0.401 8.1 4.93 7.36
8/25/2023 9:45:00 PM 22.38 72.284 0.4 8.08 4.54 7.32
8/25/2023 10:00:00 PM 22.35 72.23 0.399 8.05 3.99 7.27
8/25/2023 10:15:00 PM 22.3 72.14 0.398 8.02 4.62 7.3
8/25/2023 10:30:00 PM 22.26 72.068 0.396 8 5.09 7.29
8/25/2023 10:45:00 PM 22.23 72.014 0.394 7.97 4.89 7.23
8/25/2023 11:00:00 PM 22.19 71.942 0.393 7.94 4.44 7.22
8/25/2023 11:15:00 PM 22.16 71.888 0.392 7.93 4.54 7.18
8/25/2023 11:30:00 PM 22.12 71.816 0.39 7.92 3.96 7.19
8/25/2023 11:45:00 PM 22.1 71.78 0.389 7.9 4.59 7.19
8/26/2023 12:00:00 AM 22.07 71.726 0.388 7.89 4.52 7.15
8/26/2023 12:15:00 AM 22.05 71.69 0.387 7.88 4.36 7.16
8/26/2023 12:30:00 AM 22.02 71.636 0.387 7.87 4.56 7.14
8/26/2023 12:45:00 AM 21.99 71.582 0.386 7.86 4.48 7.15
8/26/2023 1:00:00 AM 21.97 71.546 0.385 7.86 4.35 7.16
8/26/2023 1:15:00 AM 21.94 71.492 0.385 7.85 4.09 7.15
8/26/2023 1:30:00 AM 21.92 71.456 0.385 7.84 4.46 7.14
8/26/2023 1:45:00 AM 21.9 71.42 0.385 7.83 4.11 7.12
8/26/2023 2:00:00 AM 21.86 71.348 0.385 7.83 4.39 7.2
8/26/2023 2:15:00 AM 21.84 71.312 0.385 7.83 4.62 7.16
8/26/2023 2:30:00 AM 21.81 71.258 0.385 7.82 4.55 7.14
8/26/2023 2:45:00 AM 21.77 71.186 0.385 7.81 4.06 7.16
8/26/2023 3:00:00 AM 21.73 71.114 0.385 7.81 4.37 7.19
8/26/2023 3:15:00 AM 21.71 71.078 0.385 7.8 4.05 7.12
8/26/2023 3:30:00 AM 21.66 70.988 0.386 7.8 4.82 7.18
8/26/2023 3:45:00 AM 21.63 70.934 0.386 7.79 4.44 7.17
8/26/2023 4:00:00 AM 21.6 70.88 0.386 7.79 4.04 7.12
8/26/2023 4:15:00 AM 21.55 70.79 0.387 7.79 4.71 7.18
8/26/2023 4:30:00 AM 21.52 70.736 0.387 7.78 4.47 7.13
8/26/2023 4:45:00 AM 21.45 70.61 0.387 7.78 4.47 7.2
8/26/2023 5:00:00 AM 21.35 70.43 0.388 7.79 4.68 7.23
8/26/2023 5:15:00 AM 21.29 70.32201 0.388 7.78 4.79 7.2
8/26/2023 5:30:00 AM 21.19 70.142 0.389 7.78 4.52 7.23
8/26/2023 5:45:00 AM 21.11 69.998 0.389 7.78 4.74 7.21
8/26/2023 6:00:00 AM 21.03 69.854 0.39 7.78 4.91 7.22
8/26/2023 6:15:00 AM 20.97 69.746 0.39 7.78 4.6 7.25
8/26/2023 6:30:00 AM 20.91 69.638 0.391 7.78 5.12 7.28
8/26/2023 6:45:00 AM 20.86 69.548 0.391 7.79 4.79 7.31
8/26/2023 7:00:00 AM 20.8 69.44 0.392 7.78 4.9 7.32
8/26/2023 7:15:00 AM 20.77 69.386 0.393 7.79 16.04 7.43
8/26/2023 7:30:00 AM 20.73 69.314 0.393 7.8 4.76 7.48
8/26/2023 7:45:00 AM 20.68 69.224 0.394 7.83 4.4 7.68
8/26/2023 8:00:00 AM 20.7 69.26 0.394 7.85 4.47 7.9
8/26/2023 8:15:00 AM 20.73 69.314 0.394 7.87 5.27 8.08
8/26/2023 8:30:00 AM 20.76 69.368 0.394 7.9 4.58 8.31
8/26/2023 8:45:00 AM 20.81 69.458 0.394 7.93 4.68 8.51
8/26/2023 9:00:00 AM 20.87 69.566 0.394 7.96 4.66 8.59
8/26/2023 9:15:00 AM 20.93 69.674 0.394 8.01 4.33 8.92
8/26/2023 9:30:00 AM 20.99 69.782 0.393 8.05 3.93 9.07
8/26/2023 9:45:00 AM 21.05 69.89 0.393 8.1 4.27 9.31
8/26/2023 10:00:00 AM 21.12 70.016 0.392 8.15 4.15 9.5
8/26/2023 10:15:00 AM 21.16 70.088 0.392 8.18 4.05 9.57
8/26/2023 10:30:00 AM 21.29 70.32201 0.391 8.24 4.37 9.86
8/26/2023 10:45:00 AM 21.45 70.61 0.391 8.29 3.75 10.05
8/26/2023 11:00:00 AM 21.65 70.97 0.391 8.33 3.94 10.24
8/26/2023 11:15:00 AM 21.74 71.132 0.39 8.36 3.67 10.37
8/26/2023 11:30:00 AM 21.87 71.366 0.39 8.4 4.06 10.56
8/26/2023 11:45:00 AM 22.06 71.708 0.389 8.46 3.69 10.74
8/26/2023 12:00:00 PM 22.38 72.284 0.388 8.49 3.71 10.86
8/26/2023 12:15:00 PM 22.71 72.878 0.388 8.52 3.65 10.92
8/26/2023 12:30:00 PM 22.98 73.364 0.387 8.56 4.18 10.97
8/26/2023 12:45:00 PM 23.42 74.156 0.387 8.6 3.63 11.13
8/26/2023 1:00:00 PM 23.69 74.642 0.386 8.62 4 11.11
8/26/2023 1:15:00 PM 23.96 75.128 0.386 8.65 4.21 10.98
8/26/2023 1:30:00 PM 24.16 75.488 0.386 8.67 3.79 11.11
8/26/2023 1:45:00 PM 24.28 75.704 0.385 8.69 4.03 11.06
8/26/2023 2:00:00 PM 24.29 75.722 0.385 8.7 3.92 11.03
8/26/2023 2:15:00 PM 24.44 75.992 0.384 8.72 3.86 11.09
8/26/2023 2:30:00 PM 24.56 76.208 0.384 8.73 3.7 11.03
8/26/2023 2:45:00 PM 24.57 76.226 0.384 8.74 3.87 10.87
8/26/2023 3:00:00 PM 24.67 76.406 0.383 8.75 3.9 10.74
8/26/2023 3:15:00 PM 24.82 76.676 0.383 8.76 6.89 10.74
8/26/2023 3:30:00 PM 24.94 76.892 0.383 8.76 3.83 10.57
8/26/2023 3:45:00 PM 25.02 77.036 0.383 8.77 3.83 10.48
8/26/2023 4:00:00 PM 25.09 77.162 0.382 8.77 3.86 10.45
8/26/2023 4:15:00 PM 25.21 77.378 0.382 8.78 3.84 10.32
8/26/2023 4:30:00 PM 25.38 77.684 0.381 8.8 5.21 10.32
8/26/2023 4:45:00 PM 25.4 77.72 0.381 8.8 3.71 10.2
8/26/2023 5:00:00 PM 25.42 77.756 0.38 8.79 3.77 10.04
8/26/2023 5:15:00 PM 25.37 77.666 0.38 8.78 3.52 9.87
8/26/2023 5:30:00 PM 25.31 77.558 0.38 8.77 4.11 9.75
8/26/2023 5:45:00 PM 25.27 77.486 0.38 8.76 4.21 9.61
8/26/2023 6:00:00 PM 25.23 77.414 0.38 8.75 4.19 9.51
8/26/2023 6:15:00 PM 25.15 77.27 0.381 8.73 3.97 9.4
8/26/2023 6:30:00 PM 25.04 77.07201 0.381 8.72 4.01 9.34
8/26/2023 6:45:00 PM 24.95 76.91 0.381 8.7 4.05 9.2
8/26/2023 7:00:00 PM 24.8 76.64 0.382 8.68 4.06 9.02
8/26/2023 7:15:00 PM 24.64 76.352 0.383 8.64 4.27 8.73
8/26/2023 7:30:00 PM 24.49 76.082 0.384 8.6 4 8.47
8/26/2023 7:45:00 PM 24.34 75.812 0.385 8.56 4.62 8.2
8/26/2023 8:00:00 PM 24.24 75.632 0.386 8.51 3.47 7.92
8/26/2023 8:15:00 PM 24.08 75.344 0.387 8.45 3.94 7.66
8/26/2023 8:30:00 PM 23.9 75.02 0.389 8.39 3.85 7.47
8/26/2023 8:45:00 PM 23.78 74.804 0.39 8.33 4.07 7.3
8/26/2023 9:00:00 PM 23.63 74.534 0.392 8.28 4.34 7.18
8/26/2023 9:15:00 PM 23.43 74.174 0.391 8.21 6.39 7.12
8/26/2023 9:30:00 PM 23.33 73.994 0.392 8.17 4.62 7.05
8/26/2023 9:45:00 PM 23.23 73.814 0.393 8.13 4.32 6.99
8/26/2023 10:00:00 PM 23.15 73.67 0.393 8.09 4.41 6.9
8/26/2023 10:15:00 PM 23.02 73.436 0.393 8.06 4.91 6.9
8/26/2023 10:30:00 PM 22.93 73.274 0.394 8.02 4.61 6.83
8/26/2023 10:45:00 PM 22.85 73.13 0.394 7.99 4.47 6.78
8/26/2023 11:00:00 PM 22.72 72.896 0.395 7.98 4.72 6.84
8/26/2023 11:15:00 PM 22.61 72.698 0.396 7.96 4.04 6.83
8/26/2023 11:30:00 PM 22.52 72.536 0.396 7.94 4.03 6.83
8/26/2023 11:45:00 PM 22.43 72.374 0.396 7.92 4.16 6.81
8/27/2023 12:00:00 AM 22.32 72.176 0.397 7.9 4.32 6.87
8/27/2023 12:15:00 AM 22.26 72.068 0.397 7.89 4.13 6.83
8/27/2023 12:30:00 AM 22.14 71.852 0.397 7.87 4.12 6.89
8/27/2023 12:45:00 AM 22.08 71.744 0.398 7.86 4.2 6.86
8/27/2023 1:00:00 AM 21.99 71.582 0.398 7.85 4.28 6.91
8/27/2023 1:15:00 AM 21.94 71.492 0.398 7.84 4.08 6.89
8/27/2023 1:30:00 AM 21.85 71.33 0.398 7.83 4.34 6.96
8/27/2023 1:45:00 AM 21.78 71.204 0.399 7.83 4.22 6.95
8/27/2023 2:00:00 AM 21.74 71.132 0.399 7.82 4.02 6.95
8/27/2023 2:15:00 AM 21.7 71.06 0.399 7.82 4.23 6.94
8/27/2023 2:30:00 AM 21.65 70.97 0.399 7.81 4.39 6.99
8/27/2023 2:45:00 AM 21.62 70.916 0.399 7.8 3.92 6.94
8/27/2023 3:00:00 AM 21.58 70.844 0.399 7.79 4.6 6.94
8/27/2023 3:15:00 AM 21.54 70.772 0.399 7.79 3.89 6.99
8/27/2023 3:30:00 AM 21.51 70.718 0.399 7.79 4.07 7
8/27/2023 3:45:00 AM 21.46 70.628 0.399 7.79 4.09 7.03
8/27/2023 4:00:00 AM 21.4 70.52 0.399 7.78 4.13 7.03
8/27/2023 4:15:00 AM 21.37 70.466 0.4 7.78 4.13 7.04
8/27/2023 4:30:00 AM 21.32 70.376 0.4 7.78 3.87 7.05
8/27/2023 4:45:00 AM 21.29 70.32201 0.4 7.78 3.95 7.01
8/27/2023 5:00:00 AM 21.24 70.232 0.4 7.78 3.75 7.05
8/27/2023 5:15:00 AM 21.19 70.142 0.4 7.78 3.87 7.03
8/27/2023 5:30:00 AM 21.13 70.034 0.401 7.77 4.12 7.04
8/27/2023 5:45:00 AM 21.07 69.926 0.401 7.77 3.91 7.07
8/27/2023 6:00:00 AM 21.03 69.854 0.402 7.75 19.55 7.01
8/27/2023 6:15:00 AM 20.94 69.692 0.402 7.77 4.54 7.1
8/27/2023 6:30:00 AM 20.89 69.602 0.402 7.77 4.27 7.1
8/27/2023 6:45:00 AM 20.82 69.476 0.402 7.77 4.34 7.18
8/27/2023 7:00:00 AM 20.76 69.368 0.403 7.76 4.22 7.11
8/27/2023 7:15:00 AM 20.71 69.278 0.403 7.76 30.7 7.17
8/27/2023 7:30:00 AM 20.65 69.17 0.404 7.76 25.08 7.17
8/27/2023 7:45:00 AM 20.59 69.062 0.404 7.77 23.42 7.27
8/27/2023 8:00:00 AM 20.53 68.954 0.405 7.78 18.68 7.35
8/27/2023 8:15:00 AM 20.49 68.882 0.405 7.79 25.14 7.44
8/27/2023 8:30:00 AM 20.46 68.828 0.405 7.8 27.73 7.5
8/27/2023 8:45:00 AM 20.42 68.756 0.405 7.8 22.28 7.67
8/27/2023 9:00:00 AM 20.41 68.738 0.406 7.83 4.57 7.7
8/27/2023 9:15:00 AM 20.39 68.702 0.406 7.84 4.17 7.86
8/27/2023 9:30:00 AM 20.37 68.666 0.406 7.87 4.66 7.99
8/27/2023 9:45:00 AM 20.36 68.648 0.406 7.9 4.74 8.19
8/27/2023 10:00:00 AM 20.36 68.648 0.406 7.93 6.22 8.36
8/27/2023 10:15:00 AM 20.38 68.684 0.406 7.95 22.4 8.51
8/27/2023 10:30:00 AM 20.41 68.738 0.405 8 7.19 8.85
8/27/2023 10:45:00 AM 20.54 68.972 0.405 8.06 5.7 9.17
8/27/2023 11:00:00 AM 20.86 69.548 0.404 8.12 5.54 9.49
8/27/2023 11:15:00 AM 20.95 69.71 0.404 8.16 6.15 9.64
8/27/2023 11:30:00 AM 21.19 70.142 0.403 8.23 4.85 9.94
8/27/2023 11:45:00 AM 21.29 70.32201 0.402 8.29 4.53 10.17
8/27/2023 12:00:00 PM 21.5 70.7 0.402 8.34 4.36 10.35
8/27/2023 12:15:00 PM 21.66 70.988 0.401 8.37 18.91 10.47
8/27/2023 12:30:00 PM 21.85 71.33 0.401 8.42 4.16 10.61
8/27/2023 12:45:00 PM 22.03 71.654 0.4 8.46 4.85 10.69
8/27/2023 1:00:00 PM 22.36 72.248 0.4 8.51 16.67 10.88
8/27/2023 1:15:00 PM 22.51 72.518 0.4 8.53 4.45 10.92
8/27/2023 1:30:00 PM 22.73 72.914 0.399 8.56 24.49 10.99
8/27/2023 1:45:00 PM 22.75 72.95 0.399 8.57 20.49 10.96
8/27/2023 2:00:00 PM 22.8 73.04 0.397 8.6 4.04 10.98
8/27/2023 2:15:00 PM 22.85 73.13 0.396 8.62 20.37 10.99
8/27/2023 2:30:00 PM 22.92 73.256 0.394 8.64 7.93 11
8/27/2023 2:45:00 PM 22.91 73.238 0.392 8.65 17.34 10.93
8/27/2023 3:00:00 PM 23.03 73.454 0.389 8.67 2059.74 10.95
8/27/2023 3:15:00 PM 23.04 73.472 0.386 8.69 3.67 10.94
8/27/2023 3:30:00 PM 23.04 73.472 0.383 8.71 24.55 10.89
8/27/2023 3:45:00 PM 23.07 73.526 0.38 8.72 13.54 10.84
8/27/2023 4:00:00 PM 23.05 73.49 0.378 8.73 3.49 10.75
8/27/2023 4:15:00 PM 23.01 73.418 0.375 8.73 20.87 10.59
8/27/2023 4:30:00 PM 22.95 73.31 0.373 8.73 3.41 10.53
8/27/2023 4:45:00 PM 22.89 73.202 0.372 8.73 3.53 10.4
8/27/2023 5:00:00 PM 22.88 73.184 0.37 8.73 3.94 10.31
8/27/2023 5:15:00 PM 22.84 73.112 0.369 8.73 18.36 10.18
8/27/2023 5:30:00 PM 22.81 73.058 0.368 8.72 20.76 10.08
8/27/2023 5:45:00 PM 22.78 73.004 0.367 8.72 28.38 10.03
8/27/2023 6:00:00 PM 22.74 72.932 0.367 8.71 3.96 9.91
8/27/2023 6:15:00 PM 22.67 72.806 0.367 8.7 3.87 9.76
8/27/2023 6:30:00 PM 22.59 72.662 0.366 8.7 4.21 9.64
8/27/2023 6:45:00 PM 22.49 72.482 0.366 8.68 22.66 9.46
8/27/2023 7:00:00 PM 22.35 72.23 0.366 8.65 3.84 9.22
8/27/2023 7:15:00 PM 22.22 71.996 0.367 8.61 3.84 8.97
8/27/2023 7:30:00 PM 22.07 71.726 0.367 8.57 3.86 8.7
8/27/2023 7:45:00 PM 21.95 71.51 0.368 8.53 4.5 8.47
8/27/2023 8:00:00 PM 21.8 71.24 0.369 8.48 3.53 8.29
8/27/2023 8:15:00 PM 21.69 71.042 0.369 8.43 4.09 8.09
8/27/2023 8:30:00 PM 21.54 70.772 0.37 8.37 4.06 7.93
8/27/2023 8:45:00 PM 21.42 70.556 0.371 8.32 4.11 7.78
8/27/2023 9:00:00 PM 21.26 70.268 0.371 8.27 4.42 7.68
8/27/2023 9:15:00 PM 21.17 70.106 0.372 8.23 4.09 7.61
8/27/2023 9:30:00 PM 21.05 69.89 0.372 8.19 4.04 7.55
8/27/2023 9:45:00 PM 20.93 69.674 0.372 8.15 4.15 7.51
8/27/2023 10:00:00 PM 20.81 69.458 0.372 8.12 4.15 7.51
8/27/2023 10:15:00 PM 20.73 69.314 0.372 8.09 4.54 7.48
8/27/2023 10:30:00 PM 20.64 69.152 0.372 8.06 4.23 7.44
8/27/2023 10:45:00 PM 20.53 68.954 0.372 8.04 4.43 7.47
8/27/2023 11:00:00 PM 20.45 68.81 0.373 8.01 4.33 7.46
8/27/2023 11:15:00 PM 20.37 68.666 0.373 7.99 4.54 7.45
8/27/2023 11:30:00 PM 20.3 68.54 0.373 7.96 4.64 7.46
8/27/2023 11:45:00 PM 20.23 68.414 0.373 7.95 4.64 7.45
8/28/2023 12:00:00 AM 20.16 68.288 0.373 7.93 4.22 7.41
8/28/2023 12:15:00 AM 20.11 68.198 0.373 7.91 4.27 7.45
8/28/2023 12:30:00 AM 20.04 68.07201 0.374 7.9 4.52 7.44
8/28/2023 12:45:00 AM 19.97 67.946 0.374 7.88 4.53 7.43
8/28/2023 1:00:00 AM 19.92 67.856 0.375 7.86 4.49 7.44
8/28/2023 1:15:00 AM 19.87 67.766 0.375 7.85 4.93 7.45
8/28/2023 1:30:00 AM 19.78 67.604 0.375 7.84 4.33 7.47
8/28/2023 1:45:00 AM 19.73 67.514 0.376 7.82 4.7 7.49
8/28/2023 2:00:00 AM 19.66 67.388 0.376 7.81 4.17 7.45
8/28/2023 2:15:00 AM 19.6 67.28 0.376 7.8 4.51 7.49
8/28/2023 2:30:00 AM 19.52 67.136 0.377 7.79 3.99 7.49
8/28/2023 2:45:00 AM 19.44 66.992 0.377 7.78 4.55 7.54
8/28/2023 3:00:00 AM 19.38 66.884 0.378 7.77 5.07 7.54
8/28/2023 3:15:00 AM 19.32 66.776 0.378 7.76 4.22 7.54
8/28/2023 3:30:00 AM 19.25 66.65 0.379 7.76 4.57 7.56
8/28/2023 3:45:00 AM 19.21 66.578 0.379 7.75 4.5 7.6
8/28/2023 4:00:00 AM 19.17 66.506 0.379 7.75 4.41 7.56
8/28/2023 4:15:00 AM 19.12 66.416 0.38 7.74 3.85 7.57
8/28/2023 4:30:00 AM 19.07 66.326 0.38 7.74 4.98 7.58
8/28/2023 4:45:00 AM 19.01 66.218 0.381 7.73 4.01 7.58
8/28/2023 5:00:00 AM 18.97 66.146 0.381 7.73 4.7 7.59
8/28/2023 5:15:00 AM 18.92 66.056 0.382 7.73 4.29 7.59
8/28/2023 5:30:00 AM 18.86 65.948 0.382 7.73 4.51 7.6
8/28/2023 5:45:00 AM 18.8 65.84 0.383 7.73 4.16 7.62
8/28/2023 6:00:00 AM 18.75 65.75 0.383 7.73 4.08 7.65
8/28/2023 6:15:00 AM 18.68 65.624 0.384 7.73 4.44 7.69
8/28/2023 6:30:00 AM 18.63 65.534 0.385 7.72 24.33 7.62
8/28/2023 6:45:00 AM 18.55 65.39 0.385 7.73 17.46 7.74
8/28/2023 7:00:00 AM 18.5 65.3 0.386 7.73 19.3 7.69
8/28/2023 7:15:00 AM 18.45 65.21 0.386 7.74 3.95 7.84
8/28/2023 7:30:00 AM 18.43 65.174 0.386 7.75 17.1 7.92
8/28/2023 7:45:00 AM 18.41 65.138 0.387 7.75 26.48 7.96
8/28/2023 8:00:00 AM 18.38 65.084 0.387 7.78 14.26 8.15
8/28/2023 8:15:00 AM 18.35 65.03 0.388 7.79 21.38 8.22
8/28/2023 8:30:00 AM 18.33 64.994 0.388 7.8 16.27 8.27
8/28/2023 8:45:00 AM 18.33 64.994 0.388 7.82 4.21 8.35
8/28/2023 9:00:00 AM 18.33 64.994 0.388 7.84 19.64 8.52
8/28/2023 9:15:00 AM 18.33 64.994 0.389 7.84 23.77 8.49
8/28/2023 9:30:00 AM 18.32 64.976 0.389 7.87 3.81 8.67
8/28/2023 9:45:00 AM 18.31 64.958 0.388 7.89 4.28 8.81
8/28/2023 10:00:00 AM 18.32 64.976 0.388 7.92 25.39 8.92
8/28/2023 10:15:00 AM 18.32 64.976 0.387 7.94 4.5 9.03
8/28/2023 10:30:00 AM 18.35 65.03 0.387 7.96 13.65 9.13
8/28/2023 10:45:00 AM 18.39 65.102 0.387 8 3.74 9.27
8/28/2023 11:00:00 AM 18.51 65.318 0.386 8.04 16.32 9.54
8/28/2023 11:15:00 AM 18.53 65.354 0.386 8.06 27.99 9.59
8/28/2023 11:30:00 AM 18.54 65.372 0.383 8.1 6.04 9.71
8/28/2023 11:45:00 AM 18.6 65.48 0.383 8.14 18.15 9.87
8/28/2023 12:00:00 PM 18.6 65.48 0.382 8.16 5.23 9.77
8/28/2023 12:15:00 PM 18.65 65.57 0.381 8.16 36.47 9.82
8/28/2023 12:30:00 PM 18.73 65.714 0.38 8.2 4.43 9.94
8/28/2023 12:45:00 PM 18.73 65.714 0.38 8.22 4.16 9.98
8/28/2023 1:00:00 PM 18.77 65.786 0.38 8.23 21.06 10.06
8/28/2023 1:15:00 PM 18.82 65.876 0.381 8.27 3.93 10.2
8/28/2023 1:30:00 PM 18.9 66.02 0.381 8.3 24.02 10.28
8/28/2023 1:45:00 PM 18.99 66.182 0.382 8.33 3.76 10.39
8/28/2023 2:00:00 PM 19.04 66.272 0.382 8.33 5.35 10.41
8/28/2023 2:15:00 PM 19.14 66.452 0.382 8.39 3.73 10.53
8/28/2023 2:30:00 PM 19.26 66.668 0.382 8.43 3.69 10.76
8/28/2023 2:45:00 PM 19.36 66.848 0.382 8.45 3.74 10.8
8/28/2023 3:00:00 PM 19.5 67.1 0.381 8.47 3.25 10.94
8/28/2023 3:15:00 PM 19.58 67.244 0.381 8.51 3.43 10.97
8/28/2023 3:30:00 PM 19.68 67.424 0.381 8.54 3.67 10.97
8/28/2023 3:45:00 PM 19.72 67.496 0.381 8.56 9.49 10.94
8/28/2023 4:00:00 PM 19.79 67.622 0.38 8.58 18.13 10.92
8/28/2023 4:15:00 PM 19.88 67.784 0.38 8.6 16.87 10.93
8/28/2023 4:30:00 PM 19.93 67.874 0.38 8.6 14.12 10.83
8/28/2023 4:45:00 PM 19.95 67.91 0.38 8.6 14.71 10.78
8/28/2023 5:00:00 PM 20.01 68.018 0.38 8.61 13.33 10.74
8/28/2023 5:15:00 PM 20.12 68.216 0.38 8.62 21.25 10.74
8/28/2023 5:30:00 PM 20.13 68.234 0.38 8.62 13.87 10.65
8/28/2023 5:45:00 PM 20.19 68.342 0.381 8.62 26 10.66
8/28/2023 6:00:00 PM 20.29 68.522 0.381 8.63 12.38 10.61
8/28/2023 6:15:00 PM 20.33 68.594 0.381 8.64 13.36 10.54
8/28/2023 6:30:00 PM 20.32 68.576 0.381 8.63 3.41 10.39
8/28/2023 6:45:00 PM 20.3 68.54 0.382 8.62 3.4 10.28
8/28/2023 7:00:00 PM 20.24 68.432 0.383 8.6 3.47 10.04
8/28/2023 7:15:00 PM 20.19 68.342 0.383 8.57 3.43 9.82
8/28/2023 7:30:00 PM 20.1 68.18 0.384 8.54 3.48 9.53
8/28/2023 7:45:00 PM 20.01 68.018 0.385 8.5 3.63 9.27
8/28/2023 8:00:00 PM 19.95 67.91 0.385 8.46 3.7 9.08
8/28/2023 8:15:00 PM 19.87 67.766 0.386 8.4 3.66 8.79
8/28/2023 8:30:00 PM 19.82 67.676 0.387 8.34 3.35 8.58
8/28/2023 8:45:00 PM 19.77 67.586 0.388 8.29 3.61 8.4
8/28/2023 9:00:00 PM 19.71 67.478 0.388 8.24 4.01 8.26
8/28/2023 9:15:00 PM 19.63 67.334 0.389 8.18 3.48 8.12
8/28/2023 9:30:00 PM 19.58 67.244 0.389 8.14 3.86 8.03
8/28/2023 9:45:00 PM 19.52 67.136 0.39 8.09 3.46 7.95
8/28/2023 10:00:00 PM 19.46 67.028 0.39 8.06 3.78 7.91
8/28/2023 10:15:00 PM 19.42 66.956 0.39 8.03 3.68 7.83
8/28/2023 10:30:00 PM 19.38 66.884 0.39 8 4.78 7.8
8/28/2023 10:45:00 PM 19.35 66.83 0.39 7.98 3.95 7.75
8/28/2023 11:00:00 PM 19.3 66.74 0.39 7.96 3.84 7.78
8/28/2023 11:15:00 PM 19.29 66.722 0.39 7.94 3.9 7.74
8/28/2023 11:30:00 PM 19.27 66.686 0.39 7.93 3.98 7.77
8/28/2023 11:45:00 PM 19.25 66.65 0.39 7.91 3.34 7.71
8/29/2023 12:00:00 AM 19.23 66.614 0.39 7.9 3.84 7.73
8/29/2023 12:15:00 AM 19.21 66.578 0.39 7.89 3.57 7.71
8/29/2023 12:30:00 AM 19.2 66.56 0.39 7.87 3.84 7.7
8/29/2023 12:45:00 AM 19.18 66.524 0.389 7.86 3.54 7.68
8/29/2023 1:00:00 AM 19.16 66.488 0.389 7.86 3.53 7.69
8/29/2023 1:15:00 AM 19.15 66.47 0.389 7.85 3.63 7.66
8/29/2023 1:30:00 AM 19.13 66.434 0.389 7.84 3.52 7.66
8/29/2023 1:45:00 AM 19.1 66.38 0.389 7.83 3.58 7.66
8/29/2023 2:00:00 AM 19.06 66.308 0.39 7.83 3.81 7.67
8/29/2023 2:15:00 AM 19.03 66.254 0.39 7.82 3.51 7.65
8/29/2023 2:30:00 AM 19.02 66.236 0.39 7.81 3.86 7.64
8/29/2023 2:45:00 AM 19 66.2 0.39 7.81 3.64 7.67
8/29/2023 3:00:00 AM 18.99 66.182 0.391 7.8 3.89 7.66
8/29/2023 3:15:00 AM 18.97 66.146 0.391 7.8 3.9 7.69
8/29/2023 3:30:00 AM 18.97 66.146 0.391 7.79 3.88 7.69
8/29/2023 3:45:00 AM 18.96 66.128 0.392 7.8 4.07 7.69
8/29/2023 4:00:00 AM 18.96 66.128 0.392 7.79 3.37 7.64
8/29/2023 4:15:00 AM 18.94 66.092 0.392 7.79 4.53 7.68
8/29/2023 4:30:00 AM 18.92 66.056 0.392 7.78 4.03 7.67
8/29/2023 4:45:00 AM 18.89 66.002 0.393 7.78 3.47 7.67
8/29/2023 5:00:00 AM 18.86 65.948 0.393 7.77 3.81 7.69
8/29/2023 5:15:00 AM 18.85 65.93 0.393 7.77 3.22 7.64
8/29/2023 5:30:00 AM 18.82 65.876 0.393 7.77 3.75 7.68
8/29/2023 5:45:00 AM 18.8 65.84 0.393 7.76 3.71 7.66
8/29/2023 6:00:00 AM 18.76 65.768 0.393 7.76 4.02 7.7
8/29/2023 6:15:00 AM 18.74 65.732 0.393 7.75 4.08 7.68
8/29/2023 6:30:00 AM 18.72 65.696 0.394 7.75 19.42 7.64
8/29/2023 6:45:00 AM 18.69 65.642 0.394 7.76 3.47 7.71
8/29/2023 7:00:00 AM 18.68 65.624 0.394 7.75 4.13 7.7
8/29/2023 7:15:00 AM 18.68 65.624 0.394 7.75 19.83 7.74
8/29/2023 7:30:00 AM 18.69 65.642 0.394 7.76 4.11 7.79
8/29/2023 7:45:00 AM 18.7 65.66 0.394 7.78 19.23 7.97
8/29/2023 8:00:00 AM 18.71 65.67799 0.394 7.8 23.67 8.12
8/29/2023 8:15:00 AM 18.76 65.768 0.394 7.82 18.94 8.36
8/29/2023 8:30:00 AM 18.79 65.82201 0.394 7.83 12.65 8.4
8/29/2023 8:45:00 AM 18.85 65.93 0.393 7.88 15.51 8.71
8/29/2023 9:00:00 AM 18.91 66.038 0.393 7.9 19.63 8.79
8/29/2023 9:15:00 AM 18.96 66.128 0.393 7.92 17.33 8.77
8/29/2023 9:30:00 AM 19.01 66.218 0.393 7.93 21.26 8.88
8/29/2023 9:45:00 AM 19.14 66.452 0.393 7.98 21.35 9.18
8/29/2023 10:00:00 AM 19.21 66.578 0.393 8 19.52 9.26
8/29/2023 10:15:00 AM 19.35 66.83 0.393 8.06 15.78 9.5
8/29/2023 10:30:00 AM 19.44 66.992 0.393 8.09 3.77 9.61
8/29/2023 10:45:00 AM 19.48 67.064 0.393 8.11 3.68 9.61
8/29/2023 11:00:00 AM 19.55 67.19 0.393 8.13 21.1 9.71
8/29/2023 11:15:00 AM 19.62 67.316 0.393 8.18 3.72 9.82
8/29/2023 11:30:00 AM 19.7 67.46 0.393 8.2 3.49 9.85
8/29/2023 11:45:00 AM 19.79 67.622 0.393 8.23 3.44 9.97
8/29/2023 12:00:00 PM 19.93 67.874 0.393 8.25 20.16 10.12
8/29/2023 12:15:00 PM 20.13 68.234 0.392 8.31 3.37 10.35
8/29/2023 12:30:00 PM 20.22 68.396 0.392 8.34 3.51 10.39
8/29/2023 12:45:00 PM 20.22 68.396 0.392 8.34 3.65 10.34
8/29/2023 1:00:00 PM 20.26 68.468 0.392 8.38 3.49 10.39
8/29/2023 1:15:00 PM 20.28 68.504 0.391 8.4 3.25 10.41
8/29/2023 1:30:00 PM 20.32 68.576 0.391 8.41 3.27 10.33
8/29/2023 1:45:00 PM 20.39 68.702 0.391 8.42 3.97 10.38
8/29/2023 2:00:00 PM 20.44 68.792 0.391 8.42 3.45 10.37
8/29/2023 2:15:00 PM 20.45 68.81 0.391 8.43 3.29 10.26
8/29/2023 2:30:00 PM 20.46 68.828 0.39 8.44 3.46 10.31
8/29/2023 2:45:00 PM 20.47 68.846 0.39 8.46 3.62 10.32
8/29/2023 3:00:00 PM 20.49 68.882 0.389 8.47 3.59 10.27
8/29/2023 3:15:00 PM 20.51 68.918 0.389 8.46 3.34 10.06
8/29/2023 3:30:00 PM 20.54 68.972 0.389 8.46 3.99 10.05
8/29/2023 3:45:00 PM 20.61 69.098 0.389 8.47 4.64 10.16
8/29/2023 4:00:00 PM 20.69 69.242 0.389 8.47 4.04 10.14
8/29/2023 4:15:00 PM 20.85 69.53 0.388 8.51 3.53 10.35
8/29/2023 4:30:00 PM 21.01 69.818 0.387 8.54 3.59 10.42
8/29/2023 4:45:00 PM 21.14 70.052 0.386 8.57 4.45 10.53
8/29/2023 5:00:00 PM 21.24 70.232 0.386 8.59 3.42 10.57
8/29/2023 5:15:00 PM 21.36 70.448 0.385 8.62 3.61 10.64
8/29/2023 5:30:00 PM 21.43 70.574 0.384 8.62 3.52 10.48
8/29/2023 5:45:00 PM 21.45 70.61 0.384 8.62 5.75 10.36
8/29/2023 6:00:00 PM 21.51 70.718 0.384 8.62 37.27 10.35
8/29/2023 6:15:00 PM 21.52 70.736 0.383 8.63 4.45 10.24
8/29/2023 6:30:00 PM 21.51 70.718 0.383 8.63 9.36 10.16
8/29/2023 6:45:00 PM 21.47 70.646 0.383 8.62 14.81 10
8/29/2023 7:00:00 PM 21.4 70.52 0.384 8.61 3.1 9.85
8/29/2023 7:15:00 PM 21.32 70.376 0.384 8.57 3.48 9.51
8/29/2023 7:30:00 PM 21.24 70.232 0.385 8.54 16.79 9.35
8/29/2023 7:45:00 PM 21.12 70.016 0.386 8.5 3.76 9.11
8/29/2023 8:00:00 PM 21.01 69.818 0.387 8.44 3.55 8.84
8/29/2023 8:15:00 PM 20.9 69.62 0.388 8.39 3.99 8.57
8/29/2023 8:30:00 PM 20.79 69.422 0.389 8.34 4.03 8.36
8/29/2023 8:45:00 PM 20.69 69.242 0.389 8.28 3.63 8.17
8/29/2023 9:00:00 PM 20.62 69.116 0.39 8.24 3.55 8.01
8/29/2023 9:15:00 PM 20.51 68.918 0.39 8.18 3.97 7.86
8/29/2023 9:30:00 PM 20.45 68.81 0.39 8.14 3.36 7.75
8/29/2023 9:45:00 PM 20.38 68.684 0.391 8.11 3.76 7.7
8/29/2023 10:00:00 PM 20.32 68.576 0.391 8.07 3.72 7.65
8/29/2023 10:15:00 PM 20.29 68.522 0.39 8.04 4.1 7.59
8/29/2023 10:30:00 PM 20.26 68.468 0.391 8 3.99 7.51
8/29/2023 10:45:00 PM 20.2 68.36 0.391 7.99 4.26 7.49
8/29/2023 11:00:00 PM 20.13 68.234 0.391 7.97 4.34 7.52
8/29/2023 11:15:00 PM 20.11 68.198 0.391 7.94 3.86 7.44
8/29/2023 11:30:00 PM 20.07 68.126 0.39 7.93 3.63 7.46
8/29/2023 11:45:00 PM 20.05 68.09 0.391 7.91 3.61 7.46
8/30/2023 12:00:00 AM 20.03 68.054 0.391 7.9 3.58 7.43
8/30/2023 12:15:00 AM 20.01 68.018 0.39 7.88 3.74 7.46
8/30/2023 12:30:00 AM 20 68 0.391 7.86 3.83 7.42
8/30/2023 12:45:00 AM 19.99 67.982 0.391 7.86 3.52 7.41
8/30/2023 1:00:00 AM 19.97 67.946 0.391 7.85 3.92 7.41
8/30/2023 1:15:00 AM 19.96 67.92799 0.391 7.83 3.83 7.37
8/30/2023 1:30:00 AM 19.95 67.91 0.391 7.83 3.55 7.42
8/30/2023 1:45:00 AM 19.92 67.856 0.39 7.84 4.49 7.48
8/30/2023 2:00:00 AM 19.89 67.802 0.383 7.84 9.57 7.58
8/30/2023 2:15:00 AM 19.88 67.784 0.383 7.83 6.36 7.58
8/30/2023 2:30:00 AM 19.85 67.73 0.381 7.82 5.19 7.59
8/30/2023 2:45:00 AM 19.84 67.712 0.378 7.8 8.32 7.49
8/30/2023 3:00:00 AM 19.82 67.676 0.375 7.79 5.33 7.54
8/30/2023 3:15:00 AM 19.78 67.604 0.376 7.79 4.96 7.51
8/30/2023 3:30:00 AM 19.75 67.55 0.379 7.78 5.71 7.52
8/30/2023 3:45:00 AM 19.7 67.46 0.379 7.79 4.85 7.51
8/30/2023 4:00:00 AM 19.63 67.334 0.379 7.78 5.16 7.5
8/30/2023 4:15:00 AM 19.56 67.208 0.379 7.79 4.51 7.51
8/30/2023 4:30:00 AM 19.51 67.118 0.379 7.78 4.96 7.51
8/30/2023 4:45:00 AM 19.44 66.992 0.381 7.79 4.8 7.55
8/30/2023 5:00:00 AM 19.37 66.866 0.383 7.8 4.42 7.59
8/30/2023 5:15:00 AM 19.29 66.722 0.384 7.81 4.08 7.63
8/30/2023 5:30:00 AM 19.26 66.668 0.385 7.8 4.49 7.61
8/30/2023 5:45:00 AM 19.19 66.542 0.385 7.8 4.27 7.62
8/30/2023 6:00:00 AM 19.11 66.398 0.384 7.8 6.99 7.62
8/30/2023 6:15:00 AM 19.04 66.272 0.383 7.8 5.03 7.67
8/30/2023 6:30:00 AM 18.98 66.164 0.383 7.8 5.64 7.66
8/30/2023 6:45:00 AM 18.91 66.038 0.383 7.8 5.71 7.7
8/30/2023 7:00:00 AM 18.88 65.984 0.384 7.8 29.06 7.69
8/30/2023 7:15:00 AM 18.87 65.966 0.384 7.81 21.65 7.8
8/30/2023 7:30:00 AM 18.86 65.948 0.385 7.82 26.3 7.89
8/30/2023 7:45:00 AM 18.86 65.948 0.386 7.83 29.66 7.97
8/30/2023 8:00:00 AM 18.87 65.966 0.387 7.86 5.07 8.2
8/30/2023 8:15:00 AM 18.87 65.966 0.388 7.88 5.59 8.32
8/30/2023 8:30:00 AM 18.9 66.02 0.389 7.9 20.68 8.48
8/30/2023 8:45:00 AM 18.94 66.092 0.389 7.93 6.86 8.62
8/30/2023 9:00:00 AM 18.97 66.146 0.389 7.97 13.83 8.88
8/30/2023 9:15:00 AM 19.07 66.326 0.388 8.01 22.15 9.04
8/30/2023 9:30:00 AM 19.15 66.47 0.386 8.05 25.64 9.24
8/30/2023 9:45:00 AM 19.33 66.794 0.384 8.1 156.29 9.51
8/30/2023 10:00:00 AM 19.41 66.938 0.383 8.13 7.01 9.58
8/30/2023 10:15:00 AM 19.63 67.334 0.381 8.19 6.95 9.82
8/30/2023 10:30:00 AM 19.93 67.874 0.378 8.24 7.84 10.05
8/30/2023 10:45:00 AM 20.18 68.324 0.376 8.27 8.4 10.11
8/30/2023 11:00:00 AM 20.38 68.684 0.375 8.31 8.54 10.17
8/30/2023 11:15:00 AM 20.62 69.116 0.374 8.35 8.13 10.28
8/30/2023 11:30:00 AM 20.64 69.152 0.372 8.37 23.21 10.24
8/30/2023 11:45:00 AM 20.84 69.512 0.37 8.41 7.77 10.4
8/30/2023 12:00:00 PM 21.02 69.836 0.37 8.44 13.45 10.42
8/30/2023 12:15:00 PM 21.11 69.998 0.369 8.45 23.78 10.47
8/30/2023 12:30:00 PM 21.18 70.124 0.369 8.49 7.35 10.54
8/30/2023 12:45:00 PM 21.26 70.268 0.369 8.5 29.74 10.52
8/30/2023 1:00:00 PM 21.23 70.214 0.369 8.52 23.09 10.46
8/30/2023 1:15:00 PM 21.24 70.232 0.369 8.54 20.31 10.5
8/30/2023 1:30:00 PM 21.28 70.304 0.369 8.56 6.34 10.44
8/30/2023 1:45:00 PM 21.36 70.448 0.369 8.59 5.9 10.51
8/30/2023 2:00:00 PM 21.43 70.574 0.369 8.61 20.23 10.5
8/30/2023 2:15:00 PM 21.64 70.952 0.368 8.63 5.38 10.53
8/30/2023 2:30:00 PM 21.7 71.06 0.367 8.65 5.27 10.53
8/30/2023 2:45:00 PM 21.82 71.276 0.367 8.67 5.72 10.59
8/30/2023 3:00:00 PM 21.9 71.42 0.366 8.68 30.22 10.49
8/30/2023 3:15:00 PM 21.88 71.384 0.366 8.69 23.94 10.41
8/30/2023 3:30:00 PM 21.95 71.51 0.365 8.71 4.72 10.36
8/30/2023 3:45:00 PM 22.01 71.618 0.364 8.72 4.48 10.23
8/30/2023 4:00:00 PM 22.13 71.834 0.363 8.73 4.8 10.17
8/30/2023 4:15:00 PM 22.27 72.086 0.361 8.75 4.51 10.22
8/30/2023 4:30:00 PM 22.35 72.23 0.36 8.76 4.74 10.21
8/30/2023 4:45:00 PM 22.32 72.176 0.358 8.76 17.93 10.1
8/30/2023 5:00:00 PM 22.22 71.996 0.356 8.76 15.69 9.99
8/30/2023 5:15:00 PM 22.09 71.762 0.355 8.74 4.25 9.76
8/30/2023 5:30:00 PM 21.92 71.456 0.353 8.71 30.31 9.42
8/30/2023 5:45:00 PM 21.77 71.186 0.352 8.68 30.74 9.23
8/30/2023 6:00:00 PM 21.65 70.97 0.352 8.66 4.21 9.05
8/30/2023 6:15:00 PM 21.54 70.772 0.351 8.63 4.28 8.88
8/30/2023 6:30:00 PM 21.45 70.61 0.351 8.6 4.13 8.7
8/30/2023 6:45:00 PM 21.39 70.502 0.351 8.57 3.95 8.55
8/30/2023 7:00:00 PM 21.32 70.376 0.351 8.54 4.35 8.46
8/30/2023 7:15:00 PM 21.26 70.268 0.351 8.51 4 8.34
8/30/2023 7:30:00 PM 21.19 70.142 0.351 8.48 3.86 8.25
8/30/2023 7:45:00 PM 21.14 70.052 0.352 8.44 4.24 8.1
8/30/2023 8:00:00 PM 21.09 69.962 0.353 8.4 4.4 8
8/30/2023 8:15:00 PM 21.02 69.836 0.353 8.35 4.11 7.87
8/30/2023 8:30:00 PM 20.95 69.71 0.354 8.31 4.53 7.79
8/30/2023 8:45:00 PM 20.89 69.602 0.354 8.26 4.26 7.73
8/30/2023 9:00:00 PM 20.8 69.44 0.355 8.21 4.88 7.69
8/30/2023 9:15:00 PM 20.74 69.332 0.356 8.17 4.38 7.6
8/30/2023 9:30:00 PM 20.67 69.206 0.356 8.13 4.39 7.59
8/30/2023 9:45:00 PM 20.6 69.08 0.356 8.1 4.53 7.57
8/30/2023 10:00:00 PM 20.53 68.954 0.356 8.06 4.6 7.58
8/30/2023 10:15:00 PM 20.48 68.864 0.356 8.03 4.23 7.55
8/30/2023 10:30:00 PM 20.42 68.756 0.357 8.01 4.98 7.56
8/30/2023 10:45:00 PM 20.38 68.684 0.357 7.99 4.27 7.52
8/30/2023 11:00:00 PM 20.33 68.594 0.357 7.97 4.22 7.48
8/30/2023 11:15:00 PM 20.27 68.486 0.358 7.95 4.86 7.54
8/30/2023 11:30:00 PM 20.19 68.342 0.358 7.94 4.54 7.54
8/30/2023 11:45:00 PM 20.12 68.216 0.358 7.93 4.5 7.55
8/31/2023 12:00:00 AM 20.07 68.126 0.359 7.92 4.3 7.54
8/31/2023 12:15:00 AM 19.99 67.982 0.359 7.91 4.03 7.56
8/31/2023 12:30:00 AM 19.92 67.856 0.359 7.9 4.09 7.55
8/31/2023 12:45:00 AM 19.83 67.694 0.36 7.88 4.55 7.56
8/31/2023 1:00:00 AM 19.73 67.514 0.36 7.88 4.3 7.54
8/31/2023 1:15:00 AM 19.63 67.334 0.361 7.87 4.36 7.59
8/31/2023 1:30:00 AM 19.57 67.226 0.361 7.86 4.33 7.59
8/31/2023 1:45:00 AM 19.5 67.1 0.362 7.85 4.43 7.62
8/31/2023 2:00:00 AM 19.43 66.974 0.362 7.85 4.51 7.64
8/31/2023 2:15:00 AM 19.36 66.848 0.363 7.85 4.33 7.65
8/31/2023 2:30:00 AM 19.31 66.758 0.363 7.84 4.9 7.66
8/31/2023 2:45:00 AM 19.25 66.65 0.364 7.84 4.31 7.67
8/31/2023 3:00:00 AM 19.19 66.542 0.364 7.83 4.77 7.69
8/31/2023 3:15:00 AM 19.12 66.416 0.365 7.83 4.46 7.7
8/31/2023 3:30:00 AM 19.04 66.272 0.365 7.82 4.44 7.71
8/31/2023 3:45:00 AM 18.99 66.182 0.366 7.82 4.71 7.67
8/31/2023 4:00:00 AM 18.9 66.02 0.367 7.82 4.32 7.71
8/31/2023 4:15:00 AM 18.81 65.858 0.367 7.82 3.97 7.74
8/31/2023 4:30:00 AM 18.69 65.642 0.368 7.82 4.9 7.78
8/31/2023 4:45:00 AM 18.63 65.534 0.369 7.81 4.65 7.75
8/31/2023 5:00:00 AM 18.54 65.372 0.37 7.81 9.38 7.76
8/31/2023 5:15:00 AM 18.44 65.192 0.371 7.8 4.56 7.81
8/31/2023 5:30:00 AM 18.32 64.976 0.371 7.81 5.32 7.85
8/31/2023 5:45:00 AM 18.21 64.778 0.372 7.8 7.24 7.87
8/31/2023 6:00:00 AM 18.09 64.562 0.373 7.8 7.21 7.86
8/31/2023 6:15:00 AM 17.99 64.382 0.374 7.8 4.72 7.92
8/31/2023 6:30:00 AM 17.9 64.22 0.374 7.8 4.23 7.91
8/31/2023 6:45:00 AM 17.76 63.968 0.375 7.79 50.78 7.94
8/31/2023 7:00:00 AM 17.69 63.842 0.375 7.78 20.06 8.04
8/31/2023 7:15:00 AM 17.6 63.68 0.376 7.79 16.98 8.15
8/31/2023 7:30:00 AM 17.57 63.626 0.376 7.8 14 8.24
8/31/2023 7:45:00 AM 17.52 63.536 0.376 7.8 22.86 8.26
8/31/2023 8:00:00 AM 17.49 63.482 0.376 7.81 20.15 8.44
8/31/2023 8:15:00 AM 17.49 63.482 0.377 7.83 16.55 8.66
8/31/2023 8:30:00 AM 17.46 63.428 0.377 7.86 12.59 8.79
8/31/2023 8:45:00 AM 17.5 63.5 0.377 7.89 3.89 8.94
8/31/2023 9:00:00 AM 17.52 63.536 0.377 7.92 11.35 9.11
8/31/2023 9:15:00 AM 17.63 63.734 0.377 7.96 14.65 9.37
8/31/2023 9:30:00 AM 17.79 64.022 0.376 8.01 4 9.6
8/31/2023 9:45:00 AM 17.95 64.31 0.376 8.06 14.6 9.82
8/31/2023 10:00:00 AM 18.13 64.634 0.375 8.13 3.7 10.06
8/31/2023 10:15:00 AM 18.36 65.048 0.375 8.17 3.9 10.14
8/31/2023 10:30:00 AM 18.57 65.426 0.375 8.22 17.26 10.29
8/31/2023 10:45:00 AM 18.84 65.912 0.374 8.26 14.39 10.4
8/31/2023 11:00:00 AM 19.22 66.596 0.374 8.32 15.47 10.54
8/31/2023 11:15:00 AM 19.59 67.262 0.373 8.38 13.59 10.65
8/31/2023 11:30:00 AM 19.98 67.964 0.373 8.44 3.57 10.8
8/31/2023 11:45:00 AM 20.41 68.738 0.373 8.5 3.38 10.98
8/31/2023 12:00:00 PM 20.73 69.314 0.372 8.53 3.66 10.98
8/31/2023 12:15:00 PM 21.15 70.07 0.372 8.58 3.53 11.15
8/31/2023 12:30:00 PM 21.46 70.628 0.371 8.61 3.66 11.17
8/31/2023 12:45:00 PM 21.73 71.114 0.371 8.64 3.62 11.18
8/31/2023 1:00:00 PM 22.05 71.69 0.371 8.67 3.36 11.25
8/31/2023 1:15:00 PM 22.42 72.356 0.37 8.69 3.6 11.27
8/31/2023 1:30:00 PM 22.63 72.734 0.37 8.71 3.69 11.23
8/31/2023 1:45:00 PM 22.89 73.202 0.37 8.72 3.72 11.19
8/31/2023 2:00:00 PM 23.16 73.688 0.369 8.74 3.53 11.14
8/31/2023 2:15:00 PM 23.29 73.922 0.369 8.75 3.44 11.1
8/31/2023 2:30:00 PM 23.45 74.21 0.369 8.76 3.85 11.01
8/31/2023 2:45:00 PM 23.54 74.372 0.369 8.76 3.34 10.89
8/31/2023 3:00:00 PM 23.64 74.552 0.369 8.77 3.5 10.88
8/31/2023 3:15:00 PM 23.66 74.588 0.369 8.77 3.64 10.77
8/31/2023 3:30:00 PM 23.65 74.57 0.369 8.78 3.45 10.67
8/31/2023 3:45:00 PM 23.65 74.57 0.369 8.78 3.35 10.54
8/31/2023 4:00:00 PM 23.65 74.57 0.37 8.78 3.54 10.38
8/31/2023 4:15:00 PM 23.59 74.462 0.37 8.77 3.81 10.34
8/31/2023 4:30:00 PM 23.55 74.39 0.37 8.77 3.58 10.19
8/31/2023 4:45:00 PM 23.44 74.192 0.37 8.77 3.68 10.05
8/31/2023 5:00:00 PM 23.38 74.084 0.37 8.76 3.75 9.97
8/31/2023 5:15:00 PM 23.3 73.94 0.371 8.76 3.6 9.89
8/31/2023 5:30:00 PM 23.19 73.742 0.371 8.74 4.22 9.78
8/31/2023 5:45:00 PM 23.03 73.454 0.372 8.73 3.44 9.69
8/31/2023 6:00:00 PM 22.9 73.22 0.373 8.69 3.34 9.41
8/31/2023 6:15:00 PM 22.65 72.77 0.373 8.69 3.58 9.43
8/31/2023 6:30:00 PM 22.4 72.32 0.374 8.67 3.53 9.35
8/31/2023 6:45:00 PM 22.25 72.05 0.375 8.6 3.53 9.16
8/31/2023 7:00:00 PM 22.01 71.618 0.376 8.61 3.52 8.97
8/31/2023 7:15:00 PM 21.76 71.168 0.377 8.57 3.94 8.79
8/31/2023 7:30:00 PM 21.59 70.862 0.378 8.52 3.76 8.54
8/31/2023 7:45:00 PM 21.32 70.376 0.379 8.48 3.87 8.42
8/31/2023 8:00:00 PM 21.14 70.052 0.381 8.45 3.63 8.18
8/31/2023 8:15:00 PM 20.92 69.656 0.382 8.4 3.81 8.02
8/31/2023 8:30:00 PM 20.77 69.386 0.382 8.36 3.3 7.87
8/31/2023 8:45:00 PM 20.58 69.044 0.383 8.31 3.87 7.79
8/31/2023 9:00:00 PM 20.46 68.828 0.384 8.26 4.16 7.66
8/31/2023 9:15:00 PM 20.26 68.468 0.385 8.22 3.95 7.61
8/31/2023 9:30:00 PM 20.1 68.18 0.386 8.18 3.7 7.57
8/31/2023 9:45:00 PM 19.98 67.964 0.386 8.14 3.95 7.48
8/31/2023 10:00:00 PM 19.79 67.622 0.387 8.11 3.68 7.51
8/31/2023 10:15:00 PM 19.69 67.442 0.387 8.08 3.63 7.44
8/31/2023 10:30:00 PM 19.55 67.19 0.388 8.05 4.36 7.42
8/31/2023 10:45:00 PM 19.4 66.92 0.389 8.03 4.87 7.45
8/31/2023 11:00:00 PM 19.29 66.722 0.389 8 6.7 7.45
8/31/2023 11:15:00 PM 19.12 66.416 0.39 7.98 3.59 7.47
8/31/2023 11:30:00 PM 18.99 66.182 0.39 7.96 3.57 7.46
8/31/2023 11:45:00 PM 18.89 66.002 0.39 7.94 3.73 7.5
9/1/2023 12:00:00 AM 18.73 65.714 0.391 7.92 3.9 7.56
9/1/2023 12:15:00 AM 18.61 65.498 0.391 7.91 3.89 7.58
9/1/2023 12:30:00 AM 18.53 65.354 0.391 7.89 4.13 7.57
9/1/2023 12:45:00 AM 18.41 65.138 0.391 7.87 3.49 7.58
9/1/2023 1:00:00 AM 18.3 64.94 0.391 7.86 4.05 7.63
9/1/2023 1:15:00 AM 18.18 64.724 0.391 7.84 3.83 7.66
9/1/2023 1:30:00 AM 18.08 64.544 0.39 7.83 3.93 7.69
9/1/2023 1:45:00 AM 18 64.4 0.39 7.82 4.15 7.67
9/1/2023 2:00:00 AM 17.88 64.184 0.39 7.81 4.41 7.75
9/1/2023 2:15:00 AM 17.8 64.04 0.39 7.79 3.72 7.69
9/1/2023 2:30:00 AM 17.69 63.842 0.39 7.78 3.58 7.78
9/1/2023 2:45:00 AM 17.55 63.59 0.39 7.77 3.95 7.78
9/1/2023 3:00:00 AM 17.48 63.464 0.389 7.76 3.48 7.84
9/1/2023 3:15:00 AM 17.38 63.284 0.389 7.75 4.37 7.84
9/1/2023 3:30:00 AM 17.3 63.14 0.389 7.75 3.5 7.85
9/1/2023 3:45:00 AM 17.24 63.032 0.389 7.74 3.89 7.89
9/1/2023 4:00:00 AM 17.12 62.816 0.389 7.74 3.52 7.92
9/1/2023 4:15:00 AM 17.03 62.654 0.389 7.73 3.92 7.94
9/1/2023 4:30:00 AM 16.99 62.582 0.389 7.72 4.42 7.89
9/1/2023 4:45:00 AM 16.86 62.348 0.389 7.72 3.76 7.94
9/1/2023 5:00:00 AM 16.77 62.186 0.389 7.72 3.68 8
9/1/2023 5:15:00 AM 16.7 62.06 0.389 7.71 3.45 8.01
9/1/2023 5:30:00 AM 16.58 61.844 0.389 7.72 3.34 8.06
9/1/2023 5:45:00 AM 16.52 61.736 0.389 7.71 4.02 8.07
9/1/2023 6:00:00 AM 16.42 61.556 0.39 7.71 4.12 8.12
9/1/2023 6:15:00 AM 16.37 61.466 0.39 7.71 3.78 8.07
9/1/2023 6:30:00 AM 16.28 61.304 0.39 7.71 3.53 8.11
9/1/2023 6:45:00 AM 16.18 61.124 0.39 7.7 20.15 8.15
9/1/2023 7:00:00 AM 16.09 60.962 0.391 7.71 4.11 8.2
9/1/2023 7:15:00 AM 16.03 60.854 0.392 7.7 25.13 8.21
9/1/2023 7:30:00 AM 15.97 60.746 0.392 7.71 3.27 8.29
9/1/2023 7:45:00 AM 15.94 60.692 0.393 7.72 14.18 8.43
9/1/2023 8:00:00 AM 15.93 60.674 0.393 7.73 3.82 8.46
9/1/2023 8:15:00 AM 15.93 60.674 0.394 7.76 3.42 8.77
9/1/2023 8:30:00 AM 15.99 60.782 0.394 7.78 17.3 8.88
9/1/2023 8:45:00 AM 16 60.8 0.394 7.81 23.21 9.1
9/1/2023 9:00:00 AM 16.06 60.908 0.395 7.83 13.74 9.2
9/1/2023 9:15:00 AM 16.11 60.998 0.395 7.86 22.1 9.39
9/1/2023 9:30:00 AM 16.28 61.304 0.395 7.89 19.37 9.57
9/1/2023 9:45:00 AM 16.46 61.628 0.395 7.91 15.98 9.71
9/1/2023 10:00:00 AM 16.66 61.988 0.395 7.96 24.68 9.91
9/1/2023 10:15:00 AM 16.88 62.384 0.395 8.02 18.14 10.1
9/1/2023 10:30:00 AM 17.17 62.906 0.395 8.06 23.7 10.22
9/1/2023 10:45:00 AM 17.54 63.572 0.395 8.12 16.65 10.44
9/1/2023 11:00:00 AM 17.94 64.292 0.394 8.17 15.61 10.61
9/1/2023 11:15:00 AM 18.32 64.976 0.394 8.23 3.24 10.71
9/1/2023 11:30:00 AM 18.77 65.786 0.393 8.29 3.33 10.99
9/1/2023 11:45:00 AM 19.25 66.65 0.393 8.34 3.03 11.05
9/1/2023 12:00:00 PM 19.7 67.46 0.393 8.39 3.32 11.14
9/1/2023 12:15:00 PM 20.3 68.54 0.393 8.47 3.13 11.29
9/1/2023 12:30:00 PM 20.69 69.242 0.392 8.5 3.27 11.39
9/1/2023 12:45:00 PM 21.18 70.124 0.391 8.54 3.36 11.43
9/1/2023 1:00:00 PM 21.6 70.88 0.39 8.57 3.39 11.44
9/1/2023 1:15:00 PM 22.02 71.636 0.39 8.61 6.41 11.41
9/1/2023 1:30:00 PM 22.49 72.482 0.389 8.64 3.59 11.44
9/1/2023 1:45:00 PM 22.73 72.914 0.389 8.65 4.06 11.36
9/1/2023 2:00:00 PM 23.06 73.508 0.389 8.66 3.52 11.34
9/1/2023 2:15:00 PM 23.35 74.03 0.389 8.68 3.1 11.33
9/1/2023 2:30:00 PM 23.67 74.606 0.388 8.69 3.32 11.27
9/1/2023 2:45:00 PM 23.89 75.002 0.388 8.69 4.85 11.17
9/1/2023 3:00:00 PM 24.12 75.416 0.388 8.7 3.23 11.06
9/1/2023 3:15:00 PM 24.22 75.596 0.388 8.7 3.22 11.04
9/1/2023 3:30:00 PM 24.33 75.794 0.388 8.7 3.25 10.95
9/1/2023 3:45:00 PM 24.35 75.83 0.389 8.69 3.46 10.8
9/1/2023 4:00:00 PM 24.29 75.722 0.39 8.68 4.65 10.61
9/1/2023 4:15:00 PM 24.2 75.56 0.39 8.67 7.05 10.44
9/1/2023 4:30:00 PM 24.19 75.542 0.391 8.66 9.61 10.27
9/1/2023 4:45:00 PM 24.13 75.434 0.391 8.66 2.99 10.18
9/1/2023 5:00:00 PM 24.02 75.236 0.392 8.65 3.48 10.02
9/1/2023 5:15:00 PM 23.93 75.074 0.393 8.65 3.25 9.91
9/1/2023 5:30:00 PM 23.8 74.84 0.393 8.65 3.72 9.87
9/1/2023 5:45:00 PM 23.73 74.714 0.394 8.63 3.45 9.67
9/1/2023 6:00:00 PM 23.64 74.552 0.394 8.63 3.81 9.57
9/1/2023 6:15:00 PM 23.49 74.282 0.393 8.6 15.35 9.41
9/1/2023 6:30:00 PM 23.32 73.976 0.394 8.59 3.68 9.36
9/1/2023 6:45:00 PM 23.13 73.634 0.395 8.57 3.41 9.21
9/1/2023 7:00:00 PM 22.89 73.202 0.395 8.54 3.25 9.1
9/1/2023 7:15:00 PM 22.62 72.716 0.396 8.52 3.74 8.92
9/1/2023 7:30:00 PM 22.29 72.122 0.397 8.46 3.98 8.66
9/1/2023 7:45:00 PM 22 71.6 0.398 8.41 4.16 8.44
9/1/2023 8:00:00 PM 21.75 71.15 0.399 8.37 3.92 8.23
9/1/2023 8:15:00 PM 21.56 70.808 0.4 8.32 4.18 8.05
9/1/2023 8:30:00 PM 21.38 70.484 0.4 8.28 4.17 7.9
9/1/2023 8:45:00 PM 21.15 70.07 0.401 8.23 3.48 7.76
9/1/2023 9:00:00 PM 21.02 69.836 0.401 8.19 3.58 7.64
9/1/2023 9:15:00 PM 20.79 69.422 0.402 8.14 3.82 7.57
9/1/2023 9:30:00 PM 20.64 69.152 0.402 8.1 4.19 7.47
9/1/2023 9:45:00 PM 20.5 68.9 0.403 8.07 3.62 7.41
9/1/2023 10:00:00 PM 20.28 68.504 0.403 8.04 3.64 7.4
9/1/2023 10:15:00 PM 20.14 68.252 0.404 8.01 3.73 7.4
9/1/2023 10:30:00 PM 19.97 67.946 0.404 7.99 4.09 7.38
9/1/2023 10:45:00 PM 19.84 67.712 0.404 7.97 3.73 7.35
9/1/2023 11:00:00 PM 19.68 67.424 0.404 7.95 3.6 7.35
9/1/2023 11:15:00 PM 19.52 67.136 0.404 7.93 3.55 7.35
9/1/2023 11:30:00 PM 19.4 66.92 0.404 7.91 3.03 7.35
9/1/2023 11:45:00 PM 19.25 66.65 0.404 7.9 3.33 7.38
9/2/2023 12:00:00 AM 19.06 66.308 0.405 7.89 3.75 7.45
9/2/2023 12:15:00 AM 18.92 66.056 0.404 7.88 3.4 7.47
9/2/2023 12:30:00 AM 18.84 65.912 0.404 7.86 3.48 7.42
9/2/2023 12:45:00 AM 18.73 65.714 0.404 7.85 3.38 7.43
9/2/2023 1:00:00 AM 18.55 65.39 0.405 7.84 4.09 7.51
9/2/2023 1:15:00 AM 18.39 65.102 0.404 7.84 3.76 7.59
9/2/2023 1:30:00 AM 18.35 65.03 0.404 7.82 3.38 7.45
9/2/2023 1:45:00 AM 18.23 64.814 0.405 7.82 3.28 7.52
9/2/2023 2:00:00 AM 18.07 64.526 0.404 7.81 3.32 7.6
9/2/2023 2:15:00 AM 18.01 64.418 0.405 7.8 3.5 7.55
9/2/2023 2:30:00 AM 17.79 64.022 0.404 7.8 3.5 7.71
9/2/2023 2:45:00 AM 17.79 64.022 0.404 7.79 3.71 7.64
9/2/2023 3:00:00 AM 17.67 63.806 0.404 7.78 3.46 7.67
9/2/2023 3:15:00 AM 17.59 63.662 0.405 7.78 3.47 7.65
9/2/2023 3:30:00 AM 17.51 63.518 0.404 7.76 3.63 7.65
9/2/2023 3:45:00 AM 17.37 63.266 0.404 7.76 3.58 7.74
9/2/2023 4:00:00 AM 17.27 63.086 0.404 7.75 3.36 7.77
9/2/2023 4:15:00 AM 17.13 62.834 0.404 7.75 4.07 7.84
9/2/2023 4:30:00 AM 17.12 62.816 0.404 7.74 3.53 7.79
9/2/2023 4:45:00 AM 17.06 62.708 0.405 7.73 3.48 7.73
9/2/2023 5:00:00 AM 16.94 62.492 0.404 7.72 3.47 7.86
9/2/2023 5:15:00 AM 16.85 62.33 0.404 7.71 3.43 7.88
9/2/2023 5:30:00 AM 16.81 62.258 0.404 7.7 3.56 7.86
9/2/2023 5:45:00 AM 16.73 62.114 0.404 7.69 3.3 7.89
9/2/2023 6:00:00 AM 16.7 62.06 0.405 7.69 3.71 7.84
9/2/2023 6:15:00 AM 16.58 61.844 0.404 7.69 3.49 7.95
9/2/2023 6:30:00 AM 16.5 61.7 0.405 7.69 3.53 8
9/2/2023 6:45:00 AM 16.46 61.628 0.405 7.69 35.58 7.94
9/2/2023 7:00:00 AM 16.39 61.502 0.405 7.7 26.39 8.05
9/2/2023 7:15:00 AM 16.33 61.394 0.405 7.71 3.76 8.12
9/2/2023 7:30:00 AM 16.31 61.358 0.405 7.7 27.4 8.08
9/2/2023 7:45:00 AM 16.3 61.34 0.405 7.71 3.62 8.17
9/2/2023 8:00:00 AM 16.27 61.286 0.405 7.74 18.65 8.45
9/2/2023 8:15:00 AM 16.33 61.394 0.405 7.76 36.23 8.65
9/2/2023 8:30:00 AM 16.35 61.43 0.405 7.78 20.92 8.7
9/2/2023 8:45:00 AM 16.37 61.466 0.405 7.8 21.42 8.87
9/2/2023 9:00:00 AM 16.4 61.52 0.405 7.83 21.36 9.12
9/2/2023 9:15:00 AM 16.48 61.664 0.405 7.85 12.4 9.28
9/2/2023 9:30:00 AM 16.6 61.88 0.405 7.88 16.51 9.47
9/2/2023 9:45:00 AM 16.76 62.168 0.405 7.9 19.93 9.54
9/2/2023 10:00:00 AM 17.01 62.618 0.405 7.92 21.36 9.69
9/2/2023 10:15:00 AM 17.23 63.014 0.405 7.98 19.93 9.97
9/2/2023 10:30:00 AM 17.51 63.518 0.405 8.01 30.58 10.1
9/2/2023 10:45:00 AM 17.8 64.04 0.405 8.08 3.15 10.39
9/2/2023 11:00:00 AM 18.23 64.814 0.405 8.13 3.52 10.48
9/2/2023 11:15:00 AM 18.68 65.624 0.405 8.2 3.32 10.63
9/2/2023 11:30:00 AM 19.08 66.344 0.405 8.24 2.93 10.76
9/2/2023 11:45:00 AM 19.54 67.172 0.404 8.28 3.69 10.84
9/2/2023 12:00:00 PM 20.07 68.126 0.404 8.35 4.5 10.98
9/2/2023 12:15:00 PM 20.49 68.882 0.404 8.39 3.08 11.08
9/2/2023 12:30:00 PM 21.08 69.944 0.403 8.45 3.1 11.17
9/2/2023 12:45:00 PM 21.5 70.7 0.402 8.49 2.99 11.23
9/2/2023 1:00:00 PM 21.74 71.132 0.403 8.52 3.16 11.26
9/2/2023 1:15:00 PM 22.27 72.086 0.401 8.57 3.08 11.29
9/2/2023 1:30:00 PM 22.72 72.896 0.401 8.6 3.19 11.28
9/2/2023 1:45:00 PM 22.94 73.292 0.4 8.62 3.28 11.31
9/2/2023 2:00:00 PM 23.47 74.246 0.4 8.66 3.06 11.31
9/2/2023 2:15:00 PM 23.81 74.858 0.399 8.67 3.32 11.21
9/2/2023 2:30:00 PM 24 75.2 0.399 8.67 3.13 11.14
9/2/2023 2:45:00 PM 24.43 75.974 0.399 8.69 3.26 11.1
9/2/2023 3:00:00 PM 24.69 76.442 0.398 8.69 3.06 10.95
9/2/2023 3:15:00 PM 24.87 76.766 0.399 8.69 3.38 10.86
9/2/2023 3:30:00 PM 25.08 77.144 0.398 8.7 3.27 10.82
9/2/2023 3:45:00 PM 25.14 77.252 0.398 8.69 3.16 10.69
9/2/2023 4:00:00 PM 25.15 77.27 0.398 8.68 3.44 10.55
9/2/2023 4:15:00 PM 25.2 77.36 0.398 8.69 5.06 10.45
9/2/2023 4:30:00 PM 25.1 77.18 0.398 8.67 3.6 10.37
9/2/2023 4:45:00 PM 25.28 77.504 0.398 8.67 3.4 10.21
9/2/2023 5:00:00 PM 25.16 77.288 0.398 8.66 3.44 10.14
9/2/2023 5:15:00 PM 25.12 77.216 0.398 8.64 3.47 9.97
9/2/2023 5:30:00 PM 24.94 76.892 0.4 8.64 3.49 9.97
9/2/2023 5:45:00 PM 24.87 76.766 0.4 8.64 3.12 9.85
9/2/2023 6:00:00 PM 24.8 76.64 0.4 8.61 18.04 9.65
9/2/2023 6:15:00 PM 24.67 76.406 0.4 8.6 38.51 9.52
9/2/2023 6:30:00 PM 24.57 76.226 0.401 8.57 15.24 9.31
9/2/2023 6:45:00 PM 24.39 75.902 0.402 8.53 17.91 9.08
9/2/2023 7:00:00 PM 24.18 75.524 0.403 8.5 3.45 8.83
9/2/2023 7:15:00 PM 23.98 75.164 0.404 8.46 3.59 8.63
9/2/2023 7:30:00 PM 23.78 74.804 0.405 8.43 3.51 8.35
9/2/2023 7:45:00 PM 23.55 74.39 0.407 8.39 4.22 8.04
9/2/2023 8:00:00 PM 23.39 74.102 0.408 8.33 4.34 7.75
9/2/2023 8:15:00 PM 23.19 73.742 0.41 8.27 3.73 7.54
9/2/2023 8:30:00 PM 22.98 73.364 0.411 8.21 4.04 7.35
9/2/2023 8:45:00 PM 22.79 73.022 0.412 8.16 3.6 7.21
9/2/2023 9:00:00 PM 22.72 72.896 0.413 8.11 3.84 7.09
9/2/2023 9:15:00 PM 22.53 72.554 0.414 8.07 4.16 6.98
9/2/2023 9:30:00 PM 22.37 72.266 0.415 8.03 3.89 6.91
9/2/2023 9:45:00 PM 22.23 72.014 0.415 8 3.46 6.85
9/2/2023 10:00:00 PM 22.08 71.744 0.416 7.96 4.2 6.8
9/2/2023 10:15:00 PM 21.95 71.51 0.417 7.93 3.35 6.76
9/2/2023 10:30:00 PM 21.8 71.24 0.417 7.91 3.93 6.75
9/2/2023 10:45:00 PM 21.64 70.952 0.418 7.89 3.91 6.76
9/2/2023 11:00:00 PM 21.53 70.754 0.418 7.87 4.37 6.71
9/2/2023 11:15:00 PM 21.36 70.448 0.418 7.86 3.95 6.75
9/2/2023 11:30:00 PM 21.19 70.142 0.419 7.84 3.82 6.79
9/2/2023 11:45:00 PM 21.1 69.98 0.419 7.83 3.5 6.74
9/3/2023 12:00:00 AM 20.99 69.782 0.419 7.82 3.45 6.74
9/3/2023 12:15:00 AM 20.85 69.53 0.419 7.81 4.18 6.78
9/3/2023 12:30:00 AM 20.77 69.386 0.419 7.8 3.73 6.77
9/3/2023 12:45:00 AM 20.62 69.116 0.42 7.79 3.76 6.84
9/3/2023 1:00:00 AM 20.51 68.918 0.42 7.79 3.56 6.86
9/3/2023 1:15:00 AM 20.41 68.738 0.42 7.78 3.49 6.89
9/3/2023 1:30:00 AM 20.35 68.63 0.42 7.75 3.57 6.81
9/3/2023 1:45:00 AM 20.22 68.396 0.42 7.77 4.8 6.92
9/3/2023 2:00:00 AM 20.1 68.18 0.42 7.76 3.21 6.96
9/3/2023 2:15:00 AM 20.01 68.018 0.42 7.76 3.77 6.96
9/3/2023 2:30:00 AM 19.94 67.892 0.42 7.75 3.34 6.93
9/3/2023 2:45:00 AM 19.81 67.658 0.42 7.75 3.87 7.03
9/3/2023 3:00:00 AM 19.76 67.568 0.42 7.74 4.19 6.96
9/3/2023 3:15:00 AM 19.63 67.334 0.421 7.74 4.98 7.05
9/3/2023 3:30:00 AM 19.57 67.226 0.42 7.73 3.64 7.05
9/3/2023 3:45:00 AM 19.5 67.1 0.42 7.73 3.99 7.03
9/3/2023 4:00:00 AM 19.39 66.902 0.42 7.72 4.22 7.06
9/3/2023 4:15:00 AM 19.34 66.812 0.42 7.72 3.77 7.03
9/3/2023 4:30:00 AM 19.23 66.614 0.42 7.72 3.73 7.09
9/3/2023 4:45:00 AM 19.15 66.47 0.42 7.71 3.76 7.08
9/3/2023 5:00:00 AM 19.07 66.326 0.42 7.71 3.79 7.14
9/3/2023 5:15:00 AM 18.98 66.164 0.42 7.7 3.65 7.12
9/3/2023 5:30:00 AM 18.88 65.984 0.419 7.71 3.69 7.21
9/3/2023 5:45:00 AM 18.83 65.894 0.419 7.7 4.99 7.18
9/3/2023 6:00:00 AM 18.73 65.714 0.419 7.69 5.34 7.18
9/3/2023 6:15:00 AM 18.68 65.624 0.419 7.69 4.45 7.2
9/3/2023 6:30:00 AM 18.63 65.534 0.419 7.68 3.78 7.16
9/3/2023 6:45:00 AM 18.57 65.426 0.419 7.67 4.29 7.13
9/3/2023 7:00:00 AM 18.38 65.084 0.419 7.69 3.91 7.45
9/3/2023 7:15:00 AM 18.36 65.048 0.419 7.69 23.05 7.43
9/3/2023 7:30:00 AM 18.3 64.94 0.419 7.69 27.93 7.47
9/3/2023 7:45:00 AM 18.29 64.922 0.42 7.68 38.09 7.42
9/3/2023 8:00:00 AM 18.26 64.868 0.42 7.7 68.48 7.62
9/3/2023 8:15:00 AM 18.32 64.976 0.42 7.71 42.16 7.75
9/3/2023 8:30:00 AM 18.37 65.066 0.42 7.73 4.36 8
9/3/2023 8:45:00 AM 18.38 65.084 0.42 7.76 9.05 8.21
9/3/2023 9:00:00 AM 18.42 65.156 0.42 7.76 3.78 8.23
9/3/2023 9:15:00 AM 18.49 65.282 0.42 7.79 27.08 8.46
9/3/2023 9:30:00 AM 18.61 65.498 0.42 7.8 23.81 8.6
9/3/2023 9:45:00 AM 18.86 65.948 0.42 7.84 17.91 8.79
9/3/2023 10:00:00 AM 19.08 66.344 0.42 7.85 15.07 8.95
9/3/2023 10:15:00 AM 19.3 66.74 0.42 7.9 14.06 9.15
9/3/2023 10:30:00 AM 19.59 67.262 0.419 7.96 19.92 9.38
9/3/2023 10:45:00 AM 20.04 68.07201 0.418 8.02 18.16 9.63
9/3/2023 11:00:00 AM 20.33 68.594 0.418 8.1 3.12 9.89
9/3/2023 11:15:00 AM 20.76 69.368 0.418 8.13 14.36 9.99
9/3/2023 11:30:00 AM 21.19 70.142 0.418 8.19 6.53 10.2
9/3/2023 11:45:00 AM 21.68 71.024 0.417 8.24 3.34 10.32
9/3/2023 12:00:00 PM 22.23 72.014 0.416 8.29 5.51 10.47
9/3/2023 12:15:00 PM 22.6 72.68 0.416 8.32 3.07 10.56
9/3/2023 12:30:00 PM 23.12 73.616 0.416 8.39 3.22 10.66
9/3/2023 12:45:00 PM 23.62 74.516 0.415 8.44 3.54 10.8
9/3/2023 1:00:00 PM 24.14 75.452 0.413 8.48 3.38 10.86
9/3/2023 1:15:00 PM 24.62 76.316 0.412 8.52 12.81 10.85
9/3/2023 1:30:00 PM 24.96 76.92799 0.412 8.56 21.32 10.84
9/3/2023 1:45:00 PM 25.41 77.738 0.411 8.58 3.67 10.85
9/3/2023 2:00:00 PM 25.86 78.548 0.411 8.62 3.19 10.87
9/3/2023 2:15:00 PM 26.18 79.124 0.41 8.65 3.11 10.77
9/3/2023 2:30:00 PM 26.51 79.718 0.409 8.65 3.71 10.62
9/3/2023 2:45:00 PM 26.83 80.294 0.408 8.66 4.58 10.55
9/3/2023 3:00:00 PM 27.17 80.906 0.407 8.67 3.24 10.49
9/3/2023 3:15:00 PM 27.28 81.104 0.407 8.66 3.21 10.35
9/3/2023 3:30:00 PM 27.5 81.5 0.407 8.67 3.51 10.23
9/3/2023 3:45:00 PM 27.59 81.662 0.408 8.66 3.04 10.09
9/3/2023 4:00:00 PM 27.57 81.626 0.407 8.64 3.69 9.94
9/3/2023 4:15:00 PM 27.67 81.806 0.407 8.63 3.54 9.72
9/3/2023 4:30:00 PM 27.68 81.824 0.407 8.63 3.38 9.65
9/3/2023 4:45:00 PM 27.5 81.5 0.407 8.6 3.71 9.49
9/3/2023 5:00:00 PM 27.51 81.518 0.408 8.58 3.76 9.31
9/3/2023 5:15:00 PM 27.4 81.32 0.409 8.57 3.58 9.18
9/3/2023 5:30:00 PM 27.29 81.122 0.409 8.54 3.33 8.98
9/3/2023 5:45:00 PM 27.19 80.942 0.409 8.54 3.51 8.86
9/3/2023 6:00:00 PM 27.09 80.762 0.41 8.52 3.65 8.76
9/3/2023 6:15:00 PM 26.93 80.474 0.411 8.5 3.58 8.63
9/3/2023 6:30:00 PM 26.81 80.258 0.412 8.47 3.42 8.47
9/3/2023 6:45:00 PM 26.63 79.934 0.413 8.43 3.4 8.26
9/3/2023 7:00:00 PM 26.36 79.448 0.414 8.39 3.32 8.09
9/3/2023 7:15:00 PM 26.28 79.304 0.415 8.37 3.57 7.92
9/3/2023 7:30:00 PM 26.09 78.962 0.416 8.35 3.47 7.83
9/3/2023 7:45:00 PM 25.83 78.494 0.417 8.26 3.42 7.53
9/3/2023 8:00:00 PM 25.54 77.972 0.418 8.17 3.99 7.18
9/3/2023 8:15:00 PM 25.21 77.378 0.419 8.1 3.85 6.99
9/3/2023 8:30:00 PM 24.96 76.92799 0.421 8.06 4.09 6.84
9/3/2023 8:45:00 PM 24.69 76.442 0.423 8.05 4.14 6.78
9/3/2023 9:00:00 PM 24.46 76.028 0.424 8.02 3.93 6.68
9/3/2023 9:15:00 PM 24.24 75.632 0.425 7.98 4.2 6.58
9/3/2023 9:30:00 PM 24.03 75.254 0.426 7.95 4.62 6.5
9/3/2023 9:45:00 PM 23.8 74.84 0.427 7.91 4.58 6.44
9/3/2023 10:00:00 PM 23.64 74.552 0.428 7.89 4.38 6.39
9/3/2023 10:15:00 PM 23.49 74.282 0.428 7.86 4.47 6.31
9/3/2023 10:30:00 PM 23.34 74.012 0.429 7.84 3.93 6.31
9/3/2023 10:45:00 PM 23.24 73.832 0.429 7.82 4.63 6.22
9/3/2023 11:00:00 PM 23.06 73.508 0.429 7.8 3.68 6.25
9/3/2023 11:15:00 PM 22.91 73.238 0.43 7.79 4.06 6.29
9/3/2023 11:30:00 PM 22.79 73.022 0.43 7.77 4.73 6.24
9/3/2023 11:45:00 PM 22.67 72.806 0.431 7.77 3.91 6.27
9/4/2023 12:00:00 AM 22.59 72.662 0.431 7.76 5.9 6.25
9/4/2023 12:15:00 AM 22.5 72.5 0.431 7.75 3.81 6.22
9/4/2023 12:30:00 AM 22.39 72.302 0.431 7.74 4.21 6.25
9/4/2023 12:45:00 AM 22.3 72.14 0.431 7.73 4.33 6.22
9/4/2023 1:00:00 AM 22.2 71.96 0.432 7.73 3.78 6.28
9/4/2023 1:15:00 AM 22.12 71.816 0.432 7.72 3.84 6.28
9/4/2023 1:30:00 AM 22 71.6 0.432 7.72 6.3 6.35
9/4/2023 1:45:00 AM 21.94 71.492 0.432 7.71 3.79 6.3
9/4/2023 2:00:00 AM 21.84 71.312 0.432 7.71 4.4 6.37
9/4/2023 2:15:00 AM 21.78 71.204 0.432 7.71 4.26 6.36
9/4/2023 2:30:00 AM 21.71 71.078 0.432 7.7 3.7 6.34
9/4/2023 2:45:00 AM 21.63 70.934 0.433 7.7 3.81 6.39
9/4/2023 3:00:00 AM 21.56 70.808 0.433 7.7 3.79 6.4
9/4/2023 3:15:00 AM 21.51 70.718 0.433 7.69 3.83 6.4
9/4/2023 3:30:00 AM 21.45 70.61 0.433 7.69 4.13 6.42
9/4/2023 3:45:00 AM 21.39 70.502 0.433 7.69 4.84 6.39
9/4/2023 4:00:00 AM 21.29 70.32201 0.433 7.69 4.02 6.52
9/4/2023 4:15:00 AM 21.22 70.196 0.432 7.69 4.44 6.57
9/4/2023 4:30:00 AM 21.2 70.16 0.433 7.68 4.14 6.47
9/4/2023 4:45:00 AM 21.15 70.07 0.433 7.68 3.47 6.51
9/4/2023 5:00:00 AM 21.08 69.944 0.433 7.68 4.36 6.54
9/4/2023 5:15:00 AM 21.06 69.908 0.433 7.67 3.37 6.45
9/4/2023 5:30:00 AM 20.95 69.71 0.433 7.68 3.78 6.63
9/4/2023 5:45:00 AM 20.92 69.656 0.432 7.67 5.25 6.55
9/4/2023 6:00:00 AM 20.83 69.494 0.432 7.68 4.48 6.72
9/4/2023 6:15:00 AM 20.8 69.44 0.432 7.67 4.17 6.67
9/4/2023 6:30:00 AM 20.77 69.386 0.432 7.67 3.68 6.61
9/4/2023 6:45:00 AM 20.75 69.35 0.432 7.67 3.57 6.56
9/4/2023 7:00:00 AM 20.71 69.278 0.432 7.66 35.81 6.55
9/4/2023 7:15:00 AM 20.65 69.17 0.432 7.65 29.5 6.67
9/4/2023 7:30:00 AM 20.61 69.098 0.432 7.67 39.93 6.81
9/4/2023 7:45:00 AM 20.64 69.152 0.432 7.66 23.6 6.7
9/4/2023 8:00:00 AM 20.65 69.17 0.432 7.68 27.27 6.88
9/4/2023 8:15:00 AM 20.7 69.26 0.432 7.69 27.28 7.05
9/4/2023 8:30:00 AM 20.78 69.404 0.432 7.7 25.97 7.12
9/4/2023 8:45:00 AM 20.83 69.494 0.431 7.72 14.03 7.41
9/4/2023 9:00:00 AM 20.89 69.602 0.431 7.74 6.7 7.5
9/4/2023 9:15:00 AM 21.02 69.836 0.431 7.78 10.24 7.88
9/4/2023 9:30:00 AM 21.23 70.214 0.43 7.84 3.93 8.31
9/4/2023 9:45:00 AM 21.4 70.52 0.43 7.87 3.54 8.53
9/4/2023 10:00:00 AM 21.64 70.952 0.43 7.91 10.1 8.78
9/4/2023 10:15:00 AM 21.86 71.348 0.429 7.98 3.51 9.12
9/4/2023 10:30:00 AM 22.04 71.672 0.429 8.01 3.02 9.25
9/4/2023 10:45:00 AM 22.32 72.176 0.428 8.08 3.45 9.54
9/4/2023 11:00:00 AM 22.68 72.824 0.428 8.13 15.35 9.75
9/4/2023 11:15:00 AM 22.69 72.842 0.427 8.12 22.87 9.76
9/4/2023 11:30:00 AM 23.21 73.778 0.426 8.18 18.24 9.95
9/4/2023 11:45:00 AM 23.66 74.588 0.426 8.23 13.94 10.04
9/4/2023 12:00:00 PM 24.05 75.29 0.425 8.27 17.75 10.14
9/4/2023 12:15:00 PM 24.42 75.956 0.424 8.32 4.35 10.29
9/4/2023 12:30:00 PM 24.82 76.676 0.424 8.36 19.38 10.27
9/4/2023 12:45:00 PM 25.34 77.612 0.423 8.43 3.22 10.56
9/4/2023 1:00:00 PM 25.92 78.656 0.422 8.48 3.53 10.7
9/4/2023 1:15:00 PM 26.38 79.484 0.421 8.5 7.89 10.67
9/4/2023 1:30:00 PM 26.78 80.204 0.42 8.54 3.14 10.68
9/4/2023 1:45:00 PM 27.19 80.942 0.419 8.57 3.3 10.66
9/4/2023 2:00:00 PM 27.61 81.698 0.418 8.6 3.4 10.64
9/4/2023 2:15:00 PM 28 82.4 0.417 8.61 3.23 10.58
9/4/2023 2:30:00 PM 28.33 82.994 0.417 8.63 4.16 10.5
9/4/2023 2:45:00 PM 28.66 83.588 0.416 8.64 3.21 10.4
9/4/2023 3:00:00 PM 28.97 84.146 0.416 8.64 4.54 10.3
9/4/2023 3:15:00 PM 29.19 84.542 0.415 8.62 4.57 10.09
9/4/2023 3:30:00 PM 29.34 84.812 0.415 8.64 3.08 9.96
9/4/2023 3:45:00 PM 29.46 85.028 0.415 8.63 3.13 9.81
9/4/2023 4:00:00 PM 29.51 85.118 0.415 8.62 3.2 9.62
9/4/2023 4:15:00 PM 29.54 85.172 0.415 8.6 3.2 9.36
9/4/2023 4:30:00 PM 29.55 85.18999 0.415 8.59 3.48 9.22
9/4/2023 4:45:00 PM 29.48 85.064 0.416 8.58 4.74 9.07
9/4/2023 5:00:00 PM 29.35 84.83 0.416 8.56 3.43 8.89
9/4/2023 5:15:00 PM 29.31 84.758 0.415 8.52 4.92 8.53
9/4/2023 5:30:00 PM 29.24 84.632 0.416 8.51 6.52 8.51
9/4/2023 5:45:00 PM 29.15 84.47 0.417 8.5 5.01 8.43
9/4/2023 6:00:00 PM 29.07 84.326 0.417 8.49 3.88 8.36
9/4/2023 6:15:00 PM 28.95 84.11 0.418 8.46 7.92 8.21
9/4/2023 6:30:00 PM 28.82 83.876 0.418 8.47 4.15 8.21
9/4/2023 6:45:00 PM 28.61 83.498 0.419 8.42 3.41 8.01
9/4/2023 7:00:00 PM 28.39 83.102 0.42 8.37 3.21 7.78
9/4/2023 7:15:00 PM 28.27 82.886 0.421 8.35 3.97 7.63
9/4/2023 7:30:00 PM 27.93 82.274 0.422 8.29 3.38 7.47
9/4/2023 7:45:00 PM 27.83 82.094 0.423 8.25 3.77 7.23
9/4/2023 8:00:00 PM 27.59 81.662 0.424 8.18 3.6 6.99
9/4/2023 8:15:00 PM 27.3 81.14 0.426 8.12 4.31 6.75
9/4/2023 8:30:00 PM 27.01 80.618 0.428 8.05 3.6 6.47
9/4/2023 8:45:00 PM 26.79 80.222 0.429 7.97 3.27 6.2
9/4/2023 9:00:00 PM 26.53 79.754 0.431 7.9 3.67 5.93
9/4/2023 9:15:00 PM 26.22 79.196 0.433 7.86 3.35 5.84
9/4/2023 9:30:00 PM 25.98 78.764 0.435 7.89 3.97 6.03
9/4/2023 9:45:00 PM 25.69 78.242 0.436 7.88 4.04 5.99
9/4/2023 10:00:00 PM 25.47 77.846 0.437 7.85 3.88 5.95
9/4/2023 10:15:00 PM 25.27 77.486 0.438 7.83 3.85 5.89
9/4/2023 10:30:00 PM 25.08 77.144 0.439 7.81 4.92 5.86
9/4/2023 10:45:00 PM 24.81 76.658 0.439 7.79 3.76 5.87
9/4/2023 11:00:00 PM 24.66 76.388 0.44 7.77 3.99 5.84
9/4/2023 11:15:00 PM 24.48 76.064 0.441 7.76 4.07 5.83
9/4/2023 11:30:00 PM 24.32 75.776 0.441 7.75 3.77 5.83
9/4/2023 11:45:00 PM 24.18 75.524 0.441 7.73 4.24 5.83
9/5/2023 12:00:00 AM 24.02 75.236 0.441 7.73 4.85 5.85
9/5/2023 12:15:00 AM 23.87 74.966 0.442 7.72 4.91 5.86
9/5/2023 12:30:00 AM 23.75 74.75 0.442 7.71 4.69 5.85
9/5/2023 12:45:00 AM 23.62 74.516 0.442 7.71 3.99 5.9
9/5/2023 1:00:00 AM 23.5 74.3 0.442 7.7 4.15 5.91
9/5/2023 1:15:00 AM 23.42 74.156 0.442 7.69 4.39 5.87
9/5/2023 1:30:00 AM 23.28 73.904 0.443 7.69 4.38 5.9
9/5/2023 1:45:00 AM 23.17 73.706 0.443 7.68 4.03 5.94
9/5/2023 2:00:00 AM 23.1 73.58 0.443 7.67 4.65 5.9
9/5/2023 2:15:00 AM 22.96 73.328 0.443 7.68 3.87 5.99
9/5/2023 2:30:00 AM 22.86 73.148 0.443 7.67 4.02 5.98
9/5/2023 2:45:00 AM 22.74 72.932 0.443 7.67 4.2 6.04
9/5/2023 3:00:00 AM 22.63 72.734 0.443 7.67 4.18 6.05
9/5/2023 3:15:00 AM 22.55 72.59 0.443 7.66 3.95 6.04
9/5/2023 3:30:00 AM 22.47 72.446 0.444 7.65 3.54 6.06
9/5/2023 3:45:00 AM 22.36 72.248 0.444 7.65 3.97 6.09
9/5/2023 4:00:00 AM 22.27 72.086 0.444 7.64 4.07 6.1
9/5/2023 4:15:00 AM 22.14 71.852 0.444 7.64 3.88 6.17
9/5/2023 4:30:00 AM 22.09 71.762 0.444 7.63 3.72 6.14
9/5/2023 4:45:00 AM 22 71.6 0.444 7.62 4.03 6.14
9/5/2023 5:00:00 AM 21.9 71.42 0.444 7.62 3.9 6.2
9/5/2023 5:15:00 AM 21.81 71.258 0.444 7.61 3.68 6.25
9/5/2023 5:30:00 AM 21.72 71.096 0.444 7.61 4.2 6.27
9/5/2023 5:45:00 AM 21.65 70.97 0.444 7.61 3.68 6.27
9/5/2023 6:00:00 AM 21.55 70.79 0.444 7.61 3.98 6.33
9/5/2023 6:15:00 AM 21.46 70.628 0.444 7.61 4.44 6.34
9/5/2023 6:30:00 AM 21.41 70.538 0.444 7.6 4.42 6.33
9/5/2023 6:45:00 AM 21.31 70.358 0.444 7.61 3.96 6.38
9/5/2023 7:00:00 AM 21.25 70.25 0.444 7.6 4.24 6.41
9/5/2023 7:15:00 AM 21.17 70.106 0.443 7.6 23.12 6.44
9/5/2023 7:30:00 AM 21.09 69.962 0.443 7.61 17.19 6.59
9/5/2023 7:45:00 AM 21.07 69.926 0.443 7.61 37.8 6.58
9/5/2023 8:00:00 AM 21.02 69.836 0.443 7.62 25.5 6.63
9/5/2023 8:15:00 AM 21.02 69.836 0.443 7.64 20.4 6.82
9/5/2023 8:30:00 AM 21.04 69.872 0.443 7.66 4.26 7.05
9/5/2023 8:45:00 AM 21.09 69.962 0.442 7.67 4.49 7.18
9/5/2023 9:00:00 AM 21.14 70.052 0.442 7.7 47.48 7.44
9/5/2023 9:15:00 AM 21.2 70.16 0.442 7.74 14.86 7.76
9/5/2023 9:30:00 AM 21.31 70.358 0.441 7.76 16.2 7.88
9/5/2023 9:45:00 AM 21.58 70.844 0.441 7.79 4.52 8.15
9/5/2023 10:00:00 AM 21.77 71.186 0.441 7.8 3.98 8.22
9/5/2023 10:15:00 AM 21.96 71.528 0.441 7.81 17.82 8.24
9/5/2023 10:30:00 AM 22.17 71.906 0.44 7.85 19.29 8.57
9/5/2023 10:45:00 AM 22.48 72.464 0.44 7.93 20.6 8.86
9/5/2023 11:00:00 AM 22.88 73.184 0.439 8.01 13.88 9.29
9/5/2023 11:15:00 AM 23.3 73.94 0.438 8.07 16.91 9.5
9/5/2023 11:30:00 AM 23.72 74.696 0.437 8.1 29.1 9.62
9/5/2023 11:45:00 AM 24.04 75.272 0.437 8.13 14.05 9.69
9/5/2023 12:00:00 PM 24.52 76.136 0.437 8.19 26.06 9.86
9/5/2023 12:15:00 PM 24.88 76.784 0.436 8.24 3.31 9.96
9/5/2023 12:30:00 PM 25.29 77.522 0.436 8.28 3.55 10.07
9/5/2023 12:45:00 PM 25.55 77.99 0.436 8.31 3.09 10.16
9/5/2023 1:00:00 PM 25.89 78.602 0.435 8.37 3.02 10.25
9/5/2023 1:15:00 PM 26.25 79.25 0.433 8.42 3.19 10.4
9/5/2023 1:30:00 PM 26.51 79.718 0.432 8.45 7.88 10.37
9/5/2023 1:45:00 PM 26.96 80.528 0.43 8.5 12.54 10.45
9/5/2023 2:00:00 PM 27.39 81.302 0.428 8.53 3.93 10.51
9/5/2023 2:15:00 PM 27.73 81.914 0.428 8.56 3.43 10.53
9/5/2023 2:30:00 PM 28.19 82.742 0.427 8.58 3.34 10.55
9/5/2023 2:45:00 PM 28.5 83.3 0.426 8.59 3.36 10.44
9/5/2023 3:00:00 PM 28.65 83.57 0.425 8.59 3.17 10.31
9/5/2023 3:15:00 PM 28.73 83.714 0.425 8.56 5.6 9.98
9/5/2023 3:30:00 PM 28.99 84.182 0.424 8.58 6.98 10.01
9/5/2023 3:45:00 PM 29.14 84.452 0.424 8.6 4.12 10
9/5/2023 4:00:00 PM 29.29 84.722 0.423 8.61 4.39 9.98
9/5/2023 4:15:00 PM 29.39 84.902 0.422 8.61 3.05 9.87
9/5/2023 4:30:00 PM 29.45 85.01 0.422 8.59 7.9 9.59
9/5/2023 4:45:00 PM 29.46 85.028 0.422 8.58 6.46 9.46
9/5/2023 5:00:00 PM 29.47 85.046 0.422 8.57 6.15 9.27
9/5/2023 5:15:00 PM 29.47 85.046 0.422 8.55 3.46 8.99
9/5/2023 5:30:00 PM 29.49 85.082 0.422 8.53 4.99 8.89
9/5/2023 5:45:00 PM 29.46 85.028 0.422 8.53 3.42 8.89
9/5/2023 6:00:00 PM 29.45 85.01 0.422 8.53 7.97 8.75
9/5/2023 6:15:00 PM 29.44 84.992 0.422 8.53 4.17 8.68
9/5/2023 6:30:00 PM 29.4 84.92 0.423 8.49 17.83 8.37
9/5/2023 6:45:00 PM 29.33 84.794 0.423 8.47 3.31 8.34
9/5/2023 7:00:00 PM 29.24 84.632 0.424 8.44 3.48 8.1
9/5/2023 7:15:00 PM 29.09 84.362 0.425 8.4 3.38 7.95
9/5/2023 7:30:00 PM 28.95 84.11 0.427 8.37 3.6 7.73
9/5/2023 7:45:00 PM 28.77 83.786 0.428 8.33 3.5 7.53
9/5/2023 8:00:00 PM 28.59 83.462 0.428 8.28 3.39 7.27
9/5/2023 8:15:00 PM 28.38 83.084 0.429 8.23 3.75 7.15
9/5/2023 8:30:00 PM 28.1 82.58 0.431 8.15 3.5 6.83
9/5/2023 8:45:00 PM 27.86 82.148 0.432 8.09 3.85 6.52
9/5/2023 9:00:00 PM 27.61 81.698 0.433 8 3.9 6.27
9/5/2023 9:15:00 PM 27.43 81.374 0.435 7.96 3.71 6.13
9/5/2023 9:30:00 PM 27.19 80.942 0.436 7.88 3.49 5.82
9/5/2023 9:45:00 PM 27.01 80.618 0.436 7.85 4.17 5.64
9/5/2023 10:00:00 PM 26.79 80.222 0.438 7.84 3.55 5.65
9/5/2023 10:15:00 PM 26.55 79.79 0.438 7.77 5.16 5.35
9/5/2023 10:30:00 PM 26.38 79.484 0.438 7.73 4.17 5.19
9/5/2023 10:45:00 PM 26.18 79.124 0.439 7.72 4.08 5.24
9/5/2023 11:00:00 PM 25.98 78.764 0.441 7.73 3.94 5.37
9/5/2023 11:15:00 PM 25.79 78.422 0.445 7.74 4.93 5.42
9/5/2023 11:30:00 PM 25.57 78.026 0.447 7.73 4.72 5.52
9/5/2023 11:45:00 PM 25.41 77.738 0.448 7.72 4 5.51
9/6/2023 12:00:00 AM 25.22 77.396 0.449 7.72 4.02 5.54
9/6/2023 12:15:00 AM 25.08 77.144 0.449 7.71 3.81 5.52
9/6/2023 12:30:00 AM 24.91 76.838 0.449 7.7 3.91 5.56
9/6/2023 12:45:00 AM 24.75 76.55 0.45 7.69 3.61 5.57
9/6/2023 1:00:00 AM 24.6 76.28 0.45 7.69 3.74 5.59
9/6/2023 1:15:00 AM 24.45 76.01 0.451 7.68 3.61 5.6
9/6/2023 1:30:00 AM 24.3 75.74 0.451 7.68 4.12 5.62
9/6/2023 1:45:00 AM 24.16 75.488 0.451 7.68 3.82 5.65
9/6/2023 2:00:00 AM 24.03 75.254 0.452 7.67 4.02 5.67
9/6/2023 2:15:00 AM 23.91 75.038 0.452 7.66 4.03 5.66
9/6/2023 2:30:00 AM 23.76 74.768 0.452 7.67 3.96 5.71
9/6/2023 2:45:00 AM 23.66 74.588 0.452 7.66 3.77 5.7
9/6/2023 3:00:00 AM 23.53 74.354 0.452 7.66 4.36 5.73
9/6/2023 3:15:00 AM 23.39 74.102 0.453 7.66 4.02 5.76
9/6/2023 3:30:00 AM 23.29 73.922 0.453 7.66 4.08 5.77
9/6/2023 3:45:00 AM 23.16 73.688 0.453 7.66 3.48 5.83
9/6/2023 4:00:00 AM 23.04 73.472 0.453 7.65 4.03 5.85
9/6/2023 4:15:00 AM 22.93 73.274 0.453 7.65 4.38 5.86
9/6/2023 4:30:00 AM 22.81 73.058 0.453 7.65 4.25 5.91
9/6/2023 4:45:00 AM 22.69 72.842 0.454 7.65 3.64 5.93
9/6/2023 5:00:00 AM 22.58 72.644 0.454 7.65 3.6 5.94
9/6/2023 5:15:00 AM 22.47 72.446 0.454 7.64 3.58 5.97
9/6/2023 5:30:00 AM 22.37 72.266 0.454 7.65 3.73 6
9/6/2023 5:45:00 AM 22.29 72.122 0.454 7.64 3.68 6.03
9/6/2023 6:00:00 AM 22.17 71.906 0.454 7.64 3.72 6.06
9/6/2023 6:15:00 AM 22.12 71.816 0.454 7.63 4.9 6
9/6/2023 6:30:00 AM 21.96 71.528 0.454 7.63 4.15 6.12
9/6/2023 6:45:00 AM 21.9 71.42 0.454 7.63 4.39 6.12
9/6/2023 7:00:00 AM 21.81 71.258 0.454 7.61 4.3 5.99
9/6/2023 7:15:00 AM 21.75 71.15 0.454 7.62 21.36 6.1
9/6/2023 7:30:00 AM 21.69 71.042 0.455 7.62 4.17 6.19
9/6/2023 7:45:00 AM 21.61 70.898 0.455 7.64 4.25 6.36
9/6/2023 8:00:00 AM 21.58 70.844 0.454 7.65 3.97 6.46
9/6/2023 8:15:00 AM 21.6 70.88 0.454 7.65 4.25 6.6
9/6/2023 8:30:00 AM 21.59 70.862 0.454 7.66 7.11 6.78
9/6/2023 8:45:00 AM 21.62 70.916 0.454 7.69 3.93 6.95
9/6/2023 9:00:00 AM 21.64 70.952 0.454 7.71 4.01 7.24
9/6/2023 9:15:00 AM 21.68 71.024 0.453 7.72 9.3 7.43
9/6/2023 9:30:00 AM 21.74 71.132 0.453 7.74 7.9 7.55
9/6/2023 9:45:00 AM 21.9 71.42 0.453 7.77 9.42 7.77
9/6/2023 10:00:00 AM 22.1 71.78 0.452 7.8 3.63 8.08
9/6/2023 10:15:00 AM 22.31 72.158 0.452 7.85 13.63 8.39
9/6/2023 10:30:00 AM 22.5 72.5 0.451 7.89 3.63 8.73
9/6/2023 10:45:00 AM 22.76 72.968 0.451 7.95 3.33 8.96
9/6/2023 11:00:00 AM 23.13 73.634 0.45 8.02 3.16 9.29
9/6/2023 11:15:00 AM 23.53 74.354 0.45 8.06 10 9.43
9/6/2023 11:30:00 AM 23.93 75.074 0.449 8.11 3.57 9.69
9/6/2023 11:45:00 AM 24.22 75.596 0.449 8.13 8.33 9.7
9/6/2023 12:00:00 PM 24.32 75.776 0.449 8.14 3.4 9.76
9/6/2023 12:15:00 PM 24.61 76.298 0.448 8.16 3.28 9.71
9/6/2023 12:30:00 PM 25.46 77.828 0.445 8.27 3.25 10.14
9/6/2023 12:45:00 PM 25.73 78.314 0.445 8.31 3.14 10.33
9/6/2023 1:00:00 PM 26.37 79.466 0.443 8.37 3.16 10.61
9/6/2023 1:15:00 PM 26.88 80.384 0.442 8.43 3.2 10.68
9/6/2023 1:30:00 PM 27.12 80.816 0.44 8.46 3.06 10.6
9/6/2023 1:45:00 PM 27.44 81.392 0.439 8.5 3.17 10.62
9/6/2023 2:00:00 PM 27.9 82.22 0.438 8.52 3.57 10.58
9/6/2023 2:15:00 PM 28.19 82.742 0.437 8.53 3.21 10.47
9/6/2023 2:30:00 PM 28.55 83.39 0.436 8.55 3.41 10.48
9/6/2023 2:45:00 PM 28.89 84.002 0.435 8.57 3.14 10.43
9/6/2023 3:00:00 PM 29.15 84.47 0.434 8.58 3.03 10.23
9/6/2023 3:15:00 PM 29.34 84.812 0.433 8.59 3.33 10.2
9/6/2023 3:30:00 PM 29.53 85.15401 0.433 8.59 3.38 10.02
9/6/2023 3:45:00 PM 29.65 85.37 0.432 8.59 3.16 9.81
9/6/2023 4:00:00 PM 29.7 85.46001 0.431 8.58 13.46 9.62
9/6/2023 4:15:00 PM 29.77 85.586 0.43 8.58 4.28 9.49
9/6/2023 4:30:00 PM 29.78 85.604 0.43 8.58 3.12 9.39
9/6/2023 4:45:00 PM 29.8 85.64 0.43 8.56 4.76 9.19
9/6/2023 5:00:00 PM 29.8 85.64 0.43 8.56 3.14 9.15
9/6/2023 5:15:00 PM 29.78 85.604 0.429 8.57 3.3 9.08
9/6/2023 5:30:00 PM 29.75 85.55 0.429 8.55 3.14 8.92
9/6/2023 5:45:00 PM 29.71 85.478 0.429 8.54 3.53 8.77
9/6/2023 6:00:00 PM 29.66 85.388 0.429 8.52 3.18 8.56
9/6/2023 6:15:00 PM 29.59 85.262 0.429 8.51 3.19 8.43
9/6/2023 6:30:00 PM 29.48 85.064 0.429 8.49 3.3 8.23
9/6/2023 6:45:00 PM 29.37 84.866 0.43 8.46 3.62 8.06
9/6/2023 7:00:00 PM 29.2 84.56001 0.431 8.42 3.58 7.86
9/6/2023 7:15:00 PM 29.04 84.272 0.432 8.39 3.74 7.69
9/6/2023 7:30:00 PM 28.86 83.948 0.433 8.35 3.89 7.51
9/6/2023 7:45:00 PM 28.65 83.57 0.434 8.26 3.68 7.21
9/6/2023 8:00:00 PM 28.44 83.192 0.435 8.22 3.29 7
9/6/2023 8:15:00 PM 28.22 82.796 0.436 8.14 3.6 6.71
9/6/2023 8:30:00 PM 28.01 82.418 0.437 8.1 3.58 6.45
9/6/2023 8:45:00 PM 27.74 81.932 0.439 8.01 3.34 6.27
9/6/2023 9:00:00 PM 27.52 81.536 0.44 7.98 3.44 6.09
9/6/2023 9:15:00 PM 27.29 81.122 0.441 7.89 3.4 5.81
9/6/2023 9:30:00 PM 27.11 80.798 0.442 7.84 3.55 5.55
9/6/2023 9:45:00 PM 26.9 80.42 0.444 7.82 3.3 5.52
9/6/2023 10:00:00 PM 26.61 79.898 0.446 7.8 3.75 5.5
9/6/2023 10:15:00 PM 26.41 79.538 0.448 7.8 3.75 5.47
9/6/2023 10:30:00 PM 26.2 79.16 0.45 7.8 3.66 5.52
9/6/2023 10:45:00 PM 25.99 78.782 0.451 7.78 3.66 5.5
9/6/2023 11:00:00 PM 25.8 78.44 0.452 7.76 3.62 5.5
9/6/2023 11:15:00 PM 25.59 78.062 0.453 7.75 3.9 5.52
9/6/2023 11:30:00 PM 25.41 77.738 0.453 7.74 3.72 5.48
9/6/2023 11:45:00 PM 25.25 77.45 0.454 7.72 3.88 5.43
9/7/2023 12:00:00 AM 25.06 77.108 0.455 7.72 4.11 5.5
9/7/2023 12:15:00 AM 24.92 76.856 0.455 7.71 3.94 5.51
9/7/2023 12:30:00 AM 24.75 76.55 0.455 7.7 3.42 5.51
9/7/2023 12:45:00 AM 24.62 76.316 0.456 7.69 4.1 5.52
9/7/2023 1:00:00 AM 24.49 76.082 0.456 7.68 3.72 5.52
9/7/2023 1:15:00 AM 24.36 75.848 0.457 7.68 4.56 5.51
9/7/2023 1:30:00 AM 24.22 75.596 0.457 7.68 3.93 5.57
9/7/2023 1:45:00 AM 24.11 75.398 0.457 7.67 3.65 5.56
9/7/2023 2:00:00 AM 23.97 75.146 0.458 7.67 3.7 5.59
9/7/2023 2:15:00 AM 23.86 74.948 0.458 7.66 3.91 5.58
9/7/2023 2:30:00 AM 23.74 74.732 0.458 7.66 4.5 5.62
9/7/2023 2:45:00 AM 23.62 74.516 0.458 7.65 4.06 5.62
9/7/2023 3:00:00 AM 23.52 74.336 0.459 7.66 3.79 5.62
9/7/2023 3:15:00 AM 23.42 74.156 0.459 7.64 4.3 5.61
9/7/2023 3:30:00 AM 23.28 73.904 0.459 7.65 3.65 5.72
9/7/2023 3:45:00 AM 23.17 73.706 0.459 7.64 4.73 5.72
9/7/2023 4:00:00 AM 23.08 73.544 0.459 7.64 3.7 5.74
9/7/2023 4:15:00 AM 22.97 73.346 0.46 7.64 3.6 5.76
9/7/2023 4:30:00 AM 22.87 73.166 0.46 7.63 3.86 5.76
9/7/2023 4:45:00 AM 22.77 72.986 0.46 7.64 4.45 5.81
9/7/2023 5:00:00 AM 22.69 72.842 0.46 7.63 3.51 5.82
9/7/2023 5:15:00 AM 22.61 72.698 0.46 7.62 3.36 5.82
9/7/2023 5:30:00 AM 22.53 72.554 0.46 7.61 6.82 5.79
9/7/2023 5:45:00 AM 22.42 72.356 0.46 7.62 3.4 5.89
9/7/2023 6:00:00 AM 22.34 72.212 0.46 7.61 4.71 5.84
9/7/2023 6:15:00 AM 22.26 72.068 0.46 7.61 5.17 5.86
9/7/2023 6:30:00 AM 22.19 71.942 0.46 7.6 4.54 5.82
9/7/2023 6:45:00 AM 22.12 71.816 0.46 7.61 5.3 5.87
9/7/2023 7:00:00 AM 22.03 71.654 0.461 7.61 3.88 5.96
9/7/2023 7:15:00 AM 21.97 71.546 0.461 7.6 4.55 6.01
9/7/2023 7:30:00 AM 21.91 71.438 0.461 7.61 4.47 6.07
9/7/2023 7:45:00 AM 21.87 71.366 0.461 7.62 3.74 6.14
9/7/2023 8:00:00 AM 21.85 71.33 0.46 7.62 3.92 6.2
9/7/2023 8:15:00 AM 21.84 71.312 0.46 7.64 5.75 6.38
9/7/2023 8:30:00 AM 21.88 71.384 0.46 7.64 6.24 6.46
9/7/2023 8:45:00 AM 21.91 71.438 0.46 7.63 4.56 6.26
9/7/2023 9:00:00 AM 21.93 71.474 0.46 7.65 4.17 6.63
9/7/2023 9:15:00 AM 21.96 71.528 0.46 7.69 4.06 6.94
9/7/2023 9:30:00 AM 22.06 71.708 0.459 7.7 5.26 7.3
9/7/2023 9:45:00 AM 22.19 71.942 0.458 7.72 13.23 7.52
9/7/2023 10:00:00 AM 22.29 72.122 0.458 7.74 15.58 7.67
9/7/2023 10:15:00 AM 22.5 72.5 0.457 7.82 13.44 8.31
9/7/2023 10:30:00 AM 22.72 72.896 0.457 7.81 16.85 7.93
9/7/2023 10:45:00 AM 22.87 73.166 0.456 7.86 15.04 8.46
9/7/2023 11:00:00 AM 22.97 73.346 0.456 7.94 14.38 8.88
9/7/2023 11:15:00 AM 23.19 73.742 0.454 8.04 21.25 9.42
9/7/2023 11:30:00 AM 23.39 74.102 0.453 8.11 3.23 9.68
9/7/2023 11:45:00 AM 23.77 74.786 0.452 8.17 3.4 9.9
9/7/2023 12:00:00 PM 24.03 75.254 0.452 8.21 3.62 10.15
9/7/2023 12:15:00 PM 24.45 76.01 0.451 8.25 3.34 10.35
9/7/2023 12:30:00 PM 24.94 76.892 0.45 8.31 3.28 10.57
9/7/2023 12:45:00 PM 25.28 77.504 0.449 8.36 3.45 10.67
9/7/2023 1:00:00 PM 25.74 78.332 0.448 8.42 3.06 10.73
9/7/2023 1:15:00 PM 26.18 79.124 0.447 8.45 3.48 10.83
9/7/2023 1:30:00 PM 26.41 79.538 0.446 8.47 3.11 10.7
9/7/2023 1:45:00 PM 26.81 80.258 0.444 8.51 3.5 10.84
9/7/2023 2:00:00 PM 27.21 80.978 0.443 8.52 3.05 10.66
9/7/2023 2:15:00 PM 27.44 81.392 0.442 8.53 3.87 10.61
9/7/2023 2:30:00 PM 27.65 81.77 0.441 8.53 3.24 10.35
9/7/2023 2:45:00 PM 27.88 82.184 0.441 8.54 3.37 10.38
9/7/2023 3:00:00 PM 28.13 82.634 0.439 8.59 3.33 10.5
9/7/2023 3:15:00 PM 28.29 82.922 0.438 8.59 3.25 10.4
9/7/2023 3:30:00 PM 28.32 82.976 0.437 8.6 5.4 10.2
9/7/2023 3:45:00 PM 28.29 82.922 0.437 8.57 9.55 9.92
9/7/2023 4:00:00 PM 28.22 82.796 0.437 8.56 3.05 9.64
9/7/2023 4:15:00 PM 28.03 82.454 0.437 8.55 3.15 9.48
9/7/2023 4:30:00 PM 27.63 81.734 0.438 8.41 3.95 8.65
9/7/2023 4:45:00 PM 27.54 81.57201 0.437 8.44 5.15 8.64
9/7/2023 5:00:00 PM 27.43 81.374 0.437 8.45 5 8.61
9/7/2023 5:15:00 PM 27.28 81.104 0.437 8.44 16.98 8.48
9/7/2023 5:30:00 PM 27.14 80.852 0.437 8.42 3.59 8.34
9/7/2023 5:45:00 PM 26.92 80.456 0.437 8.36 3.95 8.03
9/7/2023 6:00:00 PM 26.84 80.312 0.437 8.36 8.73 7.91
9/7/2023 6:15:00 PM 26.73 80.114 0.437 8.34 4.17 7.67
9/7/2023 6:30:00 PM 26.54 79.772 0.438 8.23 15.2 7.29
9/7/2023 6:45:00 PM 26.42 79.556 0.439 8.13 4.48 6.92
9/7/2023 7:00:00 PM 26.26 79.268 0.441 8.02 4.32 6.55
9/7/2023 7:15:00 PM 26.07 78.926 0.443 7.93 3.46 6.34
9/7/2023 7:30:00 PM 25.88 78.584 0.444 7.87 3.29 6.11
9/7/2023 7:45:00 PM 25.69 78.242 0.446 7.99 3.39 6.41
9/7/2023 8:00:00 PM 25.56 78.008 0.447 7.95 3.32 6.17
9/7/2023 8:15:00 PM 25.41 77.738 0.449 7.94 3.92 6.26
9/7/2023 8:30:00 PM 25.27 77.486 0.449 7.92 3.58 6.21
9/7/2023 8:45:00 PM 25.15 77.27 0.451 7.89 3.65 6.12
9/7/2023 9:00:00 PM 25.04 77.07201 0.452 7.87 3.59 6.04
9/7/2023 9:15:00 PM 24.92 76.856 0.453 7.85 3.58 5.99
9/7/2023 9:30:00 PM 24.83 76.694 0.453 7.83 3.5 5.9
9/7/2023 9:45:00 PM 24.72 76.496 0.454 7.81 3.3 5.84
9/7/2023 10:00:00 PM 24 75.2 0.46 7.77 37.86 6.21
9/7/2023 10:15:00 PM 23.55 74.39 0.459 7.91 29.22 7.24
9/7/2023 10:30:00 PM 23.33 73.994 0.46 7.93 26.22 7.41
9/7/2023 10:45:00 PM 23.24 73.832 0.458 7.92 28.98 7.42
9/7/2023 11:00:00 PM 23.14 73.652 0.448 7.91 39.57 7.41
9/7/2023 11:15:00 PM 23.02 73.436 0.428 7.89 61.72 7.43
9/7/2023 11:30:00 PM 22.86 73.148 0.405 7.86 73.73 7.45
9/7/2023 11:45:00 PM 22.66 72.788 0.383 7.84 90.06 7.47
9/8/2023 12:00:00 AM 22.5 72.5 0.366 7.81 100.2 7.46
9/8/2023 12:15:00 AM 22.31 72.158 0.354 7.79 109.23 7.5
9/8/2023 12:30:00 AM 22.16 71.888 0.344 7.77 114.19 7.52
9/8/2023 12:45:00 AM 22.03 71.654 0.339 7.76 122.1 7.55
9/8/2023 1:00:00 AM 21.9 71.42 0.335 7.74 131.26 7.57
9/8/2023 1:15:00 AM 21.8 71.24 0.332 7.73 119.11 7.58
9/8/2023 1:30:00 AM 21.7 71.06 0.331 7.73 118.01 7.6
9/8/2023 1:45:00 AM 21.61 70.898 0.33 7.73 106.19 7.62
9/8/2023 2:00:00 AM 21.53 70.754 0.331 7.73 101.88 7.63
9/8/2023 2:15:00 AM 21.46 70.628 0.332 7.73 95.06 7.64
9/8/2023 2:30:00 AM 21.39 70.502 0.333 7.73 88.17 7.64
9/8/2023 2:45:00 AM 21.31 70.358 0.334 7.73 73.05 7.65
9/8/2023 3:00:00 AM 21.23 70.214 0.335 7.74 66.98 7.65
9/8/2023 3:15:00 AM 21.17 70.106 0.337 7.74 63.75 7.65
9/8/2023 3:30:00 AM 21.11 69.998 0.338 7.73 57.54 7.65
9/8/2023 3:45:00 AM 21.04 69.872 0.339 7.74 52.78 7.66
9/8/2023 4:00:00 AM 20.99 69.782 0.34 7.73 50.1 7.65
9/8/2023 4:15:00 AM 20.96 69.728 0.341 7.73 51.79 7.65
9/8/2023 4:30:00 AM 20.92 69.656 0.342 7.73 43.61 7.66
9/8/2023 4:45:00 AM 20.9 69.62 0.343 7.73 45.91 7.66
9/8/2023 5:00:00 AM 20.87 69.566 0.344 7.73 42.71 7.66
9/8/2023 5:15:00 AM 20.84 69.512 0.345 7.73 45.38 7.65
9/8/2023 5:30:00 AM 20.8 69.44 0.345 7.73 38.88 7.65
9/8/2023 5:45:00 AM 20.75 69.35 0.346 7.73 42.04 7.64
9/8/2023 6:00:00 AM 20.7 69.26 0.347 7.73 42.79 7.63
9/8/2023 6:15:00 AM 20.64 69.152 0.347 7.72 39.92 7.65
9/8/2023 6:30:00 AM 20.59 69.062 0.348 7.72 41.68 7.64
9/8/2023 6:45:00 AM 20.54 68.972 0.349 7.72 40.39 7.65
9/8/2023 7:00:00 AM 20.51 68.918 0.35 7.72 39.04 7.66
9/8/2023 7:15:00 AM 20.5 68.9 0.35 7.72 37.34 7.67
9/8/2023 7:30:00 AM 20.51 68.918 0.351 7.72 33.67 7.7
9/8/2023 7:45:00 AM 20.52 68.936 0.351 7.73 35.42 7.73
9/8/2023 8:00:00 AM 20.54 68.972 0.352 7.73 34.52 7.73
9/8/2023 8:15:00 AM 20.57 69.026 0.352 7.74 32.63 7.78
9/8/2023 8:30:00 AM 20.62 69.116 0.352 7.76 40.68 7.86
9/8/2023 8:45:00 AM 20.65 69.17 0.352 7.78 35.04 7.95
9/8/2023 9:00:00 AM 20.71 69.278 0.352 7.8 33.78 8.07
9/8/2023 9:15:00 AM 20.82 69.476 0.352 7.82 30.15 8.16
9/8/2023 9:30:00 AM 20.91 69.638 0.352 7.85 31.4 8.29
9/8/2023 9:45:00 AM 21 69.8 0.352 7.88 31.73 8.36
9/8/2023 10:00:00 AM 21.19 70.142 0.353 7.91 29.31 8.55
9/8/2023 10:15:00 AM 21.33 70.394 0.353 7.94 29.99 8.6
9/8/2023 10:30:00 AM 21.42 70.556 0.353 7.97 26.66 8.69
9/8/2023 10:45:00 AM 21.54 70.772 0.353 8 28.54 8.76
9/8/2023 11:00:00 AM 21.83 71.294 0.354 8.04 47.83 8.87
9/8/2023 11:15:00 AM 22.1 71.78 0.354 8.07 46.93 9
9/8/2023 11:30:00 AM 22.35 72.23 0.355 8.11 42.83 9.1
9/8/2023 11:45:00 AM 22.55 72.59 0.355 8.15 38.17 9.21
9/8/2023 12:00:00 PM 22.55 72.59 0.355 8.17 27.49 9.17
9/8/2023 12:15:00 PM 22.73 72.914 0.356 8.19 26.74 9.21
9/8/2023 12:30:00 PM 22.86 73.148 0.357 8.22 21.33 9.25
9/8/2023 12:45:00 PM 23.08 73.544 0.357 8.26 35.82 9.3
9/8/2023 1:00:00 PM 23.53 74.354 0.358 8.3 20.68 9.44
9/8/2023 1:15:00 PM 23.6 74.48 0.358 8.33 18.76 9.42
9/8/2023 1:30:00 PM 23.92 75.056 0.359 8.36 18.01 9.49
9/8/2023 1:45:00 PM 24.22 75.596 0.36 8.38 20.06 9.55
9/8/2023 2:00:00 PM 24.3 75.74 0.36 8.41 18.43 9.49
9/8/2023 2:15:00 PM 24.45 76.01 0.361 8.43 17.75 9.48
9/8/2023 2:30:00 PM 24.42 75.956 0.361 8.42 17.59 9.34
9/8/2023 2:45:00 PM 24.5 76.1 0.362 8.43 16.76 9.36
9/8/2023 3:00:00 PM 24.75 76.55 0.362 8.45 16.29 9.36
9/8/2023 3:15:00 PM 24.92 76.856 0.363 8.47 15.45 9.43
9/8/2023 3:30:00 PM 25.04 77.07201 0.363 8.49 14.78 9.48
9/8/2023 3:45:00 PM 25.14 77.252 0.364 8.51 15.79 9.47
9/8/2023 4:00:00 PM 25.17 77.306 0.364 8.52 15.5 9.41
9/8/2023 4:15:00 PM 25.18 77.324 0.365 8.52 24.54 9.33
9/8/2023 4:30:00 PM 25.18 77.324 0.365 8.52 19.4 9.26
9/8/2023 4:45:00 PM 25.22 77.396 0.366 8.53 12.57 9.19
9/8/2023 5:00:00 PM 25.26 77.468 0.366 8.54 53.45 9.11
9/8/2023 5:15:00 PM 25.26 77.468 0.367 8.54 12.06 9
9/8/2023 5:30:00 PM 25.22 77.396 0.368 8.52 11.16 8.83
9/8/2023 5:45:00 PM 25.12 77.216 0.369 8.49 11.92 8.65
9/8/2023 6:00:00 PM 25.01 77.018 0.37 8.47 11.74 8.52
9/8/2023 6:15:00 PM 24.91 76.838 0.371 8.44 10.8 8.33
9/8/2023 6:30:00 PM 24.82 76.676 0.371 8.41 9.91 8.17
9/8/2023 6:45:00 PM 24.73 76.514 0.372 8.38 10.9 8.03
9/8/2023 7:00:00 PM 24.64 76.352 0.373 8.35 11.06 7.87
9/8/2023 7:15:00 PM 24.57 76.226 0.374 8.31 10.56 7.67
9/8/2023 7:30:00 PM 24.46 76.028 0.375 8.26 10.16 7.51
9/8/2023 7:45:00 PM 24.39 75.902 0.376 8.22 10.84 7.37
9/8/2023 8:00:00 PM 24.32 75.776 0.377 8.18 9.84 7.21
9/8/2023 8:15:00 PM 24.24 75.632 0.378 8.14 10.04 7.1
9/8/2023 8:30:00 PM 24.17 75.506 0.379 8.1 9.67 6.98
9/8/2023 8:45:00 PM 24.06 75.308 0.379 8.07 8.97 6.98
9/8/2023 9:00:00 PM 23.98 75.164 0.38 8.04 9.97 6.93
9/8/2023 9:15:00 PM 23.91 75.038 0.381 8.01 9.91 6.86
9/8/2023 9:30:00 PM 23.81 74.858 0.381 7.98 9.43 6.86
9/8/2023 9:45:00 PM 23.73 74.714 0.382 7.96 9.36 6.87
9/8/2023 10:00:00 PM 23.66 74.588 0.382 7.95 10.14 6.84
9/8/2023 10:15:00 PM 23.59 74.462 0.383 7.93 9.08 6.86
9/8/2023 10:30:00 PM 23.52 74.336 0.383 7.92 9.63 6.85
9/8/2023 10:45:00 PM 23.45 74.21 0.384 7.91 8.86 6.85
9/8/2023 11:00:00 PM 23.38 74.084 0.385 7.9 8.36 6.87
9/8/2023 11:15:00 PM 23.33 73.994 0.385 7.89 8.65 6.83
9/8/2023 11:30:00 PM 23.27 73.886 0.385 7.88 8.06 6.86
9/8/2023 11:45:00 PM 23.21 73.778 0.385 7.87 9.48 6.87
9/9/2023 12:00:00 AM 23.17 73.706 0.386 7.86 8.93 6.82
9/9/2023 12:15:00 AM 23.11 73.598 0.386 7.86 8.3 6.82
9/9/2023 12:30:00 AM 23.04 73.472 0.386 7.85 8.41 6.86
9/9/2023 12:45:00 AM 22.97 73.346 0.387 7.84 8.49 6.87
9/9/2023 1:00:00 AM 22.91 73.238 0.387 7.84 8.11 6.88
9/9/2023 1:15:00 AM 22.85 73.13 0.388 7.84 8.03 6.87
9/9/2023 1:30:00 AM 22.79 73.022 0.389 7.83 8.14 6.88
9/9/2023 1:45:00 AM 22.72 72.896 0.389 7.82 8.05 6.87
9/9/2023 2:00:00 AM 22.66 72.788 0.39 7.82 7.34 6.88
9/9/2023 2:15:00 AM 22.59 72.662 0.391 7.82 7.88 6.91
9/9/2023 2:30:00 AM 22.53 72.554 0.392 7.82 7.9 6.92
9/9/2023 2:45:00 AM 22.45 72.41 0.393 7.81 8.02 6.94
9/9/2023 3:00:00 AM 22.41 72.338 0.394 7.81 6.74 6.92
9/9/2023 3:15:00 AM 22.33 72.194 0.395 7.81 7.98 6.96
9/9/2023 3:30:00 AM 22.27 72.086 0.395 7.81 7.58 6.98
9/9/2023 3:45:00 AM 22.22 71.996 0.396 7.8 7.73 6.93
9/9/2023 4:00:00 AM 22.16 71.888 0.397 7.8 7.13 6.92
9/9/2023 4:15:00 AM 22.1 71.78 0.397 7.8 6.96 6.93
9/9/2023 4:30:00 AM 22.04 71.672 0.398 7.79 10.78 6.92
9/9/2023 4:45:00 AM 21.99 71.582 0.398 7.79 7.07 6.94
9/9/2023 5:00:00 AM 21.9 71.42 0.398 7.79 7.29 6.96
9/9/2023 5:15:00 AM 21.81 71.258 0.399 7.79 6.65 7.02
9/9/2023 5:30:00 AM 21.77 71.186 0.399 7.79 7.86 6.99
9/9/2023 5:45:00 AM 21.71 71.078 0.399 7.79 7.45 7.02
9/9/2023 6:00:00 AM 21.64 70.952 0.399 7.79 7.55 7.03
9/9/2023 6:15:00 AM 21.57 70.826 0.399 7.79 7.85 7.07
9/9/2023 6:30:00 AM 21.54 70.772 0.399 7.79 7.76 7.07
9/9/2023 6:45:00 AM 21.47 70.646 0.399 7.78 7.72 7.07
9/9/2023 7:00:00 AM 21.39 70.502 0.398 7.79 9.56 7.18
9/9/2023 7:15:00 AM 21.33 70.394 0.397 7.79 18.43 7.16
9/9/2023 7:30:00 AM 21.29 70.32201 0.397 7.78 8.48 7.18
9/9/2023 7:45:00 AM 21.22 70.196 0.397 7.79 21.38 7.28
9/9/2023 8:00:00 AM 21.2 70.16 0.397 7.79 6.54 7.29
9/9/2023 8:15:00 AM 21.15 70.07 0.396 7.8 18.09 7.29
9/9/2023 8:30:00 AM 21.12 70.016 0.396 7.8 24.89 7.31
9/9/2023 8:45:00 AM 21.07 69.926 0.396 7.82 6.16 7.57
9/9/2023 9:00:00 AM 21.08 69.944 0.396 7.82 28.01 7.6
9/9/2023 9:15:00 AM 21.07 69.926 0.395 7.84 6.24 7.78
9/9/2023 9:30:00 AM 21.08 69.944 0.395 7.86 18.26 7.88
9/9/2023 9:45:00 AM 21.08 69.944 0.395 7.88 5.19 8.01
9/9/2023 10:00:00 AM 21.08 69.944 0.396 7.9 20.82 8.16
9/9/2023 10:15:00 AM 21.09 69.962 0.396 7.93 5.92 8.3
9/9/2023 10:30:00 AM 21.09 69.962 0.397 7.95 26.29 8.36
9/9/2023 10:45:00 AM 21.1 69.98 0.397 7.96 12.94 8.39
9/9/2023 11:00:00 AM 21.09 69.962 0.398 7.98 5.57 8.53
9/9/2023 11:15:00 AM 21.11 69.998 0.398 8.02 5.4 8.71
9/9/2023 11:30:00 AM 21.14 70.052 0.398 8.04 5.03 8.76
9/9/2023 11:45:00 AM 21.15 70.07 0.399 8.06 21.44 8.93
9/9/2023 12:00:00 PM 21.15 70.07 0.399 8.08 17.65 8.98
9/9/2023 12:15:00 PM 21.16 70.088 0.4 8.09 5.23 9
9/9/2023 12:30:00 PM 21.16 70.088 0.4 8.11 14.82 8.99
9/9/2023 12:45:00 PM 21.17 70.106 0.401 8.12 6.44 9.08
9/9/2023 1:00:00 PM 21.2 70.16 0.401 8.15 15.73 9.25
9/9/2023 1:15:00 PM 21.23 70.214 0.401 8.16 5.06 9.28
9/9/2023 1:30:00 PM 21.23 70.214 0.401 8.2 15.3 9.44
9/9/2023 1:45:00 PM 21.24 70.232 0.401 8.2 5.36 9.3
9/9/2023 2:00:00 PM 21.24 70.232 0.401 8.24 4.68 9.45
9/9/2023 2:15:00 PM 21.25 70.25 0.401 8.25 4.71 9.42
9/9/2023 2:30:00 PM 21.24 70.232 0.401 8.25 5.4 9.44
9/9/2023 2:45:00 PM 21.23 70.214 0.401 8.25 4.93 9.36
9/9/2023 3:00:00 PM 21.24 70.232 0.401 8.26 13.87 9.42
9/9/2023 3:15:00 PM 21.22 70.196 0.401 8.25 22.21 9.32
9/9/2023 3:30:00 PM 21.14 70.052 0.4 8.25 19.82 9.15
9/9/2023 3:45:00 PM 21.12 70.016 0.399 8.23 26.1 9.02
9/9/2023 4:00:00 PM 21.07 69.926 0.398 8.21 25.08 8.75
9/9/2023 4:15:00 PM 20.95 69.71 0.395 8.18 6.75 8.63
9/9/2023 4:30:00 PM 20.86 69.548 0.391 8.14 7.28 8.49
9/9/2023 4:45:00 PM 20.8 69.44 0.387 8.11 23.32 8.42
9/9/2023 5:00:00 PM 20.79 69.422 0.386 8.11 19.59 8.52
9/9/2023 5:15:00 PM 20.79 69.422 0.386 8.1 19.12 8.48
9/9/2023 5:30:00 PM 20.81 69.458 0.385 8.11 12.79 8.61
9/9/2023 5:45:00 PM 20.84 69.512 0.385 8.13 19.92 8.85
9/9/2023 6:00:00 PM 20.88 69.584 0.386 8.14 27.5 8.85
9/9/2023 6:15:00 PM 20.9 69.62 0.388 8.15 13.53 8.89
9/9/2023 6:30:00 PM 20.89 69.602 0.39 8.16 5.79 8.86
9/9/2023 6:45:00 PM 20.88 69.584 0.391 8.16 5.13 8.75
9/9/2023 7:00:00 PM 20.87 69.566 0.394 8.14 5.34 8.61
9/9/2023 7:15:00 PM 20.86 69.548 0.396 8.13 5.03 8.43
9/9/2023 7:30:00 PM 20.85 69.53 0.398 8.1 5.28 8.26
9/9/2023 7:45:00 PM 20.83 69.494 0.4 8.07 4.98 8.14
9/9/2023 8:00:00 PM 20.8 69.44 0.401 8.04 5.17 8.03
9/9/2023 8:15:00 PM 20.78 69.404 0.401 8.02 5.63 7.91
9/9/2023 8:30:00 PM 20.74 69.332 0.4 7.99 5.24 7.83
9/9/2023 8:45:00 PM 20.7 69.26 0.4 7.97 6 7.79
9/9/2023 9:00:00 PM 20.64 69.152 0.399 7.97 7.35 7.85
9/9/2023 9:15:00 PM 20.63 69.134 0.399 7.97 8.27 7.89
9/9/2023 9:30:00 PM 20.62 69.116 0.399 7.99 10.84 7.92
9/9/2023 9:45:00 PM 20.63 69.134 0.4 8.01 30.99 7.99
9/9/2023 10:00:00 PM 20.58 69.044 0.399 8.02 33.1 8.1
9/9/2023 10:15:00 PM 20.53 68.954 0.399 8 27.39 8.14
9/9/2023 10:30:00 PM 20.46 68.828 0.396 7.99 30.87 8.15
9/9/2023 10:45:00 PM 20.38 68.684 0.391 7.98 32.94 8.18
9/9/2023 11:00:00 PM 20.28 68.504 0.389 7.98 34.83 8.22
9/9/2023 11:15:00 PM 20.17 68.306 0.388 7.97 27.59 8.25
9/9/2023 11:30:00 PM 20.07 68.126 0.388 7.97 35.56 8.27
9/9/2023 11:45:00 PM 19.98 67.964 0.387 7.96 29.06 8.29
9/10/2023 12:00:00 AM 19.89 67.802 0.383 7.95 30.69 8.31
9/10/2023 12:15:00 AM 19.82 67.676 0.375 7.94 31.62 8.32
9/10/2023 12:30:00 AM 19.75 67.55 0.366 7.93 32.54 8.32
9/10/2023 12:45:00 AM 19.69 67.442 0.357 7.92 33.62 8.33
9/10/2023 1:00:00 AM 19.64 67.352 0.35 7.91 23.38 8.33
9/10/2023 1:15:00 AM 19.59 67.262 0.346 7.9 33.48 8.34
9/10/2023 1:30:00 AM 19.54 67.172 0.343 7.9 33.05 8.34
9/10/2023 1:45:00 AM 19.5 67.1 0.342 7.9 32.95 8.35
9/10/2023 2:00:00 AM 19.47 67.046 0.341 7.89 30.9 8.36
9/10/2023 2:15:00 AM 19.44 66.992 0.34 7.89 31 8.35
9/10/2023 2:30:00 AM 19.41 66.938 0.34 7.89 31.01 8.35
9/10/2023 2:45:00 AM 19.39 66.902 0.34 7.89 28.72 8.35
9/10/2023 3:00:00 AM 19.37 66.866 0.34 7.89 29.84 8.35
9/10/2023 3:15:00 AM 19.35 66.83 0.339 7.89 27.78 8.34
9/10/2023 3:30:00 AM 19.34 66.812 0.339 7.89 29.69 8.34
9/10/2023 3:45:00 AM 19.32 66.776 0.339 7.89 28.18 8.33
9/10/2023 4:00:00 AM 19.31 66.758 0.339 7.89 27.65 8.34
9/10/2023 4:15:00 AM 19.3 66.74 0.339 7.89 23.24 8.34
9/10/2023 4:30:00 AM 19.3 66.74 0.34 7.89 23.76 8.34
9/10/2023 4:45:00 AM 19.29 66.722 0.34 7.9 23.49 8.33
9/10/2023 5:00:00 AM 19.29 66.722 0.34 7.9 22.6 8.34
9/10/2023 5:15:00 AM 19.28 66.704 0.341 7.9 20.69 8.33
9/10/2023 5:30:00 AM 19.28 66.704 0.341 7.9 22.3 8.33
9/10/2023 5:45:00 AM 19.28 66.704 0.341 7.9 20.6 8.32
9/10/2023 6:00:00 AM 19.27 66.686 0.341 7.9 21.29 8.33
9/10/2023 6:15:00 AM 19.27 66.686 0.341 7.9 19.03 8.32
9/10/2023 6:30:00 AM 19.27 66.686 0.341 7.9 19.03 8.31
9/10/2023 6:45:00 AM 19.26 66.668 0.342 7.9 18.65 8.32
9/10/2023 7:00:00 AM 19.26 66.668 0.342 7.9 18.63 8.32
9/10/2023 7:15:00 AM 19.26 66.668 0.342 7.9 17.59 8.32
9/10/2023 7:30:00 AM 19.25 66.65 0.342 7.9 16.94 8.34
9/10/2023 7:45:00 AM 19.25 66.65 0.341 7.91 17.87 8.36
9/10/2023 8:00:00 AM 19.25 66.65 0.34 7.92 15.84 8.41
9/10/2023 8:15:00 AM 19.26 66.668 0.341 7.92 15.27 8.46
9/10/2023 8:30:00 AM 19.28 66.704 0.341 7.93 17.3 8.49
9/10/2023 8:45:00 AM 19.3 66.74 0.342 7.94 14.26 8.53
9/10/2023 9:00:00 AM 19.34 66.812 0.342 7.96 14.64 8.61
9/10/2023 9:15:00 AM 19.37 66.866 0.342 7.98 29.48 8.7
9/10/2023 9:30:00 AM 19.41 66.938 0.342 8 25.09 8.77
9/10/2023 9:45:00 AM 19.48 67.064 0.342 8.03 21.13 8.94
9/10/2023 10:00:00 AM 19.55 67.19 0.342 8.06 21.47 9.02
9/10/2023 10:15:00 AM 19.61 67.298 0.343 8.08 25.11 9.08
9/10/2023 10:30:00 AM 19.69 67.442 0.343 8.11 26.21 9.19
9/10/2023 10:45:00 AM 19.74 67.532 0.343 8.14 23.83 9.21
9/10/2023 11:00:00 AM 19.75 67.55 0.343 8.14 21.07 9.13
9/10/2023 11:15:00 AM 19.76 67.568 0.344 8.14 24.42 9.05
9/10/2023 11:30:00 AM 19.79 67.622 0.344 8.14 23.22 9.03
9/10/2023 11:45:00 AM 19.85 67.73 0.345 8.15 18.83 9.09
9/10/2023 12:00:00 PM 19.93 67.874 0.345 8.18 20.27 9.23
9/10/2023 12:15:00 PM 20.03 68.054 0.345 8.22 20.77 9.35
9/10/2023 12:30:00 PM 20.09 68.162 0.345 8.25 23.6 9.4
9/10/2023 12:45:00 PM 20.14 68.252 0.346 8.27 66.23 9.39
9/10/2023 1:00:00 PM 20.15 68.27 0.346 8.27 24.18 9.35
9/10/2023 1:15:00 PM 20.17 68.306 0.347 8.27 17.2 9.3
9/10/2023 1:30:00 PM 20.17 68.306 0.347 8.27 9.27 9.24
9/10/2023 1:45:00 PM 20.18 68.324 0.347 8.27 29.78 9.12
9/10/2023 2:00:00 PM 20.23 68.414 0.347 8.28 19.91 9.18
9/10/2023 2:15:00 PM 20.33 68.594 0.347 8.31 26.84 9.32
9/10/2023 2:30:00 PM 20.4 68.72 0.347 8.33 21.22 9.41
9/10/2023 2:45:00 PM 20.45 68.81 0.348 8.35 21.47 9.41
9/10/2023 3:00:00 PM 20.51 68.918 0.348 8.37 22.63 9.43
9/10/2023 3:15:00 PM 20.55 68.99 0.348 8.38 21.49 9.41
9/10/2023 3:30:00 PM 20.56 69.008 0.348 8.37 8.15 9.34
9/10/2023 3:45:00 PM 20.58 69.044 0.349 8.37 11.72 9.27
9/10/2023 4:00:00 PM 20.59 69.062 0.35 8.37 21.89 9.19
9/10/2023 4:15:00 PM 20.59 69.062 0.351 8.36 7.15 9.12
9/10/2023 4:30:00 PM 20.58 69.044 0.352 8.34 7.24 9
9/10/2023 4:45:00 PM 20.58 69.044 0.353 8.32 17.16 8.9
9/10/2023 5:00:00 PM 20.58 69.044 0.354 8.31 6.83 8.86
9/10/2023 5:15:00 PM 20.59 69.062 0.355 8.3 6.55 8.83
9/10/2023 5:30:00 PM 20.61 69.098 0.355 8.3 19.2 8.87
9/10/2023 5:45:00 PM 20.64 69.152 0.355 8.3 18.91 8.92
9/10/2023 6:00:00 PM 20.65 69.17 0.356 8.32 5.94 8.95
9/10/2023 6:15:00 PM 20.63 69.134 0.356 8.3 6.37 8.85
9/10/2023 6:30:00 PM 20.62 69.116 0.357 8.27 6.27 8.72
9/10/2023 6:45:00 PM 20.59 69.062 0.357 8.24 6.21 8.63
9/10/2023 7:00:00 PM 20.56 69.008 0.358 8.22 5.92 8.53
9/10/2023 7:15:00 PM 20.53 68.954 0.358 8.2 6.48 8.47
9/10/2023 7:30:00 PM 20.5 68.9 0.359 8.17 6.76 8.39
9/10/2023 7:45:00 PM 20.48 68.864 0.36 8.15 8.8 8.3
9/10/2023 8:00:00 PM 20.46 68.828 0.36 8.12 6.97 8.24
9/10/2023 8:15:00 PM 20.45 68.81 0.36 8.1 7.03 8.18
9/10/2023 8:30:00 PM 20.43 68.774 0.361 8.07 7.14 8.14
9/10/2023 8:45:00 PM 20.42 68.756 0.361 8.06 7.63 8.13
9/10/2023 9:00:00 PM 20.4 68.72 0.361 8.04 7.28 8.11
9/10/2023 9:15:00 PM 20.39 68.702 0.36 8.03 7.93 8.11
9/10/2023 9:30:00 PM 20.37 68.666 0.36 8.02 7.81 8.08
9/10/2023 9:45:00 PM 20.35 68.63 0.359 8.01 7.72 8.06
9/10/2023 10:00:00 PM 20.33 68.594 0.358 8 6.86 8.06
9/10/2023 10:15:00 PM 20.31 68.558 0.357 7.99 6.99 8.04
9/10/2023 10:30:00 PM 20.29 68.522 0.356 7.98 7.34 8.04
9/10/2023 10:45:00 PM 20.27 68.486 0.355 7.98 8.22 8.05
9/10/2023 11:00:00 PM 20.25 68.45 0.354 7.97 8.89 8.02
9/10/2023 11:15:00 PM 20.22 68.396 0.353 7.96 6.93 8.04
9/10/2023 11:30:00 PM 20.19 68.342 0.353 7.95 7.82 8.04
9/10/2023 11:45:00 PM 20.16 68.288 0.352 7.95 9.02 8.02
9/11/2023 12:00:00 AM 20.14 68.252 0.352 7.94 8.26 8.03
9/11/2023 12:15:00 AM 20.12 68.216 0.351 7.93 8.13 8.02
9/11/2023 12:30:00 AM 20.1 68.18 0.352 7.93 7.23 8.03
9/11/2023 12:45:00 AM 20.07 68.126 0.352 7.92 7.96 8.03
9/11/2023 1:00:00 AM 20.05 68.09 0.352 7.92 7.75 8.02
9/11/2023 1:15:00 AM 20.03 68.054 0.353 7.91 7.65 8.01
9/11/2023 1:30:00 AM 20 68 0.353 7.91 7.24 8.03
9/11/2023 1:45:00 AM 19.96 67.92799 0.353 7.91 7.26 8.02
9/11/2023 2:00:00 AM 19.93 67.874 0.354 7.9 7.6 8.03
9/11/2023 2:15:00 AM 19.91 67.838 0.354 7.9 7.53 8.03
9/11/2023 2:30:00 AM 19.88 67.784 0.354 7.9 6.87 8.05
9/11/2023 2:45:00 AM 19.86 67.748 0.354 7.9 8.63 8.05
9/11/2023 3:00:00 AM 19.84 67.712 0.355 7.89 7.24 8.04
9/11/2023 3:15:00 AM 19.8 67.64 0.355 7.89 7 8.05
9/11/2023 3:30:00 AM 19.77 67.586 0.355 7.89 7.29 8.06
9/11/2023 3:45:00 AM 19.74 67.532 0.355 7.89 7.15 8.06
9/11/2023 4:00:00 AM 19.72 67.496 0.355 7.89 7.68 8.05
9/11/2023 4:15:00 AM 19.7 67.46 0.355 7.88 6.7 8.05
9/11/2023 4:30:00 AM 19.67 67.406 0.355 7.88 7.13 8.06
9/11/2023 4:45:00 AM 19.64 67.352 0.355 7.88 6.86 8.07
9/11/2023 5:00:00 AM 19.61 67.298 0.356 7.89 7.66 8.09
9/11/2023 5:15:00 AM 19.58 67.244 0.356 7.89 7 8.09
9/11/2023 5:30:00 AM 19.55 67.19 0.356 7.88 7.05 8.1
9/11/2023 5:45:00 AM 19.53 67.154 0.357 7.88 7.45 8.08
9/11/2023 6:00:00 AM 19.51 67.118 0.357 7.88 7.06 8.09
9/11/2023 6:15:00 AM 19.48 67.064 0.357 7.88 7.96 8.08
9/11/2023 6:30:00 AM 19.46 67.028 0.358 7.88 7.84 8.1
9/11/2023 6:45:00 AM 19.44 66.992 0.358 7.88 6.96 8.07
9/11/2023 7:00:00 AM 19.42 66.956 0.358 7.88 7.69 8.08
9/11/2023 7:15:00 AM 19.39 66.902 0.359 7.89 9.51 8.16
9/11/2023 7:30:00 AM 19.37 66.866 0.359 7.91 22.12 8.21
9/11/2023 7:45:00 AM 19.35 66.83 0.359 7.93 43.02 8.33
9/11/2023 8:00:00 AM 19.34 66.812 0.361 7.95 13.39 8.4
9/11/2023 8:15:00 AM 19.32 66.776 0.363 7.97 13.67 8.49
9/11/2023 8:30:00 AM 19.3 66.74 0.365 7.99 12.97 8.56
9/11/2023 8:45:00 AM 19.29 66.722 0.366 8 11.11 8.62
9/11/2023 9:00:00 AM 19.26 66.668 0.367 8.01 12.28 8.61
9/11/2023 9:15:00 AM 19.24 66.632 0.368 8.02 53.59 8.65
9/11/2023 9:30:00 AM 19.22 66.596 0.369 8.04 23.84 8.68
9/11/2023 9:45:00 AM 19.23 66.614 0.37 8.07 16.12 8.85
9/11/2023 10:00:00 AM 19.26 66.668 0.372 8.1 18.57 9.04
9/11/2023 10:15:00 AM 19.29 66.722 0.374 8.13 8.32 9.13
9/11/2023 10:30:00 AM 19.27 66.686 0.375 8.14 18.32 9.11
9/11/2023 10:45:00 AM 19.29 66.722 0.376 8.17 20.75 9.21
9/11/2023 11:00:00 AM 19.31 66.758 0.377 8.19 17.27 9.29
9/11/2023 11:15:00 AM 19.38 66.884 0.379 8.22 7.88 9.42
9/11/2023 11:30:00 AM 19.4 66.92 0.38 8.24 10.14 9.42
9/11/2023 11:45:00 AM 19.41 66.938 0.381 8.25 6.93 9.39
9/11/2023 12:00:00 PM 19.45 67.01 0.381 8.27 6.86 9.44
9/11/2023 12:15:00 PM 19.47 67.046 0.382 8.28 23.5 9.45
9/11/2023 12:30:00 PM 19.48 67.064 0.381 8.29 7.12 9.41
9/11/2023 12:45:00 PM 19.54 67.172 0.38 8.31 18.22 9.5
9/11/2023 1:00:00 PM 19.55 67.19 0.379 8.32 19.64 9.49
9/11/2023 1:15:00 PM 19.57 67.226 0.378 8.32 10.52 9.46
9/11/2023 1:30:00 PM 19.6 67.28 0.376 8.34 18.13 9.46
9/11/2023 1:45:00 PM 19.65 67.37 0.374 8.35 8.01 9.49
9/11/2023 2:00:00 PM 19.71 67.478 0.373 8.37 6.48 9.54
9/11/2023 2:15:00 PM 19.86 67.748 0.371 8.41 6.86 9.72
9/11/2023 2:30:00 PM 20.04 68.07201 0.369 8.45 24.72 9.86
9/11/2023 2:45:00 PM 20.29 68.522 0.368 8.49 6.09 9.99
9/11/2023 3:00:00 PM 20.45 68.81 0.367 8.52 6.84 10
9/11/2023 3:15:00 PM 20.55 68.99 0.366 8.54 19.85 9.96
9/11/2023 3:30:00 PM 20.69 69.242 0.365 8.56 20.36 10
9/11/2023 3:45:00 PM 20.75 69.35 0.364 8.58 6.1 9.98
9/11/2023 4:00:00 PM 20.82 69.476 0.363 8.59 18.7 9.89
9/11/2023 4:15:00 PM 20.87 69.566 0.362 8.6 19.75 9.81
9/11/2023 4:30:00 PM 20.99 69.782 0.362 8.61 23.17 9.76
9/11/2023 4:45:00 PM 21.06 69.908 0.36 8.61 19.68 9.7
9/11/2023 5:00:00 PM 21.04 69.872 0.359 8.61 21.15 9.58
9/11/2023 5:15:00 PM 21 69.8 0.359 8.6 20.38 9.52
9/11/2023 5:30:00 PM 21 69.8 0.358 8.6 5.8 9.45
9/11/2023 5:45:00 PM 21.01 69.818 0.357 8.6 18.93 9.32
9/11/2023 6:00:00 PM 20.93 69.674 0.357 8.57 13.89 9.1
9/11/2023 6:15:00 PM 20.9 69.62 0.356 8.55 5.98 8.93
9/11/2023 6:30:00 PM 20.86 69.548 0.356 8.52 7.06 8.81
9/11/2023 6:45:00 PM 20.8 69.44 0.356 8.5 5.6 8.69
9/11/2023 7:00:00 PM 20.74 69.332 0.356 8.47 5.81 8.59

These are provisional data and have not been subject to a quality assurance process, but rather are the raw data reported by the instrument.
H: value is above sensor operating range
L: value is below sensor operating range
Offline: station is not reporting data
NC: parameter is not collected at site

Data Availability & Limitations

Uncertainty and potential for error can be associated with environmental monitoring data. Provisional data have not been subject to a quality assurance process, but rather are the raw data reported by the instrument. Data users are cautioned to consider carefully the provisional nature of the information before using it for decisions that concern personal or public safety or the conduct of business that involves substantial monetary or operational consequences.

Approved data are currently available by request by emailing: [email protected]. Approved data have been subject to a quality assurance process to correct for equipment or fouling drift. Data recorded during equipment malfunctions have been removed.

View Historical Stations that have been discontinued.